﻿<?xml version="1.0" encoding="utf-8"?><gpx creator="Garmin Desktop App" version="1.1" xsi:schemaLocation="http://www.topografix.com/GPX/1/1 http://www.topografix.com/GPX/1/1/gpx.xsd http://www.garmin.com/xmlschemas/WaypointExtension/v1 http://www8.garmin.com/xmlschemas/WaypointExtensionv1.xsd http://www.garmin.com/xmlschemas/TrackPointExtension/v1 http://www.garmin.com/xmlschemas/TrackPointExtensionv1.xsd http://www.garmin.com/xmlschemas/GpxExtensions/v3 http://www8.garmin.com/xmlschemas/GpxExtensionsv3.xsd http://www.garmin.com/xmlschemas/ActivityExtension/v1 http://www8.garmin.com/xmlschemas/ActivityExtensionv1.xsd http://www.garmin.com/xmlschemas/AdventuresExtensions/v1 http://www8.garmin.com/xmlschemas/AdventuresExtensionv1.xsd http://www.garmin.com/xmlschemas/PressureExtension/v1 http://www.garmin.com/xmlschemas/PressureExtensionv1.xsd http://www.garmin.com/xmlschemas/TripExtensions/v1 http://www.garmin.com/xmlschemas/TripExtensionsv1.xsd http://www.garmin.com/xmlschemas/TripMetaDataExtensions/v1 http://www.garmin.com/xmlschemas/TripMetaDataExtensionsv1.xsd http://www.garmin.com/xmlschemas/ViaPointTransportationModeExtensions/v1 http://www.garmin.com/xmlschemas/ViaPointTransportationModeExtensionsv1.xsd http://www.garmin.com/xmlschemas/CreationTimeExtension/v1 http://www.garmin.com/xmlschemas/CreationTimeExtensionsv1.xsd http://www.garmin.com/xmlschemas/AccelerationExtension/v1 http://www.garmin.com/xmlschemas/AccelerationExtensionv1.xsd http://www.garmin.com/xmlschemas/PowerExtension/v1 http://www.garmin.com/xmlschemas/PowerExtensionv1.xsd http://www.garmin.com/xmlschemas/VideoExtension/v1 http://www.garmin.com/xmlschemas/VideoExtensionv1.xsd" xmlns="http://www.topografix.com/GPX/1/1" xmlns:xsi="http://www.w3.org/2001/XMLSchema-instance" xmlns:wptx1="http://www.garmin.com/xmlschemas/WaypointExtension/v1" xmlns:gpxtrx="http://www.garmin.com/xmlschemas/GpxExtensions/v3" xmlns:gpxtpx="http://www.garmin.com/xmlschemas/TrackPointExtension/v1" xmlns:gpxx="http://www.garmin.com/xmlschemas/GpxExtensions/v3" xmlns:trp="http://www.garmin.com/xmlschemas/TripExtensions/v1" xmlns:adv="http://www.garmin.com/xmlschemas/AdventuresExtensions/v1" xmlns:prs="http://www.garmin.com/xmlschemas/PressureExtension/v1" xmlns:tmd="http://www.garmin.com/xmlschemas/TripMetaDataExtensions/v1" xmlns:vptm="http://www.garmin.com/xmlschemas/ViaPointTransportationModeExtensions/v1" xmlns:ctx="http://www.garmin.com/xmlschemas/CreationTimeExtension/v1" xmlns:gpxacc="http://www.garmin.com/xmlschemas/AccelerationExtension/v1" xmlns:gpxpx="http://www.garmin.com/xmlschemas/PowerExtension/v1" xmlns:vidx1="http://www.garmin.com/xmlschemas/VideoExtension/v1">

  <metadata>
    <link href="http://www.garmin.com">
      <text>Garmin International</text>
    </link>
    <time>2015-09-16T12:28:34Z</time>
    <bounds maxlat="45.913533149287105" maxlon="8.050079299136996" minlat="45.908217430114746" minlon="8.015997223556042" />
  </metadata>

  <trk>
    <name>carcoforo alpe massero</name>
    <extensions>
      <gpxx:TrackExtension>
        <gpxx:DisplayColor>Yellow</gpxx:DisplayColor>
      </gpxx:TrackExtension>
    </extensions>
    <trkseg>
      <trkpt lat="45.908217430114746" lon="8.05006337352097">
        <ele>1294.55</ele>
        <time>2014-09-25T07:16:53Z</time>
      </trkpt>
      <trkpt lat="45.908221956342459" lon="8.050062116235495">
        <ele>1294.55</ele>
        <time>2014-09-25T07:16:54Z</time>
      </trkpt>
      <trkpt lat="45.908242156729102" lon="8.05004183202982">
        <ele>1293.1099999999999</ele>
        <time>2014-09-25T07:16:58Z</time>
      </trkpt>
      <trkpt lat="45.90824643149972" lon="8.050079299136996">
        <ele>1294.0699999999999</ele>
        <time>2014-09-25T07:17:11Z</time>
      </trkpt>
      <trkpt lat="45.908255819231272" lon="8.050024565309286">
        <ele>1294.55</ele>
        <time>2014-09-25T07:17:21Z</time>
      </trkpt>
      <trkpt lat="45.908316252753139" lon="8.049800265580416">
        <ele>1295.99</ele>
        <time>2014-09-25T07:17:37Z</time>
      </trkpt>
      <trkpt lat="45.908358497545123" lon="8.049714770168066">
        <ele>1296.96</ele>
        <time>2014-09-25T07:17:49Z</time>
      </trkpt>
      <trkpt lat="45.908395880833268" lon="8.049594070762396">
        <ele>1296.96</ele>
        <time>2014-09-25T07:18:00Z</time>
      </trkpt>
      <trkpt lat="45.908479616045952" lon="8.049421487376094">
        <ele>1297.4400000000001</ele>
        <time>2014-09-25T07:18:16Z</time>
      </trkpt>
      <trkpt lat="45.908530578017235" lon="8.049288634210825">
        <ele>1297.9200000000001</ele>
        <time>2014-09-25T07:18:30Z</time>
      </trkpt>
      <trkpt lat="45.908609200268984" lon="8.049152931198478">
        <ele>1297.9200000000001</ele>
        <time>2014-09-25T07:18:43Z</time>
      </trkpt>
      <trkpt lat="45.908664017915726" lon="8.049059892073274">
        <ele>1297.4400000000001</ele>
        <time>2014-09-25T07:18:59Z</time>
      </trkpt>
      <trkpt lat="45.908673573285341" lon="8.0490308906883">
        <ele>1297.9200000000001</ele>
        <time>2014-09-25T07:19:02Z</time>
      </trkpt>
      <trkpt lat="45.908719757571816" lon="8.048989148810506">
        <ele>1297.9200000000001</ele>
        <time>2014-09-25T07:19:14Z</time>
      </trkpt>
      <trkpt lat="45.908728642389178" lon="8.04895612411201">
        <ele>1297.9200000000001</ele>
        <time>2014-09-25T07:19:17Z</time>
      </trkpt>
      <trkpt lat="45.908796368166804" lon="8.048785971477628">
        <ele>1298.4000000000001</ele>
        <time>2014-09-25T07:19:31Z</time>
      </trkpt>
      <trkpt lat="45.908833080902696" lon="8.048803238198161">
        <ele>1298.4000000000001</ele>
        <time>2014-09-25T07:19:43Z</time>
      </trkpt>
      <trkpt lat="45.908838529139757" lon="8.048800220713019">
        <ele>1298.4000000000001</ele>
        <time>2014-09-25T07:19:45Z</time>
      </trkpt>
      <trkpt lat="45.908867279067636" lon="8.04874163120985">
        <ele>1298.4000000000001</ele>
        <time>2014-09-25T07:19:49Z</time>
      </trkpt>
      <trkpt lat="45.908938189968467" lon="8.048505764454603">
        <ele>1298.8800000000001</ele>
        <time>2014-09-25T07:20:07Z</time>
      </trkpt>
      <trkpt lat="45.908980770036578" lon="8.048428148031235">
        <ele>1299.3599999999999</ele>
        <time>2014-09-25T07:20:20Z</time>
      </trkpt>
      <trkpt lat="45.908965012058616" lon="8.048408702015877">
        <ele>1299.3599999999999</ele>
        <time>2014-09-25T07:20:43Z</time>
      </trkpt>
      <trkpt lat="45.908964173868299" lon="8.048390010371804">
        <ele>1299.3599999999999</ele>
        <time>2014-09-25T07:20:49Z</time>
      </trkpt>
      <trkpt lat="45.908976076170802" lon="8.048295881599188">
        <ele>1299.8399999999999</ele>
        <time>2014-09-25T07:20:56Z</time>
      </trkpt>
      <trkpt lat="45.909064337611198" lon="8.048040820285678">
        <ele>1301.28</ele>
        <time>2014-09-25T07:21:12Z</time>
      </trkpt>
      <trkpt lat="45.909069031476974" lon="8.048006370663643">
        <ele>1301.28</ele>
        <time>2014-09-25T07:21:14Z</time>
      </trkpt>
      <trkpt lat="45.909099709242582" lon="8.047924395650625">
        <ele>1301.76</ele>
        <time>2014-09-25T07:21:21Z</time>
      </trkpt>
      <trkpt lat="45.909151928499341" lon="8.047785256057978">
        <ele>1301.76</ele>
        <time>2014-09-25T07:21:35Z</time>
      </trkpt>
      <trkpt lat="45.909230131655931" lon="8.047552322968841">
        <ele>1303.2</ele>
        <time>2014-09-25T07:21:51Z</time>
      </trkpt>
      <trkpt lat="45.909309424459934" lon="8.047322910279036">
        <ele>1304.6500000000001</ele>
        <time>2014-09-25T07:22:07Z</time>
      </trkpt>
      <trkpt lat="45.909352339804173" lon="8.047141022980213">
        <ele>1305.6099999999999</ele>
        <time>2014-09-25T07:22:18Z</time>
      </trkpt>
      <trkpt lat="45.909423166885972" lon="8.046839023008943">
        <ele>1307.05</ele>
        <time>2014-09-25T07:22:36Z</time>
      </trkpt>
      <trkpt lat="45.909497011452913" lon="8.046520091593266">
        <ele>1308.01</ele>
        <time>2014-09-25T07:22:54Z</time>
      </trkpt>
      <trkpt lat="45.909583512693644" lon="8.046287996694446">
        <ele>1308.49</ele>
        <time>2014-09-25T07:23:09Z</time>
      </trkpt>
      <trkpt lat="45.909645706415176" lon="8.046067385002971">
        <ele>1309.9300000000001</ele>
        <time>2014-09-25T07:23:26Z</time>
      </trkpt>
      <trkpt lat="45.909682838246226" lon="8.045862698927522">
        <ele>1311.8599999999999</ele>
        <time>2014-09-25T07:23:41Z</time>
      </trkpt>
      <trkpt lat="45.909704715013504" lon="8.045649379491806">
        <ele>1312.8199999999999</ele>
        <time>2014-09-25T07:23:58Z</time>
      </trkpt>
      <trkpt lat="45.90973237529397" lon="8.045459864661098">
        <ele>1312.8199999999999</ele>
        <time>2014-09-25T07:24:10Z</time>
      </trkpt>
      <trkpt lat="45.90970991179347" lon="8.045300776138902">
        <ele>1313.3</ele>
        <time>2014-09-25T07:24:26Z</time>
      </trkpt>
      <trkpt lat="45.909698260948062" lon="8.04508913308382">
        <ele>1314.74</ele>
        <time>2014-09-25T07:24:41Z</time>
      </trkpt>
      <trkpt lat="45.909679485484958" lon="8.044881764799357">
        <ele>1315.7</ele>
        <time>2014-09-25T07:24:54Z</time>
      </trkpt>
      <trkpt lat="45.909668756648898" lon="8.044797945767641">
        <ele>1316.6600000000001</ele>
        <time>2014-09-25T07:25:00Z</time>
      </trkpt>
      <trkpt lat="45.909675965085626" lon="8.04476760327816">
        <ele>1316.6600000000001</ele>
        <time>2014-09-25T07:25:02Z</time>
      </trkpt>
      <trkpt lat="45.909670768305659" lon="8.044722843915224">
        <ele>1316.6600000000001</ele>
        <time>2014-09-25T07:25:05Z</time>
      </trkpt>
      <trkpt lat="45.909679150208831" lon="8.04445437155664">
        <ele>1317.6199999999999</ele>
        <time>2014-09-25T07:25:22Z</time>
      </trkpt>
      <trkpt lat="45.909697590395808" lon="8.044324032962322">
        <ele>1318.5899999999999</ele>
        <time>2014-09-25T07:25:31Z</time>
      </trkpt>
      <trkpt lat="45.909707732498646" lon="8.044107025489211">
        <ele>1320.03</ele>
        <time>2014-09-25T07:25:45Z</time>
      </trkpt>
      <trkpt lat="45.909700943157077" lon="8.043903596699238">
        <ele>1320.99</ele>
        <time>2014-09-25T07:25:59Z</time>
      </trkpt>
      <trkpt lat="45.909701026976109" lon="8.043888341635466">
        <ele>1320.99</ele>
        <time>2014-09-25T07:26:00Z</time>
      </trkpt>
      <trkpt lat="45.909713264554739" lon="8.043643590062857">
        <ele>1321.95</ele>
        <time>2014-09-25T07:26:15Z</time>
      </trkpt>
      <trkpt lat="45.909745115786791" lon="8.043531104922295">
        <ele>1321.95</ele>
        <time>2014-09-25T07:26:27Z</time>
      </trkpt>
      <trkpt lat="45.909772105515003" lon="8.04349472746253">
        <ele>1321.47</ele>
        <time>2014-09-25T07:26:56Z</time>
      </trkpt>
      <trkpt lat="45.909774284809828" lon="8.043493470177054">
        <ele>1322.9100000000001</ele>
        <time>2014-09-25T07:26:57Z</time>
      </trkpt>
      <trkpt lat="45.909723239019513" lon="8.043370759114623">
        <ele>1323.3900000000001</ele>
        <time>2014-09-25T07:27:06Z</time>
      </trkpt>
      <trkpt lat="45.909673869609833" lon="8.043305044993758">
        <ele>1323.3900000000001</ele>
        <time>2014-09-25T07:27:11Z</time>
      </trkpt>
      <trkpt lat="45.909638162702322" lon="8.043237486854196">
        <ele>1323.3900000000001</ele>
        <time>2014-09-25T07:27:15Z</time>
      </trkpt>
      <trkpt lat="45.9096375759691" lon="8.043015701696277">
        <ele>1325.3099999999999</ele>
        <time>2014-09-25T07:27:29Z</time>
      </trkpt>
      <trkpt lat="45.909648891538382" lon="8.042887123301625">
        <ele>1326.28</ele>
        <time>2014-09-25T07:27:36Z</time>
      </trkpt>
      <trkpt lat="45.909653417766094" lon="8.042733483016491">
        <ele>1326.76</ele>
        <time>2014-09-25T07:27:45Z</time>
      </trkpt>
      <trkpt lat="45.909653920680285" lon="8.042686376720667">
        <ele>1326.76</ele>
        <time>2014-09-25T07:27:48Z</time>
      </trkpt>
      <trkpt lat="45.909644616767764" lon="8.042606497183442">
        <ele>1327.72</ele>
        <time>2014-09-25T07:27:53Z</time>
      </trkpt>
      <trkpt lat="45.909652998670936" lon="8.042366104200482">
        <ele>1327.72</ele>
        <time>2014-09-25T07:28:07Z</time>
      </trkpt>
      <trkpt lat="45.909650903195143" lon="8.042291672900319">
        <ele>1327.72</ele>
        <time>2014-09-25T07:28:11Z</time>
      </trkpt>
      <trkpt lat="45.90962290763855" lon="8.042126297950745">
        <ele>1328.6800000000001</ele>
        <time>2014-09-25T07:28:21Z</time>
      </trkpt>
      <trkpt lat="45.909587787464261" lon="8.042095452547073">
        <ele>1328.6800000000001</ele>
        <time>2014-09-25T07:28:24Z</time>
      </trkpt>
      <trkpt lat="45.909526264294982" lon="8.042141972109675">
        <ele>1328.6800000000001</ele>
        <time>2014-09-25T07:28:35Z</time>
      </trkpt>
      <trkpt lat="45.909465244039893" lon="8.042264599353075">
        <ele>1328.6800000000001</ele>
        <time>2014-09-25T07:29:10Z</time>
      </trkpt>
      <trkpt lat="45.909495586529374" lon="8.042188324034214">
        <ele>1328.6800000000001</ele>
        <time>2014-09-25T07:29:15Z</time>
      </trkpt>
      <trkpt lat="45.909550068899989" lon="8.042036695405841">
        <ele>1329.1600000000001</ele>
        <time>2014-09-25T07:29:22Z</time>
      </trkpt>
      <trkpt lat="45.909586194902658" lon="8.042031666263938">
        <ele>1329.1600000000001</ele>
        <time>2014-09-25T07:29:25Z</time>
      </trkpt>
      <trkpt lat="45.909608826041222" lon="8.041914319619536">
        <ele>1329.6400000000001</ele>
        <time>2014-09-25T07:29:32Z</time>
      </trkpt>
      <trkpt lat="45.909597426652908" lon="8.041663533076644">
        <ele>1330.1199999999999</ele>
        <time>2014-09-25T07:29:46Z</time>
      </trkpt>
      <trkpt lat="45.909591307863593" lon="8.041644673794508">
        <ele>1330.5999999999999</ele>
        <time>2014-09-25T07:29:47Z</time>
      </trkpt>
      <trkpt lat="45.909609999507666" lon="8.041402688249946">
        <ele>1333.01</ele>
        <time>2014-09-25T07:30:01Z</time>
      </trkpt>
      <trkpt lat="45.909642605111003" lon="8.041057772934437">
        <ele>1334.9300000000001</ele>
        <time>2014-09-25T07:30:20Z</time>
      </trkpt>
      <trkpt lat="45.909643610939384" lon="8.040817379951477">
        <ele>1337.3299999999999</ele>
        <time>2014-09-25T07:30:35Z</time>
      </trkpt>
      <trkpt lat="45.909592732787132" lon="8.040589559823275">
        <ele>1338.29</ele>
        <time>2014-09-25T07:30:49Z</time>
      </trkpt>
      <trkpt lat="45.909574124962091" lon="8.040519738569856">
        <ele>1339.25</ele>
        <time>2014-09-25T07:30:53Z</time>
      </trkpt>
      <trkpt lat="45.909485025331378" lon="8.040222264826298">
        <ele>1340.22</ele>
        <time>2014-09-25T07:31:11Z</time>
      </trkpt>
      <trkpt lat="45.909497179090977" lon="8.040003580972552">
        <ele>1342.6199999999999</ele>
        <time>2014-09-25T07:31:24Z</time>
      </trkpt>
      <trkpt lat="45.909525845199823" lon="8.039762768894434">
        <ele>1345.02</ele>
        <time>2014-09-25T07:31:38Z</time>
      </trkpt>
      <trkpt lat="45.909563982859254" lon="8.039582055062056">
        <ele>1346.46</ele>
        <time>2014-09-25T07:31:49Z</time>
      </trkpt>
      <trkpt lat="45.909594241529703" lon="8.039367645978928">
        <ele>1348.8699999999999</ele>
        <time>2014-09-25T07:32:04Z</time>
      </trkpt>
      <trkpt lat="45.909548811614513" lon="8.039163965731859">
        <ele>1351.27</ele>
        <time>2014-09-25T07:32:18Z</time>
      </trkpt>
      <trkpt lat="45.909535400569439" lon="8.039103196933866">
        <ele>1351.27</ele>
        <time>2014-09-25T07:32:22Z</time>
      </trkpt>
      <trkpt lat="45.909482929855585" lon="8.038861965760589">
        <ele>1353.1900000000001</ele>
        <time>2014-09-25T07:32:38Z</time>
      </trkpt>
      <trkpt lat="45.909435907378793" lon="8.038678653538227">
        <ele>1355.5999999999999</ele>
        <time>2014-09-25T07:32:52Z</time>
      </trkpt>
      <trkpt lat="45.909421239048243" lon="8.038466004654765">
        <ele>1358</ele>
        <time>2014-09-25T07:33:05Z</time>
      </trkpt>
      <trkpt lat="45.909449402242899" lon="8.038237430155277">
        <ele>1359.9200000000001</ele>
        <time>2014-09-25T07:33:21Z</time>
      </trkpt>
      <trkpt lat="45.909461136907339" lon="8.038200214505196">
        <ele>1360.4000000000001</ele>
        <time>2014-09-25T07:33:24Z</time>
      </trkpt>
      <trkpt lat="45.909485025331378" lon="8.038012376055121">
        <ele>1363.29</ele>
        <time>2014-09-25T07:33:38Z</time>
      </trkpt>
      <trkpt lat="45.909478319808841" lon="8.037972562015057">
        <ele>1363.77</ele>
        <time>2014-09-25T07:33:41Z</time>
      </trkpt>
      <trkpt lat="45.909448228776455" lon="8.03789746016264">
        <ele>1365.21</ele>
        <time>2014-09-25T07:33:47Z</time>
      </trkpt>
      <trkpt lat="45.909386789426208" lon="8.037810120731592">
        <ele>1366.1700000000001</ele>
        <time>2014-09-25T07:33:57Z</time>
      </trkpt>
      <trkpt lat="45.909267766401172" lon="8.037800481542945">
        <ele>1365.6900000000001</ele>
        <time>2014-09-25T07:34:07Z</time>
      </trkpt>
      <trkpt lat="45.909201884642243" lon="8.037682548165321">
        <ele>1368.0899999999999</ele>
        <time>2014-09-25T07:34:21Z</time>
      </trkpt>
      <trkpt lat="45.90920171700418" lon="8.037624377757311">
        <ele>1369.05</ele>
        <time>2014-09-25T07:34:27Z</time>
      </trkpt>
      <trkpt lat="45.909148743376136" lon="8.037459086626768">
        <ele>1371.46</ele>
        <time>2014-09-25T07:34:41Z</time>
      </trkpt>
      <trkpt lat="45.909110605716705" lon="8.037321036681533">
        <ele>1373.3800000000001</ele>
        <time>2014-09-25T07:34:53Z</time>
      </trkpt>
      <trkpt lat="45.90911622159183" lon="8.037153566256166">
        <ele>1375.78</ele>
        <time>2014-09-25T07:35:07Z</time>
      </trkpt>
      <trkpt lat="45.909166345372796" lon="8.036999003961682">
        <ele>1377.71</ele>
        <time>2014-09-25T07:35:21Z</time>
      </trkpt>
      <trkpt lat="45.90922174975276" lon="8.036875538527966">
        <ele>1380.1099999999999</ele>
        <time>2014-09-25T07:35:34Z</time>
      </trkpt>
      <trkpt lat="45.909232143312693" lon="8.036845363676548">
        <ele>1380.5899999999999</ele>
        <time>2014-09-25T07:35:37Z</time>
      </trkpt>
      <trkpt lat="45.909255109727383" lon="8.036667667329311">
        <ele>1382.99</ele>
        <time>2014-09-25T07:35:52Z</time>
      </trkpt>
      <trkpt lat="45.90930238366127" lon="8.036538083106279">
        <ele>1385.4000000000001</ele>
        <time>2014-09-25T07:36:05Z</time>
      </trkpt>
      <trkpt lat="45.909343119710684" lon="8.036382179707289">
        <ele>1387.8</ele>
        <time>2014-09-25T07:36:20Z</time>
      </trkpt>
      <trkpt lat="45.909377485513687" lon="8.036220157518983">
        <ele>1390.2</ele>
        <time>2014-09-25T07:36:35Z</time>
      </trkpt>
      <trkpt lat="45.909413611516356" lon="8.036073474213481">
        <ele>1392.1300000000001</ele>
        <time>2014-09-25T07:36:48Z</time>
      </trkpt>
      <trkpt lat="45.909421574324369" lon="8.036006418988109">
        <ele>1393.0899999999999</ele>
        <time>2014-09-25T07:36:54Z</time>
      </trkpt>
      <trkpt lat="45.909425932914019" lon="8.035848001018167">
        <ele>1394.53</ele>
        <time>2014-09-25T07:37:09Z</time>
      </trkpt>
      <trkpt lat="45.909433141350746" lon="8.035639794543386">
        <ele>1397.4100000000001</ele>
        <time>2014-09-25T07:37:26Z</time>
      </trkpt>
      <trkpt lat="45.909428615123034" lon="8.03546167910099">
        <ele>1399.3399999999999</ele>
        <time>2014-09-25T07:37:39Z</time>
      </trkpt>
      <trkpt lat="45.909441523253918" lon="8.035287084057927">
        <ele>1401.26</ele>
        <time>2014-09-25T07:37:53Z</time>
      </trkpt>
      <trkpt lat="45.909538837149739" lon="8.03516210988164">
        <ele>1402.7</ele>
        <time>2014-09-25T07:38:07Z</time>
      </trkpt>
      <trkpt lat="45.909600276499987" lon="8.035080302506685">
        <ele>1404.6199999999999</ele>
        <time>2014-09-25T07:38:21Z</time>
      </trkpt>
      <trkpt lat="45.90946851298213" lon="8.035059180110693">
        <ele>1406.55</ele>
        <time>2014-09-25T07:38:37Z</time>
      </trkpt>
      <trkpt lat="45.909429620951414" lon="8.035043841227889">
        <ele>1406.0699999999999</ele>
        <time>2014-09-25T07:38:51Z</time>
      </trkpt>
      <trkpt lat="45.909389555454254" lon="8.035049708560109">
        <ele>1405.0999999999999</ele>
        <time>2014-09-25T07:38:55Z</time>
      </trkpt>
      <trkpt lat="45.909255193546414" lon="8.035023808479309">
        <ele>1405.0999999999999</ele>
        <time>2014-09-25T07:39:11Z</time>
      </trkpt>
      <trkpt lat="45.909165423363447" lon="8.035023892298341">
        <ele>1405.0999999999999</ele>
        <time>2014-09-25T07:39:24Z</time>
      </trkpt>
      <trkpt lat="45.909169195219874" lon="8.035038225352764">
        <ele>1405.0999999999999</ele>
        <time>2014-09-25T07:39:43Z</time>
      </trkpt>
      <trkpt lat="45.909163914620876" lon="8.035020874813199">
        <ele>1406.55</ele>
        <time>2014-09-25T07:39:59Z</time>
      </trkpt>
      <trkpt lat="45.909138517454267" lon="8.035052558407188">
        <ele>1405.5799999999999</ele>
        <time>2014-09-25T07:40:21Z</time>
      </trkpt>
      <trkpt lat="45.909068780019879" lon="8.03507661446929">
        <ele>1407.51</ele>
        <time>2014-09-25T07:40:32Z</time>
      </trkpt>
      <trkpt lat="45.909062996506691" lon="8.035061862319708">
        <ele>1407.99</ele>
        <time>2014-09-25T07:40:45Z</time>
      </trkpt>
      <trkpt lat="45.909064169973135" lon="8.035043170675635">
        <ele>1407.99</ele>
        <time>2014-09-25T07:40:57Z</time>
      </trkpt>
      <trkpt lat="45.909010274335742" lon="8.035028083249927">
        <ele>1407.99</ele>
        <time>2014-09-25T07:41:09Z</time>
      </trkpt>
      <trkpt lat="45.90893835760653" lon="8.034941079095006">
        <ele>1409.4300000000001</ele>
        <time>2014-09-25T07:41:23Z</time>
      </trkpt>
      <trkpt lat="45.908930394798517" lon="8.034840663895011">
        <ele>1411.3499999999999</ele>
        <time>2014-09-25T07:41:35Z</time>
      </trkpt>
      <trkpt lat="45.909008011221886" lon="8.034795066341758">
        <ele>1412.79</ele>
        <time>2014-09-25T07:41:47Z</time>
      </trkpt>
      <trkpt lat="45.909030726179481" lon="8.03471258841455">
        <ele>1414.24</ele>
        <time>2014-09-25T07:42:00Z</time>
      </trkpt>
      <trkpt lat="45.908960234373808" lon="8.034670846536756">
        <ele>1415.6800000000001</ele>
        <time>2014-09-25T07:42:12Z</time>
      </trkpt>
      <trkpt lat="45.908937603235245" lon="8.034625584259629">
        <ele>1416.1600000000001</ele>
        <time>2014-09-25T07:42:17Z</time>
      </trkpt>
      <trkpt lat="45.908947242423892" lon="8.034518212080002">
        <ele>1418.0799999999999</ele>
        <time>2014-09-25T07:42:29Z</time>
      </trkpt>
      <trkpt lat="45.909002143889666" lon="8.034504465758801">
        <ele>1418.5599999999999</ele>
        <time>2014-09-25T07:42:34Z</time>
      </trkpt>
      <trkpt lat="45.909053273499012" lon="8.034422574564815">
        <ele>1420.97</ele>
        <time>2014-09-25T07:42:47Z</time>
      </trkpt>
      <trkpt lat="45.909080682322383" lon="8.034279998391867">
        <ele>1423.3699999999999</ele>
        <time>2014-09-25T07:43:01Z</time>
      </trkpt>
      <trkpt lat="45.90910641476512" lon="8.034160053357482">
        <ele>1426.25</ele>
        <time>2014-09-25T07:43:15Z</time>
      </trkpt>
      <trkpt lat="45.909123681485653" lon="8.034035749733448">
        <ele>1427.7</ele>
        <time>2014-09-25T07:43:27Z</time>
      </trkpt>
      <trkpt lat="45.909131644293666" lon="8.033877499401569">
        <ele>1430.5799999999999</ele>
        <time>2014-09-25T07:43:43Z</time>
      </trkpt>
      <trkpt lat="45.909159723669291" lon="8.033726289868355">
        <ele>1433.46</ele>
        <time>2014-09-25T07:43:58Z</time>
      </trkpt>
      <trkpt lat="45.909196939319372" lon="8.033574912697077">
        <ele>1435.8699999999999</ele>
        <time>2014-09-25T07:44:16Z</time>
      </trkpt>
      <trkpt lat="45.909213619306684" lon="8.033431163057685">
        <ele>1438.27</ele>
        <time>2014-09-25T07:44:29Z</time>
      </trkpt>
      <trkpt lat="45.909227281808853" lon="8.033321779221296">
        <ele>1441.1500000000001</ele>
        <time>2014-09-25T07:44:44Z</time>
      </trkpt>
      <trkpt lat="45.909229880198836" lon="8.033173000440002">
        <ele>1442.5999999999999</ele>
        <time>2014-09-25T07:44:56Z</time>
      </trkpt>
      <trkpt lat="45.909248990938067" lon="8.033071747049689">
        <ele>1445</ele>
        <time>2014-09-25T07:45:11Z</time>
      </trkpt>
      <trkpt lat="45.909248990938067" lon="8.032974433153868">
        <ele>1446.9200000000001</ele>
        <time>2014-09-25T07:45:23Z</time>
      </trkpt>
      <trkpt lat="45.909395087510347" lon="8.033007960766554">
        <ele>1448.8399999999999</ele>
        <time>2014-09-25T07:45:36Z</time>
      </trkpt>
      <trkpt lat="45.909501621499658" lon="8.032997064292431">
        <ele>1450.77</ele>
        <time>2014-09-25T07:45:51Z</time>
      </trkpt>
      <trkpt lat="45.909485947340727" lon="8.032891200855374">
        <ele>1454.1300000000001</ele>
        <time>2014-09-25T07:46:03Z</time>
      </trkpt>
      <trkpt lat="45.909452000632882" lon="8.032755497843027">
        <ele>1455.0899999999999</ele>
        <time>2014-09-25T07:46:18Z</time>
      </trkpt>
      <trkpt lat="45.909407241269946" lon="8.032640414312482">
        <ele>1456.53</ele>
        <time>2014-09-25T07:46:30Z</time>
      </trkpt>
      <trkpt lat="45.909377569332719" lon="8.03249029442668">
        <ele>1459.4200000000001</ele>
        <time>2014-09-25T07:46:45Z</time>
      </trkpt>
      <trkpt lat="45.909385364502668" lon="8.032376216724515">
        <ele>1461.8199999999999</ele>
        <time>2014-09-25T07:46:58Z</time>
      </trkpt>
      <trkpt lat="45.909507321193814" lon="8.032347382977605">
        <ele>1464.71</ele>
        <time>2014-09-25T07:47:14Z</time>
      </trkpt>
      <trkpt lat="45.909617291763425" lon="8.032369595021009">
        <ele>1466.6300000000001</ele>
        <time>2014-09-25T07:47:30Z</time>
      </trkpt>
      <trkpt lat="45.90961410664022" lon="8.032279741019011">
        <ele>1468.55</ele>
        <time>2014-09-25T07:47:42Z</time>
      </trkpt>
      <trkpt lat="45.90962047688663" lon="8.032137081027031">
        <ele>1470.95</ele>
        <time>2014-09-25T07:47:56Z</time>
      </trkpt>
      <trkpt lat="45.909619051963091" lon="8.032039096578956">
        <ele>1472.8800000000001</ele>
        <time>2014-09-25T07:48:08Z</time>
      </trkpt>
      <trkpt lat="45.909643610939384" lon="8.031887384131551">
        <ele>1475.28</ele>
        <time>2014-09-25T07:48:25Z</time>
      </trkpt>
      <trkpt lat="45.909673785790801" lon="8.031749920919538">
        <ele>1477.6800000000001</ele>
        <time>2014-09-25T07:48:41Z</time>
      </trkpt>
      <trkpt lat="45.909677892923355" lon="8.03161857649684">
        <ele>1479.6099999999999</ele>
        <time>2014-09-25T07:48:56Z</time>
      </trkpt>
      <trkpt lat="45.909800520166755" lon="8.03167381323874">
        <ele>1481.53</ele>
        <time>2014-09-25T07:49:11Z</time>
      </trkpt>
      <trkpt lat="45.909888111054897" lon="8.031713124364615">
        <ele>1483.9300000000001</ele>
        <time>2014-09-25T07:49:29Z</time>
      </trkpt>
      <trkpt lat="45.909942425787449" lon="8.031561160460115">
        <ele>1486.8199999999999</ele>
        <time>2014-09-25T07:49:46Z</time>
      </trkpt>
      <trkpt lat="45.90999380685389" lon="8.031444484367967">
        <ele>1489.22</ele>
        <time>2014-09-25T07:50:02Z</time>
      </trkpt>
      <trkpt lat="45.910033704712987" lon="8.031324287876487">
        <ele>1491.1400000000001</ele>
        <time>2014-09-25T07:50:16Z</time>
      </trkpt>
      <trkpt lat="45.910067483782768" lon="8.031216328963637">
        <ele>1494.03</ele>
        <time>2014-09-25T07:50:31Z</time>
      </trkpt>
      <trkpt lat="45.910085756331682" lon="8.031109962612391">
        <ele>1495.95</ele>
        <time>2014-09-25T07:50:44Z</time>
      </trkpt>
      <trkpt lat="45.910160942003131" lon="8.03101072087884">
        <ele>1497.8699999999999</ele>
        <time>2014-09-25T07:50:59Z</time>
      </trkpt>
      <trkpt lat="45.910200420767069" lon="8.03090175613761">
        <ele>1499.79</ele>
        <time>2014-09-25T07:51:13Z</time>
      </trkpt>
      <trkpt lat="45.91024300083518" lon="8.030758174136281">
        <ele>1501.72</ele>
        <time>2014-09-25T07:51:28Z</time>
      </trkpt>
      <trkpt lat="45.910264290869236" lon="8.030646359547973">
        <ele>1504.5999999999999</ele>
        <time>2014-09-25T07:51:43Z</time>
      </trkpt>
      <trkpt lat="45.910237468779087" lon="8.030573856085539">
        <ele>1506.04</ele>
        <time>2014-09-25T07:51:54Z</time>
      </trkpt>
      <trkpt lat="45.910182315856218" lon="8.030464220792055">
        <ele>1509.4100000000001</ele>
        <time>2014-09-25T07:52:07Z</time>
      </trkpt>
      <trkpt lat="45.910183573141694" lon="8.030344862490892">
        <ele>1509.8900000000001</ele>
        <time>2014-09-25T07:52:21Z</time>
      </trkpt>
      <trkpt lat="45.91010277159512" lon="8.030302533879876">
        <ele>1511.8099999999999</ele>
        <time>2014-09-25T07:52:35Z</time>
      </trkpt>
      <trkpt lat="45.910077542066574" lon="8.030294654890895">
        <ele>1512.29</ele>
        <time>2014-09-25T07:52:39Z</time>
      </trkpt>
      <trkpt lat="45.910061113536358" lon="8.03028853610158">
        <ele>1512.29</ele>
        <time>2014-09-25T07:52:41Z</time>
      </trkpt>
      <trkpt lat="45.9099415037781" lon="8.030249224975705">
        <ele>1514.6900000000001</ele>
        <time>2014-09-25T07:52:58Z</time>
      </trkpt>
      <trkpt lat="45.909867826849222" lon="8.030224749818444">
        <ele>1516.6199999999999</ele>
        <time>2014-09-25T07:53:12Z</time>
      </trkpt>
      <trkpt lat="45.909790880978107" lon="8.030196167528629">
        <ele>1518.54</ele>
        <time>2014-09-25T07:53:24Z</time>
      </trkpt>
      <trkpt lat="45.909776380285621" lon="8.030103966593742">
        <ele>1520.9400000000001</ele>
        <time>2014-09-25T07:53:38Z</time>
      </trkpt>
      <trkpt lat="45.90976414270699" lon="8.030032049864531">
        <ele>1522.8699999999999</ele>
        <time>2014-09-25T07:53:50Z</time>
      </trkpt>
      <trkpt lat="45.909748133271933" lon="8.030031630769372">
        <ele>1524.3099999999999</ele>
        <time>2014-09-25T07:53:57Z</time>
      </trkpt>
      <trkpt lat="45.909694824367762" lon="8.030014028772712">
        <ele>1527.6700000000001</ele>
        <time>2014-09-25T07:54:08Z</time>
      </trkpt>
      <trkpt lat="45.909669594839215" lon="8.029980249702931">
        <ele>1528.6300000000001</ele>
        <time>2014-09-25T07:54:20Z</time>
      </trkpt>
      <trkpt lat="45.909676551818848" lon="8.029860723763704">
        <ele>1531.04</ele>
        <time>2014-09-25T07:54:34Z</time>
      </trkpt>
      <trkpt lat="45.90964981354773" lon="8.029779167845845">
        <ele>1533.4400000000001</ele>
        <time>2014-09-25T07:54:48Z</time>
      </trkpt>
      <trkpt lat="45.909621817991138" lon="8.029770450666547">
        <ele>1535.8399999999999</ele>
        <time>2014-09-25T07:55:00Z</time>
      </trkpt>
      <trkpt lat="45.909606730565429" lon="8.029688475653529">
        <ele>1539.21</ele>
        <time>2014-09-25T07:55:13Z</time>
      </trkpt>
      <trkpt lat="45.909643191844225" lon="8.029580600559712">
        <ele>1542.0899999999999</ele>
        <time>2014-09-25T07:55:30Z</time>
      </trkpt>
      <trkpt lat="45.90972650796175" lon="8.029475910589099">
        <ele>1544.98</ele>
        <time>2014-09-25T07:55:45Z</time>
      </trkpt>
      <trkpt lat="45.909809321165085" lon="8.029411202296615">
        <ele>1546.9000000000001</ele>
        <time>2014-09-25T07:55:57Z</time>
      </trkpt>
      <trkpt lat="45.909831030294299" lon="8.02939971908927">
        <ele>1547.3800000000001</ele>
        <time>2014-09-25T07:56:02Z</time>
      </trkpt>
      <trkpt lat="45.90989850461483" lon="8.029378177598119">
        <ele>1549.78</ele>
        <time>2014-09-25T07:56:09Z</time>
      </trkpt>
      <trkpt lat="45.90992926619947" lon="8.029377087950707">
        <ele>1548.8199999999999</ele>
        <time>2014-09-25T07:56:12Z</time>
      </trkpt>
      <trkpt lat="45.910018365830183" lon="8.029327969998121">
        <ele>1550.26</ele>
        <time>2014-09-25T07:56:27Z</time>
      </trkpt>
      <trkpt lat="45.910109477117658" lon="8.029255466535687">
        <ele>1552.6700000000001</ele>
        <time>2014-09-25T07:56:39Z</time>
      </trkpt>
      <trkpt lat="45.910190278664231" lon="8.029201151803136">
        <ele>1554.1099999999999</ele>
        <time>2014-09-25T07:56:53Z</time>
      </trkpt>
      <trkpt lat="45.91023763641715" lon="8.029213724657893">
        <ele>1556.51</ele>
        <time>2014-09-25T07:57:07Z</time>
      </trkpt>
      <trkpt lat="45.910285413265228" lon="8.029303997755051">
        <ele>1558.4300000000001</ele>
        <time>2014-09-25T07:57:19Z</time>
      </trkpt>
      <trkpt lat="45.910324389114976" lon="8.029208527877927">
        <ele>1560.3599999999999</ele>
        <time>2014-09-25T07:57:33Z</time>
      </trkpt>
      <trkpt lat="45.910381888970733" lon="8.029191428795457">
        <ele>1562.76</ele>
        <time>2014-09-25T07:57:46Z</time>
      </trkpt>
      <trkpt lat="45.910460175946355" lon="8.029250102117658">
        <ele>1564.6800000000001</ele>
        <time>2014-09-25T07:58:00Z</time>
      </trkpt>
      <trkpt lat="45.910465456545353" lon="8.029180364683271">
        <ele>1566.1199999999999</ele>
        <time>2014-09-25T07:58:13Z</time>
      </trkpt>
      <trkpt lat="45.910569978877902" lon="8.029165863990784">
        <ele>1568.05</ele>
        <time>2014-09-25T07:58:26Z</time>
      </trkpt>
      <trkpt lat="45.910595376044512" lon="8.029149770736694">
        <ele>1569.01</ele>
        <time>2014-09-25T07:58:42Z</time>
      </trkpt>
      <trkpt lat="45.910643571987748" lon="8.029133174568415">
        <ele>1569.97</ele>
        <time>2014-09-25T07:58:59Z</time>
      </trkpt>
      <trkpt lat="45.910663269460201" lon="8.029104759916663">
        <ele>1571.4100000000001</ele>
        <time>2014-09-25T07:59:14Z</time>
      </trkpt>
      <trkpt lat="45.910628819838166" lon="8.029076512902975">
        <ele>1571.8900000000001</ele>
        <time>2014-09-25T07:59:39Z</time>
      </trkpt>
      <trkpt lat="45.910610212013125" lon="8.029055390506983">
        <ele>1572.8499999999999</ele>
        <time>2014-09-25T07:59:42Z</time>
      </trkpt>
      <trkpt lat="45.910628568381071" lon="8.028989005833864">
        <ele>1576.22</ele>
        <time>2014-09-25T07:59:56Z</time>
      </trkpt>
      <trkpt lat="45.910553466528654" lon="8.028948185965419">
        <ele>1578.1400000000001</ele>
        <time>2014-09-25T08:00:09Z</time>
      </trkpt>
      <trkpt lat="45.910622198134661" lon="8.028897726908326">
        <ele>1580.54</ele>
        <time>2014-09-25T08:00:22Z</time>
      </trkpt>
      <trkpt lat="45.910682296380401" lon="8.028868893161416">
        <ele>1582.47</ele>
        <time>2014-09-25T08:00:35Z</time>
      </trkpt>
      <trkpt lat="45.910656061023474" lon="8.028800915926695">
        <ele>1584.3900000000001</ele>
        <time>2014-09-25T08:00:47Z</time>
      </trkpt>
      <trkpt lat="45.910633513703942" lon="8.028733609244227">
        <ele>1586.79</ele>
        <time>2014-09-25T08:01:02Z</time>
      </trkpt>
      <trkpt lat="45.910644326359034" lon="8.028649790212512">
        <ele>1589.2</ele>
        <time>2014-09-25T08:01:15Z</time>
      </trkpt>
      <trkpt lat="45.910678440704942" lon="8.028586087748408">
        <ele>1591.1199999999999</ele>
        <time>2014-09-25T08:01:28Z</time>
      </trkpt>
      <trkpt lat="45.910653043538332" lon="8.028524145483971">
        <ele>1593.52</ele>
        <time>2014-09-25T08:01:42Z</time>
      </trkpt>
      <trkpt lat="45.910584395751357" lon="8.028407553210855">
        <ele>1595.9300000000001</ele>
        <time>2014-09-25T08:02:00Z</time>
      </trkpt>
      <trkpt lat="45.91061725281179" lon="8.02836581133306">
        <ele>1599.29</ele>
        <time>2014-09-25T08:02:13Z</time>
      </trkpt>
      <trkpt lat="45.910613061860204" lon="8.028350891545415">
        <ele>1600.25</ele>
        <time>2014-09-25T08:02:27Z</time>
      </trkpt>
      <trkpt lat="45.910623036324978" lon="8.028281154111028">
        <ele>1602.6600000000001</ele>
        <time>2014-09-25T08:02:41Z</time>
      </trkpt>
      <trkpt lat="45.910612056031823" lon="8.028231197968125">
        <ele>1604.5799999999999</ele>
        <time>2014-09-25T08:02:55Z</time>
      </trkpt>
      <trkpt lat="45.910701407119632" lon="8.028214266523719">
        <ele>1606.5</ele>
        <time>2014-09-25T08:03:05Z</time>
      </trkpt>
      <trkpt lat="45.910673830658197" lon="8.028159029781818">
        <ele>1608.9000000000001</ele>
        <time>2014-09-25T08:03:18Z</time>
      </trkpt>
      <trkpt lat="45.910691181197762" lon="8.028112091124058">
        <ele>1610.8299999999999</ele>
        <time>2014-09-25T08:03:30Z</time>
      </trkpt>
      <trkpt lat="45.910742310807109" lon="8.028052747249603">
        <ele>1613.23</ele>
        <time>2014-09-25T08:03:46Z</time>
      </trkpt>
      <trkpt lat="45.910853622481227" lon="8.028014525771141">
        <ele>1615.6300000000001</ele>
        <time>2014-09-25T08:04:03Z</time>
      </trkpt>
      <trkpt lat="45.910867201164365" lon="8.027967503294349">
        <ele>1619</ele>
        <time>2014-09-25T08:04:14Z</time>
      </trkpt>
      <trkpt lat="45.91089871712029" lon="8.027917379513383">
        <ele>1619.48</ele>
        <time>2014-09-25T08:04:29Z</time>
      </trkpt>
      <trkpt lat="45.910939704626799" lon="8.027816377580166">
        <ele>1621.8800000000001</ele>
        <time>2014-09-25T08:04:43Z</time>
      </trkpt>
      <trkpt lat="45.911009777337313" lon="8.027780167758465">
        <ele>1622.8399999999999</ele>
        <time>2014-09-25T08:04:56Z</time>
      </trkpt>
      <trkpt lat="45.911015477031469" lon="8.027762062847614">
        <ele>1622.8399999999999</ele>
        <time>2014-09-25T08:04:59Z</time>
      </trkpt>
      <trkpt lat="45.91103358194232" lon="8.027677657082677">
        <ele>1623.8</ele>
        <time>2014-09-25T08:05:06Z</time>
      </trkpt>
      <trkpt lat="45.911017656326294" lon="8.027524184435606">
        <ele>1625.25</ele>
        <time>2014-09-25T08:05:18Z</time>
      </trkpt>
      <trkpt lat="45.911010531708598" lon="8.027462996542454">
        <ele>1625.73</ele>
        <time>2014-09-25T08:05:22Z</time>
      </trkpt>
      <trkpt lat="45.91098572127521" lon="8.027298292145133">
        <ele>1627.1700000000001</ele>
        <time>2014-09-25T08:05:37Z</time>
      </trkpt>
      <trkpt lat="45.910943811759353" lon="8.027122942730784">
        <ele>1627.6500000000001</ele>
        <time>2014-09-25T08:05:53Z</time>
      </trkpt>
      <trkpt lat="45.910883462056518" lon="8.026913981884718">
        <ele>1630.53</ele>
        <time>2014-09-25T08:06:13Z</time>
      </trkpt>
      <trkpt lat="45.910784639418125" lon="8.026870312169194">
        <ele>1632.9400000000001</ele>
        <time>2014-09-25T08:06:30Z</time>
      </trkpt>
      <trkpt lat="45.91079075820744" lon="8.026744751259685">
        <ele>1635.3399999999999</ele>
        <time>2014-09-25T08:06:47Z</time>
      </trkpt>
      <trkpt lat="45.9106529597193" lon="8.026637965813279">
        <ele>1638.7</ele>
        <time>2014-09-25T08:07:04Z</time>
      </trkpt>
      <trkpt lat="45.910713979974389" lon="8.026528498157859">
        <ele>1640.6300000000001</ele>
        <time>2014-09-25T08:07:17Z</time>
      </trkpt>
      <trkpt lat="45.910724122077227" lon="8.026447109878063">
        <ele>1641.5899999999999</ele>
        <time>2014-09-25T08:07:27Z</time>
      </trkpt>
      <trkpt lat="45.910642985254526" lon="8.026302270591259">
        <ele>1643.99</ele>
        <time>2014-09-25T08:07:44Z</time>
      </trkpt>
      <trkpt lat="45.910559920594096" lon="8.026209650561214">
        <ele>1646.4000000000001</ele>
        <time>2014-09-25T08:08:01Z</time>
      </trkpt>
      <trkpt lat="45.91063192114234" lon="8.026174865663052">
        <ele>1646.8800000000001</ele>
        <time>2014-09-25T08:08:13Z</time>
      </trkpt>
      <trkpt lat="45.910760331898928" lon="8.026189282536507">
        <ele>1648.8</ele>
        <time>2014-09-25T08:08:28Z</time>
      </trkpt>
      <trkpt lat="45.910851443186402" lon="8.026136979460716">
        <ele>1651.6800000000001</ele>
        <time>2014-09-25T08:08:43Z</time>
      </trkpt>
      <trkpt lat="45.91080442070961" lon="8.026083335280418">
        <ele>1653.5999999999999</ele>
        <time>2014-09-25T08:08:55Z</time>
      </trkpt>
      <trkpt lat="45.9108498506248" lon="8.026024661958218">
        <ele>1656.01</ele>
        <time>2014-09-25T08:09:12Z</time>
      </trkpt>
      <trkpt lat="45.910820513963699" lon="8.025954673066735">
        <ele>1657.9300000000001</ele>
        <time>2014-09-25T08:09:28Z</time>
      </trkpt>
      <trkpt lat="45.911558959633112" lon="8.024705853313208">
        <ele>1702.1500000000001</ele>
        <time>2014-09-25T08:14:02Z</time>
      </trkpt>
      <trkpt lat="45.911649819463491" lon="8.024671152234078">
        <ele>1705.04</ele>
        <time>2014-09-25T08:14:18Z</time>
      </trkpt>
      <trkpt lat="45.911792311817408" lon="8.024635529145598">
        <ele>1706.96</ele>
        <time>2014-09-25T08:14:32Z</time>
      </trkpt>
      <trkpt lat="45.911879986524582" lon="8.024620106443763">
        <ele>1708.4000000000001</ele>
        <time>2014-09-25T08:14:45Z</time>
      </trkpt>
      <trkpt lat="45.911911586299539" lon="8.02454374730587">
        <ele>1710.8</ele>
        <time>2014-09-25T08:14:58Z</time>
      </trkpt>
      <trkpt lat="45.911999847739935" lon="8.024526815861464">
        <ele>1713.6900000000001</ele>
        <time>2014-09-25T08:15:13Z</time>
      </trkpt>
      <trkpt lat="45.912059945985675" lon="8.02446017973125">
        <ele>1715.6099999999999</ele>
        <time>2014-09-25T08:15:26Z</time>
      </trkpt>
      <trkpt lat="45.91209246776998" lon="8.024384994059801">
        <ele>1717.05</ele>
        <time>2014-09-25T08:15:38Z</time>
      </trkpt>
      <trkpt lat="45.912171676754951" lon="8.024371583014727">
        <ele>1718.97</ele>
        <time>2014-09-25T08:15:52Z</time>
      </trkpt>
      <trkpt lat="45.912202522158623" lon="8.024327242746949">
        <ele>1720.9000000000001</ele>
        <time>2014-09-25T08:16:06Z</time>
      </trkpt>
      <trkpt lat="45.91224099509418" lon="8.02432338707149">
        <ele>1722.3399999999999</ele>
        <time>2014-09-25T08:16:16Z</time>
      </trkpt>
      <trkpt lat="45.912211071699858" lon="8.02424811758101">
        <ele>1724.26</ele>
        <time>2014-09-25T08:16:28Z</time>
      </trkpt>
      <trkpt lat="45.912259183824062" lon="8.024170501157641">
        <ele>1726.6700000000001</ele>
        <time>2014-09-25T08:16:40Z</time>
      </trkpt>
      <trkpt lat="45.912207299843431" lon="8.024125657975674">
        <ele>1729.0699999999999</ele>
        <time>2014-09-25T08:16:53Z</time>
      </trkpt>
      <trkpt lat="45.91225759126246" lon="8.024067236110568">
        <ele>1730.99</ele>
        <time>2014-09-25T08:17:04Z</time>
      </trkpt>
      <trkpt lat="45.91228885576129" lon="8.023999007418752">
        <ele>1732.9100000000001</ele>
        <time>2014-09-25T08:17:16Z</time>
      </trkpt>
      <trkpt lat="45.912265386432409" lon="8.023960283026099">
        <ele>1735.3199999999999</ele>
        <time>2014-09-25T08:17:29Z</time>
      </trkpt>
      <trkpt lat="45.912333698943257" lon="8.023874452337623">
        <ele>1738.6800000000001</ele>
        <time>2014-09-25T08:17:44Z</time>
      </trkpt>
      <trkpt lat="45.912317605689168" lon="8.023839835077524">
        <ele>1740.1199999999999</ele>
        <time>2014-09-25T08:17:57Z</time>
      </trkpt>
      <trkpt lat="45.912361275404692" lon="8.023769343271852">
        <ele>1743.49</ele>
        <time>2014-09-25T08:18:11Z</time>
      </trkpt>
      <trkpt lat="45.912396144121885" lon="8.023706981912255">
        <ele>1746.3699999999999</ele>
        <time>2014-09-25T08:18:22Z</time>
      </trkpt>
      <trkpt lat="45.91245305724442" lon="8.023678231984377">
        <ele>1748.29</ele>
        <time>2014-09-25T08:18:39Z</time>
      </trkpt>
      <trkpt lat="45.912476442754269" lon="8.023631628602743">
        <ele>1751.1800000000001</ele>
        <time>2014-09-25T08:18:53Z</time>
      </trkpt>
      <trkpt lat="45.91245498508215" lon="8.023560382425785">
        <ele>1754.0599999999999</ele>
        <time>2014-09-25T08:19:05Z</time>
      </trkpt>
      <trkpt lat="45.912474850192666" lon="8.023472707718611">
        <ele>1756.95</ele>
        <time>2014-09-25T08:19:18Z</time>
      </trkpt>
      <trkpt lat="45.912458337843418" lon="8.023389894515276">
        <ele>1759.3499999999999</ele>
        <time>2014-09-25T08:19:32Z</time>
      </trkpt>
      <trkpt lat="45.912572164088488" lon="8.02329576574266">
        <ele>1759.8299999999999</ele>
        <time>2014-09-25T08:19:46Z</time>
      </trkpt>
      <trkpt lat="45.912624215707183" lon="8.023247569799423">
        <ele>1762.71</ele>
        <time>2014-09-25T08:20:00Z</time>
      </trkpt>
      <trkpt lat="45.912641482427716" lon="8.023204486817122">
        <ele>1765.1199999999999</ele>
        <time>2014-09-25T08:20:15Z</time>
      </trkpt>
      <trkpt lat="45.912651373073459" lon="8.023129217326641">
        <ele>1767.52</ele>
        <time>2014-09-25T08:20:25Z</time>
      </trkpt>
      <trkpt lat="45.912643074989319" lon="8.023037938401103">
        <ele>1770.4100000000001</ele>
        <time>2014-09-25T08:20:41Z</time>
      </trkpt>
      <trkpt lat="45.912678949534893" lon="8.022953364998102">
        <ele>1773.29</ele>
        <time>2014-09-25T08:20:55Z</time>
      </trkpt>
      <trkpt lat="45.912580965086818" lon="8.023030310869217">
        <ele>1773.29</ele>
        <time>2014-09-25T08:21:08Z</time>
      </trkpt>
      <trkpt lat="45.912562692537904" lon="8.023049673065543">
        <ele>1773.77</ele>
        <time>2014-09-25T08:21:24Z</time>
      </trkpt>
      <trkpt lat="45.912518268451095" lon="8.023073310032487">
        <ele>1774.73</ele>
        <time>2014-09-25T08:21:38Z</time>
      </trkpt>
      <trkpt lat="45.912450207397342" lon="8.023069789633155">
        <ele>1777.6099999999999</ele>
        <time>2014-09-25T08:21:50Z</time>
      </trkpt>
      <trkpt lat="45.91245498508215" lon="8.023052858188748">
        <ele>1779.0599999999999</ele>
        <time>2014-09-25T08:22:06Z</time>
      </trkpt>
      <trkpt lat="45.912490608170629" lon="8.022984797134996">
        <ele>1780.02</ele>
        <time>2014-09-25T08:22:27Z</time>
      </trkpt>
      <trkpt lat="45.912458840757608" lon="8.022947497665882">
        <ele>1782.9000000000001</ele>
        <time>2014-09-25T08:22:39Z</time>
      </trkpt>
      <trkpt lat="45.912420451641083" lon="8.022903660312295">
        <ele>1784.8199999999999</ele>
        <time>2014-09-25T08:22:49Z</time>
      </trkpt>
      <trkpt lat="45.91240368783474" lon="8.022791594266892">
        <ele>1786.75</ele>
        <time>2014-09-25T08:23:02Z</time>
      </trkpt>
      <trkpt lat="45.912363454699516" lon="8.022722275927663">
        <ele>1789.1500000000001</ele>
        <time>2014-09-25T08:23:17Z</time>
      </trkpt>
      <trkpt lat="45.912341410294175" lon="8.022655388340354">
        <ele>1792.03</ele>
        <time>2014-09-25T08:23:30Z</time>
      </trkpt>
      <trkpt lat="45.912334285676479" lon="8.022597720846534">
        <ele>1794.9200000000001</ele>
        <time>2014-09-25T08:23:45Z</time>
      </trkpt>
      <trkpt lat="45.912339482456446" lon="8.022606773301959">
        <ele>1794.4400000000001</ele>
        <time>2014-09-25T08:24:00Z</time>
      </trkpt>
      <trkpt lat="45.912344176322222" lon="8.022602666169405">
        <ele>1795.4000000000001</ele>
        <time>2014-09-25T08:24:16Z</time>
      </trkpt>
      <trkpt lat="45.91232992708683" lon="8.022589841857553">
        <ele>1796.3599999999999</ele>
        <time>2014-09-25T08:24:27Z</time>
      </trkpt>
      <trkpt lat="45.912311486899853" lon="8.022580035030842">
        <ele>1796.8399999999999</ele>
        <time>2014-09-25T08:24:30Z</time>
      </trkpt>
      <trkpt lat="45.912233199924231" lon="8.022585231810808">
        <ele>1799.24</ele>
        <time>2014-09-25T08:24:43Z</time>
      </trkpt>
      <trkpt lat="45.912171509116888" lon="8.022586405277252">
        <ele>1801.6500000000001</ele>
        <time>2014-09-25T08:24:54Z</time>
      </trkpt>
      <trkpt lat="45.912162624299526" lon="8.022634852677584">
        <ele>1803.0899999999999</ele>
        <time>2014-09-25T08:25:01Z</time>
      </trkpt>
      <trkpt lat="45.912121301516891" lon="8.022615239024162">
        <ele>1804.05</ele>
        <time>2014-09-25T08:25:13Z</time>
      </trkpt>
      <trkpt lat="45.912132281810045" lon="8.022518260404468">
        <ele>1806.9400000000001</ele>
        <time>2014-09-25T08:25:26Z</time>
      </trkpt>
      <trkpt lat="45.912114009261131" lon="8.022450283169746">
        <ele>1809.3399999999999</ele>
        <time>2014-09-25T08:25:40Z</time>
      </trkpt>
      <trkpt lat="45.912100682035089" lon="8.022420108318329">
        <ele>1811.26</ele>
        <time>2014-09-25T08:25:52Z</time>
      </trkpt>
      <trkpt lat="45.912133874371648" lon="8.022305276244879">
        <ele>1814.1500000000001</ele>
        <time>2014-09-25T08:26:08Z</time>
      </trkpt>
      <trkpt lat="45.912097245454788" lon="8.022285830229521">
        <ele>1817.03</ele>
        <time>2014-09-25T08:26:24Z</time>
      </trkpt>
      <trkpt lat="45.912020718678832" lon="8.022275436669588">
        <ele>1818.47</ele>
        <time>2014-09-25T08:26:37Z</time>
      </trkpt>
      <trkpt lat="45.912047540768981" lon="8.022198993712664">
        <ele>1820.8699999999999</ele>
        <time>2014-09-25T08:26:49Z</time>
      </trkpt>
      <trkpt lat="45.911997752264142" lon="8.022142751142383">
        <ele>1823.76</ele>
        <time>2014-09-25T08:27:03Z</time>
      </trkpt>
      <trkpt lat="45.911975624039769" lon="8.022174267098308">
        <ele>1825.2</ele>
        <time>2014-09-25T08:27:16Z</time>
      </trkpt>
      <trkpt lat="45.911976546049118" lon="8.022179631516337">
        <ele>1825.2</ele>
        <time>2014-09-25T08:27:18Z</time>
      </trkpt>
      <trkpt lat="45.91196246445179" lon="8.02224132232368">
        <ele>1825.6800000000001</ele>
        <time>2014-09-25T08:27:24Z</time>
      </trkpt>
      <trkpt lat="45.911907898262143" lon="8.02232245914638">
        <ele>1826.6400000000001</ele>
        <time>2014-09-25T08:27:34Z</time>
      </trkpt>
      <trkpt lat="45.91189892962575" lon="8.022382892668247">
        <ele>1827.1199999999999</ele>
        <time>2014-09-25T08:27:39Z</time>
      </trkpt>
      <trkpt lat="45.911888033151627" lon="8.02240451797843">
        <ele>1827.1199999999999</ele>
        <time>2014-09-25T08:27:55Z</time>
      </trkpt>
      <trkpt lat="45.911854673177004" lon="8.022412899881601">
        <ele>1827.5999999999999</ele>
        <time>2014-09-25T08:28:19Z</time>
      </trkpt>
      <trkpt lat="45.911815026775002" lon="8.022401500493288">
        <ele>1830.49</ele>
        <time>2014-09-25T08:28:28Z</time>
      </trkpt>
      <trkpt lat="45.91180806979537" lon="8.022407284006476">
        <ele>1830.01</ele>
        <time>2014-09-25T08:28:29Z</time>
      </trkpt>
      <trkpt lat="45.911740008741617" lon="8.022406361997128">
        <ele>1831.45</ele>
        <time>2014-09-25T08:28:40Z</time>
      </trkpt>
      <trkpt lat="45.9116649068892" lon="8.022338887676597">
        <ele>1832.4100000000001</ele>
        <time>2014-09-25T08:28:53Z</time>
      </trkpt>
      <trkpt lat="45.911589050665498" lon="8.022288344800472">
        <ele>1834.3299999999999</ele>
        <time>2014-09-25T08:29:07Z</time>
      </trkpt>
      <trkpt lat="45.9116424433887" lon="8.02224769257009">
        <ele>1835.77</ele>
        <time>2014-09-25T08:29:21Z</time>
      </trkpt>
      <trkpt lat="45.911682676523924" lon="8.022217098623514">
        <ele>1837.7</ele>
        <time>2014-09-25T08:29:28Z</time>
      </trkpt>
      <trkpt lat="45.911721736192703" lon="8.022170243784785">
        <ele>1839.1400000000001</ele>
        <time>2014-09-25T08:29:43Z</time>
      </trkpt>
      <trkpt lat="45.911704385653138" lon="8.022137051448226">
        <ele>1841.54</ele>
        <time>2014-09-25T08:29:56Z</time>
      </trkpt>
      <trkpt lat="45.911626517772675" lon="8.022090028971434">
        <ele>1842.98</ele>
        <time>2014-09-25T08:30:07Z</time>
      </trkpt>
      <trkpt lat="45.911630792543292" lon="8.02198282442987">
        <ele>1845.8699999999999</ele>
        <time>2014-09-25T08:30:22Z</time>
      </trkpt>
      <trkpt lat="45.911645879969001" lon="8.021886348724365">
        <ele>1847.79</ele>
        <time>2014-09-25T08:30:37Z</time>
      </trkpt>
      <trkpt lat="45.911627439782023" lon="8.021824825555086">
        <ele>1850.1900000000001</ele>
        <time>2014-09-25T08:30:49Z</time>
      </trkpt>
      <trkpt lat="45.911686113104224" lon="8.021703036502004">
        <ele>1852.1199999999999</ele>
        <time>2014-09-25T08:31:04Z</time>
      </trkpt>
      <trkpt lat="45.91169960796833" lon="8.021611338481307">
        <ele>1854.04</ele>
        <time>2014-09-25T08:31:17Z</time>
      </trkpt>
      <trkpt lat="45.911770351231098" lon="8.021504133939743">
        <ele>1856.9200000000001</ele>
        <time>2014-09-25T08:31:33Z</time>
      </trkpt>
      <trkpt lat="45.911749983206391" lon="8.021459961310029">
        <ele>1858.3699999999999</ele>
        <time>2014-09-25T08:31:47Z</time>
      </trkpt>
      <trkpt lat="45.911729363724589" lon="8.021409669891">
        <ele>1860.77</ele>
        <time>2014-09-25T08:32:01Z</time>
      </trkpt>
      <trkpt lat="45.911743529140949" lon="8.021328030154109">
        <ele>1863.1700000000001</ele>
        <time>2014-09-25T08:32:13Z</time>
      </trkpt>
      <trkpt lat="45.911744870245457" lon="8.021257622167468">
        <ele>1865.5799999999999</ele>
        <time>2014-09-25T08:32:26Z</time>
      </trkpt>
      <trkpt lat="45.911805722862482" lon="8.021176066249609">
        <ele>1867.98</ele>
        <time>2014-09-25T08:32:41Z</time>
      </trkpt>
      <trkpt lat="45.911748977378011" lon="8.021165085956454">
        <ele>1869.9000000000001</ele>
        <time>2014-09-25T08:32:52Z</time>
      </trkpt>
      <trkpt lat="45.911771273240447" lon="8.021111777052283">
        <ele>1871.8199999999999</ele>
        <time>2014-09-25T08:33:02Z</time>
      </trkpt>
      <trkpt lat="45.911827180534601" lon="8.021043883636594">
        <ele>1873.27</ele>
        <time>2014-09-25T08:33:14Z</time>
      </trkpt>
      <trkpt lat="45.911819972097874" lon="8.021012870594859">
        <ele>1875.1900000000001</ele>
        <time>2014-09-25T08:33:25Z</time>
      </trkpt>
      <trkpt lat="45.911831874400377" lon="8.020944893360138">
        <ele>1877.5899999999999</ele>
        <time>2014-09-25T08:33:39Z</time>
      </trkpt>
      <trkpt lat="45.911803878843784" lon="8.020906001329422">
        <ele>1879.51</ele>
        <time>2014-09-25T08:33:52Z</time>
      </trkpt>
      <trkpt lat="45.911750989034772" lon="8.02089468576014">
        <ele>1880.96</ele>
        <time>2014-09-25T08:34:07Z</time>
      </trkpt>
      <trkpt lat="45.91169960796833" lon="8.020893009379506">
        <ele>1882.8800000000001</ele>
        <time>2014-09-25T08:34:18Z</time>
      </trkpt>
      <trkpt lat="45.911641605198383" lon="8.020900804549456">
        <ele>1883.8399999999999</ele>
        <time>2014-09-25T08:34:28Z</time>
      </trkpt>
      <trkpt lat="45.911600198596716" lon="8.02087071351707">
        <ele>1885.76</ele>
        <time>2014-09-25T08:34:39Z</time>
      </trkpt>
      <trkpt lat="45.911626182496548" lon="8.020825618878007">
        <ele>1886.72</ele>
        <time>2014-09-25T08:34:52Z</time>
      </trkpt>
      <trkpt lat="45.911692231893539" lon="8.020741464570165">
        <ele>1888.6500000000001</ele>
        <time>2014-09-25T08:35:10Z</time>
      </trkpt>
      <trkpt lat="45.911740008741617" lon="8.020629733800888">
        <ele>1889.6099999999999</ele>
        <time>2014-09-25T08:35:27Z</time>
      </trkpt>
      <trkpt lat="45.911742523312569" lon="8.020620932802558">
        <ele>1891.53</ele>
        <time>2014-09-25T08:35:29Z</time>
      </trkpt>
      <trkpt lat="45.911790635436773" lon="8.020560247823596">
        <ele>1894.9000000000001</ele>
        <time>2014-09-25T08:35:42Z</time>
      </trkpt>
      <trkpt lat="45.911755179986358" lon="8.020538538694382">
        <ele>1895.3800000000001</ele>
        <time>2014-09-25T08:35:53Z</time>
      </trkpt>
      <trkpt lat="45.911739422008395" lon="8.020505178719759">
        <ele>1897.3</ele>
        <time>2014-09-25T08:36:05Z</time>
      </trkpt>
      <trkpt lat="45.911791222169995" lon="8.020418593659997">
        <ele>1898.74</ele>
        <time>2014-09-25T08:36:20Z</time>
      </trkpt>
      <trkpt lat="45.911787701770663" lon="8.020383976399899">
        <ele>1900.6600000000001</ele>
        <time>2014-09-25T08:36:35Z</time>
      </trkpt>
      <trkpt lat="45.911820307374001" lon="8.020308623090386">
        <ele>1902.5899999999999</ele>
        <time>2014-09-25T08:36:49Z</time>
      </trkpt>
      <trkpt lat="45.911758532747626" lon="8.020326728001237">
        <ele>1904.51</ele>
        <time>2014-09-25T08:37:02Z</time>
      </trkpt>
      <trkpt lat="45.911771943792701" lon="8.020239807665348">
        <ele>1906.4300000000001</ele>
        <time>2014-09-25T08:37:16Z</time>
      </trkpt>
      <trkpt lat="45.911814775317907" lon="8.020187672227621">
        <ele>1907.8699999999999</ele>
        <time>2014-09-25T08:37:29Z</time>
      </trkpt>
      <trkpt lat="45.911864899098873" lon="8.020113492384553">
        <ele>1909.8</ele>
        <time>2014-09-25T08:37:43Z</time>
      </trkpt>
      <trkpt lat="45.911865234375" lon="8.020090525969863">
        <ele>1911.24</ele>
        <time>2014-09-25T08:38:00Z</time>
      </trkpt>
      <trkpt lat="45.911921728402376" lon="8.020009556785226">
        <ele>1913.1600000000001</ele>
        <time>2014-09-25T08:38:14Z</time>
      </trkpt>
      <trkpt lat="45.911947293207049" lon="8.01993403583765">
        <ele>1915.5599999999999</ele>
        <time>2014-09-25T08:38:27Z</time>
      </trkpt>
      <trkpt lat="45.911891805008054" lon="8.019945435225964">
        <ele>1917.49</ele>
        <time>2014-09-25T08:38:42Z</time>
      </trkpt>
      <trkpt lat="45.911881662905216" lon="8.019916266202927">
        <ele>1918.9300000000001</ele>
        <time>2014-09-25T08:38:56Z</time>
      </trkpt>
      <trkpt lat="45.91194486245513" lon="8.019814174622297">
        <ele>1920.8499999999999</ele>
        <time>2014-09-25T08:39:12Z</time>
      </trkpt>
      <trkpt lat="45.911935893818736" lon="8.019767990335822">
        <ele>1922.77</ele>
        <time>2014-09-25T08:39:26Z</time>
      </trkpt>
      <trkpt lat="45.911857187747955" lon="8.019777126610279">
        <ele>1924.7</ele>
        <time>2014-09-25T08:39:42Z</time>
      </trkpt>
      <trkpt lat="45.911829192191362" lon="8.019742174074054">
        <ele>1926.1400000000001</ele>
        <time>2014-09-25T08:39:55Z</time>
      </trkpt>
      <trkpt lat="45.91187353245914" lon="8.019673945382237">
        <ele>1928.54</ele>
        <time>2014-09-25T08:40:12Z</time>
      </trkpt>
      <trkpt lat="45.911895828321576" lon="8.01967553794384">
        <ele>1929.02</ele>
        <time>2014-09-25T08:40:28Z</time>
      </trkpt>
      <trkpt lat="45.911945281550288" lon="8.019591802731156">
        <ele>1930.95</ele>
        <time>2014-09-25T08:40:44Z</time>
      </trkpt>
      <trkpt lat="45.911961458623409" lon="8.019546372815967">
        <ele>1932.8699999999999</ele>
        <time>2014-09-25T08:40:58Z</time>
      </trkpt>
      <trkpt lat="45.911980820819736" lon="8.019492058083415">
        <ele>1935.75</ele>
        <time>2014-09-25T08:41:11Z</time>
      </trkpt>
      <trkpt lat="45.911908149719238" lon="8.019489292055368">
        <ele>1937.6700000000001</ele>
        <time>2014-09-25T08:41:25Z</time>
      </trkpt>
      <trkpt lat="45.911885937675834" lon="8.019442521035671">
        <ele>1939.1199999999999</ele>
        <time>2014-09-25T08:41:41Z</time>
      </trkpt>
      <trkpt lat="45.911860540509224" lon="8.019430115818977">
        <ele>1939.1199999999999</ele>
        <time>2014-09-25T08:41:59Z</time>
      </trkpt>
      <trkpt lat="45.91188040561974" lon="8.0194375757128">
        <ele>1939.5999999999999</ele>
        <time>2014-09-25T08:42:20Z</time>
      </trkpt>
      <trkpt lat="45.911887949332595" lon="8.019450567662716">
        <ele>1939.5999999999999</ele>
        <time>2014-09-25T08:42:40Z</time>
      </trkpt>
      <trkpt lat="45.911879651248455" lon="8.019419554620981">
        <ele>1940.5599999999999</ele>
        <time>2014-09-25T08:42:58Z</time>
      </trkpt>
      <trkpt lat="45.911898510530591" lon="8.019416369497776">
        <ele>1940.0799999999999</ele>
        <time>2014-09-25T08:43:23Z</time>
      </trkpt>
      <trkpt lat="45.911875125020742" lon="8.019411927089095">
        <ele>1941.04</ele>
        <time>2014-09-25T08:43:41Z</time>
      </trkpt>
      <trkpt lat="45.91187990270555" lon="8.019409161061049">
        <ele>1941.04</ele>
        <time>2014-09-25T08:43:59Z</time>
      </trkpt>
      <trkpt lat="45.911883842200041" lon="8.019380243495107">
        <ele>1941.04</ele>
        <time>2014-09-25T08:44:15Z</time>
      </trkpt>
      <trkpt lat="45.91189063154161" lon="8.019381165504456">
        <ele>1941.52</ele>
        <time>2014-09-25T08:44:38Z</time>
      </trkpt>
      <trkpt lat="45.911890463903546" lon="8.019393486902118">
        <ele>1941.04</ele>
        <time>2014-09-25T08:44:53Z</time>
      </trkpt>
      <trkpt lat="45.911875460296869" lon="8.019397342577577">
        <ele>1941.52</ele>
        <time>2014-09-25T08:45:09Z</time>
      </trkpt>
      <trkpt lat="45.911859031766653" lon="8.019430199638009">
        <ele>1941.04</ele>
        <time>2014-09-25T08:45:23Z</time>
      </trkpt>
      <trkpt lat="45.911832628771663" lon="8.019427098333836">
        <ele>1942</ele>
        <time>2014-09-25T08:45:38Z</time>
      </trkpt>
      <trkpt lat="45.91183053329587" lon="8.019405975937843">
        <ele>1941.52</ele>
        <time>2014-09-25T08:45:52Z</time>
      </trkpt>
      <trkpt lat="45.911823241040111" lon="8.019391810521483">
        <ele>1942</ele>
        <time>2014-09-25T08:46:05Z</time>
      </trkpt>
      <trkpt lat="45.911823743954301" lon="8.01937990821898">
        <ele>1942</ele>
        <time>2014-09-25T08:46:19Z</time>
      </trkpt>
      <trkpt lat="45.911834053695202" lon="8.019363563507795">
        <ele>1942.48</ele>
        <time>2014-09-25T08:46:36Z</time>
      </trkpt>
      <trkpt lat="45.911809410899878" lon="8.019367000088096">
        <ele>1942.48</ele>
        <time>2014-09-25T08:46:53Z</time>
      </trkpt>
      <trkpt lat="45.911757275462151" lon="8.019382255151868">
        <ele>1942.96</ele>
        <time>2014-09-25T08:47:07Z</time>
      </trkpt>
      <trkpt lat="45.91177873313427" lon="8.019301788881421">
        <ele>1944.8800000000001</ele>
        <time>2014-09-25T08:47:18Z</time>
      </trkpt>
      <trkpt lat="45.911761801689863" lon="8.019252503290772">
        <ele>1947.29</ele>
        <time>2014-09-25T08:47:29Z</time>
      </trkpt>
      <trkpt lat="45.911726262420416" lon="8.01916541531682">
        <ele>1948.73</ele>
        <time>2014-09-25T08:47:42Z</time>
      </trkpt>
      <trkpt lat="45.911717964336276" lon="8.019075142219663">
        <ele>1951.1300000000001</ele>
        <time>2014-09-25T08:47:57Z</time>
      </trkpt>
      <trkpt lat="45.911727268248796" lon="8.019086541607976">
        <ele>1951.6099999999999</ele>
        <time>2014-09-25T08:48:08Z</time>
      </trkpt>
      <trkpt lat="45.91170547530055" lon="8.019036753103137">
        <ele>1953.0599999999999</ele>
        <time>2014-09-25T08:48:29Z</time>
      </trkpt>
      <trkpt lat="45.91161947697401" lon="8.018998447805643">
        <ele>1954.98</ele>
        <time>2014-09-25T08:48:43Z</time>
      </trkpt>
      <trkpt lat="45.911612352356315" lon="8.019004482775927">
        <ele>1954.98</ele>
        <time>2014-09-25T08:48:44Z</time>
      </trkpt>
      <trkpt lat="45.9115837700665" lon="8.018930638208985">
        <ele>1956.9000000000001</ele>
        <time>2014-09-25T08:48:57Z</time>
      </trkpt>
      <trkpt lat="45.911629954352975" lon="8.018846064805985">
        <ele>1958.8199999999999</ele>
        <time>2014-09-25T08:49:10Z</time>
      </trkpt>
      <trkpt lat="45.911552421748638" lon="8.018853943794966">
        <ele>1961.23</ele>
        <time>2014-09-25T08:49:23Z</time>
      </trkpt>
      <trkpt lat="45.911561222746968" lon="8.018779093399644">
        <ele>1963.1500000000001</ele>
        <time>2014-09-25T08:49:36Z</time>
      </trkpt>
      <trkpt lat="45.911557283252478" lon="8.01872561685741">
        <ele>1965.55</ele>
        <time>2014-09-25T08:49:50Z</time>
      </trkpt>
      <trkpt lat="45.9115354064852" lon="8.018669793382287">
        <ele>1966.99</ele>
        <time>2014-09-25T08:50:01Z</time>
      </trkpt>
      <trkpt lat="45.911485366523266" lon="8.018641630187631">
        <ele>1968.9200000000001</ele>
        <time>2014-09-25T08:50:12Z</time>
      </trkpt>
      <trkpt lat="45.911494418978691" lon="8.018600810319185">
        <ele>1970.3599999999999</ele>
        <time>2014-09-25T08:50:23Z</time>
      </trkpt>
      <trkpt lat="45.911496765911579" lon="8.0185223557055">
        <ele>1973.24</ele>
        <time>2014-09-25T08:50:35Z</time>
      </trkpt>
      <trkpt lat="45.9114577062428" lon="8.018464017659426">
        <ele>1975.1700000000001</ele>
        <time>2014-09-25T08:50:48Z</time>
      </trkpt>
      <trkpt lat="45.911456365138292" lon="8.018447672948241">
        <ele>1976.1300000000001</ele>
        <time>2014-09-25T08:50:51Z</time>
      </trkpt>
      <trkpt lat="45.91144161298871" lon="8.018408361822367">
        <ele>1978.05</ele>
        <time>2014-09-25T08:51:03Z</time>
      </trkpt>
      <trkpt lat="45.91140448115766" lon="8.018449516966939">
        <ele>1979.49</ele>
        <time>2014-09-25T08:51:15Z</time>
      </trkpt>
      <trkpt lat="45.911403307691216" lon="8.018435770645738">
        <ele>1980.45</ele>
        <time>2014-09-25T08:51:29Z</time>
      </trkpt>
      <trkpt lat="45.911378329619765" lon="8.018384138122201">
        <ele>1980.9300000000001</ele>
        <time>2014-09-25T08:51:42Z</time>
      </trkpt>
      <trkpt lat="45.911384448409081" lon="8.018333679065108">
        <ele>1982.8599999999999</ele>
        <time>2014-09-25T08:51:58Z</time>
      </trkpt>
      <trkpt lat="45.911365756765008" lon="8.018261510878801">
        <ele>1983.8199999999999</ele>
        <time>2014-09-25T08:52:11Z</time>
      </trkpt>
      <trkpt lat="45.911373132839799" lon="8.018243489786983">
        <ele>1983.8199999999999</ele>
        <time>2014-09-25T08:52:28Z</time>
      </trkpt>
      <trkpt lat="45.911354860290885" lon="8.018259247764945">
        <ele>1982.8599999999999</ele>
        <time>2014-09-25T08:52:49Z</time>
      </trkpt>
      <trkpt lat="45.911360392346978" lon="8.018163777887821">
        <ele>1985.74</ele>
        <time>2014-09-25T08:53:07Z</time>
      </trkpt>
      <trkpt lat="45.911405570805073" lon="8.018141649663448">
        <ele>1987.1800000000001</ele>
        <time>2014-09-25T08:53:19Z</time>
      </trkpt>
      <trkpt lat="45.911404229700565" lon="8.018144331872463">
        <ele>1986.22</ele>
        <time>2014-09-25T08:53:33Z</time>
      </trkpt>
      <trkpt lat="45.911405989900231" lon="8.018140811473131">
        <ele>1986.22</ele>
        <time>2014-09-25T08:53:34Z</time>
      </trkpt>
      <trkpt lat="45.911400709301233" lon="8.018122036010027">
        <ele>1986.22</ele>
        <time>2014-09-25T08:53:48Z</time>
      </trkpt>
      <trkpt lat="45.911401296034455" lon="8.018125388771296">
        <ele>1986.22</ele>
        <time>2014-09-25T08:54:08Z</time>
      </trkpt>
      <trkpt lat="45.911404313519597" lon="8.018119689077139">
        <ele>1985.74</ele>
        <time>2014-09-25T08:54:29Z</time>
      </trkpt>
      <trkpt lat="45.911400793120265" lon="8.018138967454433">
        <ele>1986.22</ele>
        <time>2014-09-25T08:55:03Z</time>
      </trkpt>
      <trkpt lat="45.911382185295224" lon="8.01814659498632">
        <ele>1986.22</ele>
        <time>2014-09-25T08:55:31Z</time>
      </trkpt>
      <trkpt lat="45.911398865282536" lon="8.018128909170628">
        <ele>1986.7</ele>
        <time>2014-09-25T08:55:45Z</time>
      </trkpt>
      <trkpt lat="45.911402218043804" lon="8.018114157021046">
        <ele>1986.22</ele>
        <time>2014-09-25T08:56:17Z</time>
      </trkpt>
      <trkpt lat="45.911399116739631" lon="8.018123544752598">
        <ele>1986.7</ele>
        <time>2014-09-25T08:56:43Z</time>
      </trkpt>
      <trkpt lat="45.911406660452485" lon="8.018122371286154">
        <ele>1986.7</ele>
        <time>2014-09-25T08:57:21Z</time>
      </trkpt>
      <trkpt lat="45.911401882767677" lon="8.018108792603016">
        <ele>1987.1800000000001</ele>
        <time>2014-09-25T08:57:51Z</time>
      </trkpt>
      <trkpt lat="45.911400960758328" lon="8.018103092908859">
        <ele>1986.7</ele>
        <time>2014-09-25T08:58:04Z</time>
      </trkpt>
      <trkpt lat="45.911431722342968" lon="8.01811633631587">
        <ele>1986.7</ele>
        <time>2014-09-25T08:58:42Z</time>
      </trkpt>
      <trkpt lat="45.911420322954655" lon="8.018130334094167">
        <ele>1986.7</ele>
        <time>2014-09-25T08:59:15Z</time>
      </trkpt>
      <trkpt lat="45.911418311297894" lon="8.018144499510527">
        <ele>1986.7</ele>
        <time>2014-09-25T08:59:50Z</time>
      </trkpt>
      <trkpt lat="45.9114059060812" lon="8.01814517006278">
        <ele>1986.7</ele>
        <time>2014-09-25T09:00:32Z</time>
      </trkpt>
      <trkpt lat="45.911355279386044" lon="8.018134944140911">
        <ele>1986.7</ele>
        <time>2014-09-25T09:01:11Z</time>
      </trkpt>
      <trkpt lat="45.911411102861166" lon="8.018135111778975">
        <ele>1986.7</ele>
        <time>2014-09-25T09:01:50Z</time>
      </trkpt>
      <trkpt lat="45.911387130618095" lon="8.018149193376303">
        <ele>1986.7</ele>
        <time>2014-09-25T09:02:23Z</time>
      </trkpt>
      <trkpt lat="45.911393165588379" lon="8.018145505338907">
        <ele>1987.1800000000001</ele>
        <time>2014-09-25T09:02:58Z</time>
      </trkpt>
      <trkpt lat="45.911405235528946" lon="8.018122119829059">
        <ele>1986.22</ele>
        <time>2014-09-25T09:03:37Z</time>
      </trkpt>
      <trkpt lat="45.91139710508287" lon="8.018151791766286">
        <ele>1986.7</ele>
        <time>2014-09-25T09:04:05Z</time>
      </trkpt>
      <trkpt lat="45.911387884989381" lon="8.018140140920878">
        <ele>1986.7</ele>
        <time>2014-09-25T09:04:43Z</time>
      </trkpt>
      <trkpt lat="45.91138981282711" lon="8.018158245831728">
        <ele>1987.1800000000001</ele>
        <time>2014-09-25T09:05:20Z</time>
      </trkpt>
      <trkpt lat="45.911397943273187" lon="8.018164951354265">
        <ele>1987.1800000000001</ele>
        <time>2014-09-25T09:05:54Z</time>
      </trkpt>
      <trkpt lat="45.911400206387043" lon="8.018165538087487">
        <ele>1987.1800000000001</ele>
        <time>2014-09-25T09:06:31Z</time>
      </trkpt>
      <trkpt lat="45.911403056234121" lon="8.01816369406879">
        <ele>1987.6600000000001</ele>
        <time>2014-09-25T09:07:07Z</time>
      </trkpt>
      <trkpt lat="45.911400290206075" lon="8.018164113163948">
        <ele>1987.6600000000001</ele>
        <time>2014-09-25T09:07:41Z</time>
      </trkpt>
      <trkpt lat="45.911419317126274" lon="8.018148858100176">
        <ele>1987.6600000000001</ele>
        <time>2014-09-25T09:08:11Z</time>
      </trkpt>
      <trkpt lat="45.911354525014758" lon="8.018136704340577">
        <ele>1987.6600000000001</ele>
        <time>2014-09-25T09:08:38Z</time>
      </trkpt>
      <trkpt lat="45.911333067342639" lon="8.018140392377973">
        <ele>1988.1400000000001</ele>
        <time>2014-09-25T09:09:08Z</time>
      </trkpt>
      <trkpt lat="45.911333737894893" lon="8.018137626349926">
        <ele>1988.1400000000001</ele>
        <time>2014-09-25T09:09:44Z</time>
      </trkpt>
      <trkpt lat="45.911352010443807" lon="8.018147014081478">
        <ele>1988.1400000000001</ele>
        <time>2014-09-25T09:10:29Z</time>
      </trkpt>
      <trkpt lat="45.911350836977363" lon="8.018136536702514">
        <ele>1988.6199999999999</ele>
        <time>2014-09-25T09:11:04Z</time>
      </trkpt>
      <trkpt lat="45.91136340983212" lon="8.018141314387322">
        <ele>1988.6199999999999</ele>
        <time>2014-09-25T09:11:36Z</time>
      </trkpt>
      <trkpt lat="45.911386711522937" lon="8.018144583329558">
        <ele>1990.0699999999999</ele>
        <time>2014-09-25T09:12:03Z</time>
      </trkpt>
      <trkpt lat="45.911387884989381" lon="8.018104517832398">
        <ele>1989.5899999999999</ele>
        <time>2014-09-25T09:12:23Z</time>
      </trkpt>
      <trkpt lat="45.911370702087879" lon="8.018099404871464">
        <ele>1990.0699999999999</ele>
        <time>2014-09-25T09:12:44Z</time>
      </trkpt>
      <trkpt lat="45.911362236365676" lon="8.018065206706524">
        <ele>1989.5899999999999</ele>
        <time>2014-09-25T09:12:58Z</time>
      </trkpt>
      <trkpt lat="45.911361146718264" lon="8.017983483150601">
        <ele>1992.47</ele>
        <time>2014-09-25T09:13:10Z</time>
      </trkpt>
      <trkpt lat="45.911354776471853" lon="8.017891868948937">
        <ele>1993.9100000000001</ele>
        <time>2014-09-25T09:13:23Z</time>
      </trkpt>
      <trkpt lat="45.911344215273857" lon="8.017851132899523">
        <ele>1995.8299999999999</ele>
        <time>2014-09-25T09:13:39Z</time>
      </trkpt>
      <trkpt lat="45.911364750936627" lon="8.017779886722565">
        <ele>1997.76</ele>
        <time>2014-09-25T09:13:53Z</time>
      </trkpt>
      <trkpt lat="45.911387214437127" lon="8.017737977206707">
        <ele>1999.6800000000001</ele>
        <time>2014-09-25T09:14:06Z</time>
      </trkpt>
      <trkpt lat="45.911410516127944" lon="8.017722722142935">
        <ele>2000.1600000000001</ele>
        <time>2014-09-25T09:14:17Z</time>
      </trkpt>
      <trkpt lat="45.911453347653151" lon="8.017688021063805">
        <ele>2001.5999999999999</ele>
        <time>2014-09-25T09:14:30Z</time>
      </trkpt>
      <trkpt lat="45.911459634080529" lon="8.017576960846782">
        <ele>2004.01</ele>
        <time>2014-09-25T09:14:45Z</time>
      </trkpt>
      <trkpt lat="45.91147480532527" lon="8.017495907843113">
        <ele>2005.45</ele>
        <time>2014-09-25T09:14:57Z</time>
      </trkpt>
      <trkpt lat="45.911485953256488" lon="8.017399348318577">
        <ele>2007.3699999999999</ele>
        <time>2014-09-25T09:15:13Z</time>
      </trkpt>
      <trkpt lat="45.911508249118924" lon="8.017316535115242">
        <ele>2008.8099999999999</ele>
        <time>2014-09-25T09:15:26Z</time>
      </trkpt>
      <trkpt lat="45.911511182785034" lon="8.017298011109233">
        <ele>2010.25</ele>
        <time>2014-09-25T09:15:30Z</time>
      </trkpt>
      <trkpt lat="45.911528784781694" lon="8.017263226211071">
        <ele>2011.7</ele>
        <time>2014-09-25T09:15:48Z</time>
      </trkpt>
      <trkpt lat="45.911569017916918" lon="8.017301950603724">
        <ele>2013.6199999999999</ele>
        <time>2014-09-25T09:16:02Z</time>
      </trkpt>
      <trkpt lat="45.911599947139621" lon="8.017203798517585">
        <ele>2015.54</ele>
        <time>2014-09-25T09:16:14Z</time>
      </trkpt>
      <trkpt lat="45.911644035950303" lon="8.017213018611074">
        <ele>2016.98</ele>
        <time>2014-09-25T09:16:24Z</time>
      </trkpt>
      <trkpt lat="45.911706062033772" lon="8.017281666398048">
        <ele>2018.9100000000001</ele>
        <time>2014-09-25T09:16:38Z</time>
      </trkpt>
      <trkpt lat="45.911690723150969" lon="8.017179490998387">
        <ele>2020.3499999999999</ele>
        <time>2014-09-25T09:16:52Z</time>
      </trkpt>
      <trkpt lat="45.911696003749967" lon="8.0170838534832">
        <ele>2021.3099999999999</ele>
        <time>2014-09-25T09:17:03Z</time>
      </trkpt>
      <trkpt lat="45.911759119480848" lon="8.017198266461492">
        <ele>2023.23</ele>
        <time>2014-09-25T09:17:17Z</time>
      </trkpt>
      <trkpt lat="45.911823660135269" lon="8.01732424646616">
        <ele>2023.23</ele>
        <time>2014-09-25T09:17:32Z</time>
      </trkpt>
      <trkpt lat="45.911861043423414" lon="8.017374956980348">
        <ele>2024.1900000000001</ele>
        <time>2014-09-25T09:17:42Z</time>
      </trkpt>
      <trkpt lat="45.911890128627419" lon="8.017329527065158">
        <ele>2025.6400000000001</ele>
        <time>2014-09-25T09:17:56Z</time>
      </trkpt>
      <trkpt lat="45.911935307085514" lon="8.017336148768663">
        <ele>2028.52</ele>
        <time>2014-09-25T09:18:08Z</time>
      </trkpt>
      <trkpt lat="45.911997333168983" lon="8.01736825145781">
        <ele>2029</ele>
        <time>2014-09-25T09:18:21Z</time>
      </trkpt>
      <trkpt lat="45.912057096138597" lon="8.017297424376011">
        <ele>2030.4400000000001</ele>
        <time>2014-09-25T09:18:35Z</time>
      </trkpt>
      <trkpt lat="45.912082241848111" lon="8.017223663628101">
        <ele>2032.3599999999999</ele>
        <time>2014-09-25T09:18:47Z</time>
      </trkpt>
      <trkpt lat="45.912079811096191" lon="8.017120566219091">
        <ele>2034.77</ele>
        <time>2014-09-25T09:19:04Z</time>
      </trkpt>
      <trkpt lat="45.91210076585412" lon="8.017036998644471">
        <ele>2037.6500000000001</ele>
        <time>2014-09-25T09:19:19Z</time>
      </trkpt>
      <trkpt lat="45.912115685641766" lon="8.016972541809082">
        <ele>2039.0899999999999</ele>
        <time>2014-09-25T09:19:33Z</time>
      </trkpt>
      <trkpt lat="45.912164049223065" lon="8.016920490190387">
        <ele>2040.05</ele>
        <time>2014-09-25T09:19:45Z</time>
      </trkpt>
      <trkpt lat="45.912170000374317" lon="8.016930380836129">
        <ele>2040.05</ele>
        <time>2014-09-25T09:20:02Z</time>
      </trkpt>
      <trkpt lat="45.912183579057455" lon="8.016816303133965">
        <ele>2041.5</ele>
        <time>2014-09-25T09:20:18Z</time>
      </trkpt>
      <trkpt lat="45.912214759737253" lon="8.01670859567821">
        <ele>2043.9000000000001</ele>
        <time>2014-09-25T09:20:31Z</time>
      </trkpt>
      <trkpt lat="45.91226295568049" lon="8.016698369756341">
        <ele>2044.8599999999999</ele>
        <time>2014-09-25T09:20:46Z</time>
      </trkpt>
      <trkpt lat="45.912265554070473" lon="8.016580184921622">
        <ele>2047.26</ele>
        <time>2014-09-25T09:20:59Z</time>
      </trkpt>
      <trkpt lat="45.912236468866467" lon="8.016471974551678">
        <ele>2048.71</ele>
        <time>2014-09-25T09:21:13Z</time>
      </trkpt>
      <trkpt lat="45.912268320098519" lon="8.016394274309278">
        <ele>2050.6300000000001</ele>
        <time>2014-09-25T09:21:29Z</time>
      </trkpt>
      <trkpt lat="45.912328250706196" lon="8.016457222402096">
        <ele>2053.0300000000002</ele>
        <time>2014-09-25T09:21:45Z</time>
      </trkpt>
      <trkpt lat="45.912352977320552" lon="8.016443559899926">
        <ele>2055.4400000000001</ele>
        <time>2014-09-25T09:22:01Z</time>
      </trkpt>
      <trkpt lat="45.912335626780987" lon="8.01635286770761">
        <ele>2057.8400000000001</ele>
        <time>2014-09-25T09:22:17Z</time>
      </trkpt>
      <trkpt lat="45.912367897108197" lon="8.016325542703271">
        <ele>2059.2800000000002</ele>
        <time>2014-09-25T09:22:28Z</time>
      </trkpt>
      <trkpt lat="45.912429336458445" lon="8.016408942639828">
        <ele>2061.1999999999998</ele>
        <time>2014-09-25T09:22:42Z</time>
      </trkpt>
      <trkpt lat="45.912504689767957" lon="8.016353789716959">
        <ele>2061.6799999999998</ele>
        <time>2014-09-25T09:22:56Z</time>
      </trkpt>
      <trkpt lat="45.912535870447755" lon="8.016372816637158">
        <ele>2063.1300000000001</ele>
        <time>2014-09-25T09:23:02Z</time>
      </trkpt>
      <trkpt lat="45.912632429972291" lon="8.016328727826476">
        <ele>2064.0900000000001</ele>
        <time>2014-09-25T09:23:17Z</time>
      </trkpt>
      <trkpt lat="45.912637375295162" lon="8.016276089474559">
        <ele>2064.0900000000001</ele>
        <time>2014-09-25T09:23:27Z</time>
      </trkpt>
      <trkpt lat="45.912647098302841" lon="8.016194785013795">
        <ele>2064.5700000000002</ele>
        <time>2014-09-25T09:23:33Z</time>
      </trkpt>
      <trkpt lat="45.912708537653089" lon="8.016033517196775">
        <ele>2066.0100000000002</ele>
        <time>2014-09-25T09:23:47Z</time>
      </trkpt>
      <trkpt lat="45.91274575330317" lon="8.015997223556042">
        <ele>2066.0100000000002</ele>
        <time>2014-09-25T09:23:53Z</time>
      </trkpt>
      <trkpt lat="45.912820938974619" lon="8.01603427156806">
        <ele>2067.4499999999998</ele>
        <time>2014-09-25T09:24:08Z</time>
      </trkpt>
      <trkpt lat="45.912829907611012" lon="8.016048101708293">
        <ele>2068.8899999999999</ele>
        <time>2014-09-25T09:24:11Z</time>
      </trkpt>
      <trkpt lat="45.912870978936553" lon="8.016194449737668">
        <ele>2067.9299999999998</ele>
        <time>2014-09-25T09:24:21Z</time>
      </trkpt>
      <trkpt lat="45.912974160164595" lon="8.016361333429813">
        <ele>2069.8600000000001</ele>
        <time>2014-09-25T09:24:37Z</time>
      </trkpt>
      <trkpt lat="45.912987152114511" lon="8.016376756131649">
        <ele>2071.3000000000002</ele>
        <time>2014-09-25T09:24:49Z</time>
      </trkpt>
      <trkpt lat="45.912996288388968" lon="8.016277682036161">
        <ele>2074.6599999999999</ele>
        <time>2014-09-25T09:25:03Z</time>
      </trkpt>
      <trkpt lat="45.913032498210669" lon="8.016266031190753">
        <ele>2075.6199999999999</ele>
        <time>2014-09-25T09:25:15Z</time>
      </trkpt>
      <trkpt lat="45.91311807744205" lon="8.016267539933324">
        <ele>2078.0300000000002</ele>
        <time>2014-09-25T09:25:27Z</time>
      </trkpt>
      <trkpt lat="45.913182366639376" lon="8.016323195770383">
        <ele>2079.4699999999998</ele>
        <time>2014-09-25T09:25:40Z</time>
      </trkpt>
      <trkpt lat="45.913239195942879" lon="8.016383964568377">
        <ele>2082.3499999999999</ele>
        <time>2014-09-25T09:25:54Z</time>
      </trkpt>
      <trkpt lat="45.913266856223345" lon="8.016380108892918">
        <ele>2083.3099999999999</ele>
        <time>2014-09-25T09:26:06Z</time>
      </trkpt>
      <trkpt lat="45.913281524553895" lon="8.016353957355022">
        <ele>2084.2800000000002</ele>
        <time>2014-09-25T09:26:18Z</time>
      </trkpt>
      <trkpt lat="45.913260905072093" lon="8.016320262104273">
        <ele>2084.7600000000002</ele>
        <time>2014-09-25T09:26:37Z</time>
      </trkpt>
      <trkpt lat="45.913287810981274" lon="8.016299642622471">
        <ele>2085.7199999999998</ele>
        <time>2014-09-25T09:26:50Z</time>
      </trkpt>
      <trkpt lat="45.913295522332191" lon="8.016293272376061">
        <ele>2085.7199999999998</ele>
        <time>2014-09-25T09:27:01Z</time>
      </trkpt>
      <trkpt lat="45.913290828466415" lon="8.016289751976728">
        <ele>2086.6799999999998</ele>
        <time>2014-09-25T09:27:32Z</time>
      </trkpt>
      <trkpt lat="45.913295522332191" lon="8.016300648450851">
        <ele>2086.1999999999998</ele>
        <time>2014-09-25T09:27:47Z</time>
      </trkpt>
      <trkpt lat="45.913293343037367" lon="8.01628882996738">
        <ele>2086.1999999999998</ele>
        <time>2014-09-25T09:28:14Z</time>
      </trkpt>
      <trkpt lat="45.913284458220005" lon="8.016297044232488">
        <ele>2086.1999999999998</ele>
        <time>2014-09-25T09:28:31Z</time>
      </trkpt>
      <trkpt lat="45.913288565352559" lon="8.016287824138999">
        <ele>2085.2399999999998</ele>
        <time>2014-09-25T09:28:44Z</time>
      </trkpt>
      <trkpt lat="45.913288146257401" lon="8.016295451670885">
        <ele>2086.6799999999998</ele>
        <time>2014-09-25T09:28:49Z</time>
      </trkpt>
      <trkpt lat="45.913284793496132" lon="8.01630056463182">
        <ele>2087.1599999999999</ele>
        <time>2014-09-25T09:29:17Z</time>
      </trkpt>
      <trkpt lat="45.913289822638035" lon="8.016295284032822">
        <ele>2087.1599999999999</ele>
        <time>2014-09-25T09:29:39Z</time>
      </trkpt>
      <trkpt lat="45.913309352472425" lon="8.016296373680234">
        <ele>2087.1599999999999</ele>
        <time>2014-09-25T09:29:55Z</time>
      </trkpt>
      <trkpt lat="45.913314884528518" lon="8.016309197992086">
        <ele>2088.1199999999999</ele>
        <time>2014-09-25T09:30:14Z</time>
      </trkpt>
      <trkpt lat="45.913315638899803" lon="8.016301235184073">
        <ele>2087.1599999999999</ele>
        <time>2014-09-25T09:30:35Z</time>
      </trkpt>
      <trkpt lat="45.913320668041706" lon="8.016303414478898">
        <ele>2086.6799999999998</ele>
        <time>2014-09-25T09:30:44Z</time>
      </trkpt>
      <trkpt lat="45.913405828177929" lon="8.016342055052519">
        <ele>2086.1999999999998</ele>
        <time>2014-09-25T09:30:57Z</time>
      </trkpt>
      <trkpt lat="45.913498364388943" lon="8.01641933619976">
        <ele>2089.0799999999999</ele>
        <time>2014-09-25T09:31:13Z</time>
      </trkpt>
      <trkpt lat="45.913533149287105" lon="8.016416737809777">
        <ele>2090.52</ele>
        <time>2014-09-25T09:31:30Z</time>
      </trkpt>
      <trkpt lat="45.913533149287105" lon="8.016416737809777">
        <ele>2090.52</ele>
        <time>2014-09-25T09:31:30Z</time>
      </trkpt>
      <trkpt lat="45.913498364388943" lon="8.01641933619976">
        <ele>2089.0799999999999</ele>
        <time>2014-09-25T09:31:13Z</time>
      </trkpt>
      <trkpt lat="45.913405828177929" lon="8.016342055052519">
        <ele>2086.1999999999998</ele>
        <time>2014-09-25T09:30:57Z</time>
      </trkpt>
      <trkpt lat="45.913320668041706" lon="8.016303414478898">
        <ele>2086.6799999999998</ele>
        <time>2014-09-25T09:30:44Z</time>
      </trkpt>
      <trkpt lat="45.913315638899803" lon="8.016301235184073">
        <ele>2087.1599999999999</ele>
        <time>2014-09-25T09:30:35Z</time>
      </trkpt>
      <trkpt lat="45.913314884528518" lon="8.016309197992086">
        <ele>2088.1199999999999</ele>
        <time>2014-09-25T09:30:14Z</time>
      </trkpt>
      <trkpt lat="45.913309352472425" lon="8.016296373680234">
        <ele>2087.1599999999999</ele>
        <time>2014-09-25T09:29:55Z</time>
      </trkpt>
      <trkpt lat="45.913289822638035" lon="8.016295284032822">
        <ele>2087.1599999999999</ele>
        <time>2014-09-25T09:29:39Z</time>
      </trkpt>
      <trkpt lat="45.913284793496132" lon="8.01630056463182">
        <ele>2087.1599999999999</ele>
        <time>2014-09-25T09:29:17Z</time>
      </trkpt>
      <trkpt lat="45.913288146257401" lon="8.016295451670885">
        <ele>2086.6799999999998</ele>
        <time>2014-09-25T09:28:49Z</time>
      </trkpt>
      <trkpt lat="45.913288565352559" lon="8.016287824138999">
        <ele>2085.2399999999998</ele>
        <time>2014-09-25T09:28:44Z</time>
      </trkpt>
      <trkpt lat="45.913284458220005" lon="8.016297044232488">
        <ele>2086.1999999999998</ele>
        <time>2014-09-25T09:28:31Z</time>
      </trkpt>
      <trkpt lat="45.913293343037367" lon="8.01628882996738">
        <ele>2086.1999999999998</ele>
        <time>2014-09-25T09:28:14Z</time>
      </trkpt>
      <trkpt lat="45.913295522332191" lon="8.016300648450851">
        <ele>2086.1999999999998</ele>
        <time>2014-09-25T09:27:47Z</time>
      </trkpt>
      <trkpt lat="45.913290828466415" lon="8.016289751976728">
        <ele>2086.6799999999998</ele>
        <time>2014-09-25T09:27:32Z</time>
      </trkpt>
      <trkpt lat="45.913295522332191" lon="8.016293272376061">
        <ele>2085.7199999999998</ele>
        <time>2014-09-25T09:27:01Z</time>
      </trkpt>
      <trkpt lat="45.913287810981274" lon="8.016299642622471">
        <ele>2085.7199999999998</ele>
        <time>2014-09-25T09:26:50Z</time>
      </trkpt>
      <trkpt lat="45.913260905072093" lon="8.016320262104273">
        <ele>2084.7600000000002</ele>
        <time>2014-09-25T09:26:37Z</time>
      </trkpt>
      <trkpt lat="45.913281524553895" lon="8.016353957355022">
        <ele>2084.2800000000002</ele>
        <time>2014-09-25T09:26:18Z</time>
      </trkpt>
      <trkpt lat="45.913266856223345" lon="8.016380108892918">
        <ele>2083.3099999999999</ele>
        <time>2014-09-25T09:26:06Z</time>
      </trkpt>
      <trkpt lat="45.913239195942879" lon="8.016383964568377">
        <ele>2082.3499999999999</ele>
        <time>2014-09-25T09:25:54Z</time>
      </trkpt>
      <trkpt lat="45.913182366639376" lon="8.016323195770383">
        <ele>2079.4699999999998</ele>
        <time>2014-09-25T09:25:40Z</time>
      </trkpt>
      <trkpt lat="45.91311807744205" lon="8.016267539933324">
        <ele>2078.0300000000002</ele>
        <time>2014-09-25T09:25:27Z</time>
      </trkpt>
      <trkpt lat="45.913032498210669" lon="8.016266031190753">
        <ele>2075.6199999999999</ele>
        <time>2014-09-25T09:25:15Z</time>
      </trkpt>
      <trkpt lat="45.912996288388968" lon="8.016277682036161">
        <ele>2074.6599999999999</ele>
        <time>2014-09-25T09:25:03Z</time>
      </trkpt>
      <trkpt lat="45.912987152114511" lon="8.016376756131649">
        <ele>2071.3000000000002</ele>
        <time>2014-09-25T09:24:49Z</time>
      </trkpt>
      <trkpt lat="45.912974160164595" lon="8.016361333429813">
        <ele>2069.8600000000001</ele>
        <time>2014-09-25T09:24:37Z</time>
      </trkpt>
      <trkpt lat="45.912870978936553" lon="8.016194449737668">
        <ele>2067.9299999999998</ele>
        <time>2014-09-25T09:24:21Z</time>
      </trkpt>
      <trkpt lat="45.912829907611012" lon="8.016048101708293">
        <ele>2068.8899999999999</ele>
        <time>2014-09-25T09:24:11Z</time>
      </trkpt>
      <trkpt lat="45.912820938974619" lon="8.01603427156806">
        <ele>2067.4499999999998</ele>
        <time>2014-09-25T09:24:08Z</time>
      </trkpt>
      <trkpt lat="45.91274575330317" lon="8.015997223556042">
        <ele>2066.0100000000002</ele>
        <time>2014-09-25T09:23:53Z</time>
      </trkpt>
      <trkpt lat="45.912708537653089" lon="8.016033517196775">
        <ele>2066.0100000000002</ele>
        <time>2014-09-25T09:23:47Z</time>
      </trkpt>
      <trkpt lat="45.912647098302841" lon="8.016194785013795">
        <ele>2064.5700000000002</ele>
        <time>2014-09-25T09:23:33Z</time>
      </trkpt>
      <trkpt lat="45.912637375295162" lon="8.016276089474559">
        <ele>2064.0900000000001</ele>
        <time>2014-09-25T09:23:27Z</time>
      </trkpt>
      <trkpt lat="45.912632429972291" lon="8.016328727826476">
        <ele>2064.0900000000001</ele>
        <time>2014-09-25T09:23:17Z</time>
      </trkpt>
      <trkpt lat="45.912535870447755" lon="8.016372816637158">
        <ele>2063.1300000000001</ele>
        <time>2014-09-25T09:23:02Z</time>
      </trkpt>
      <trkpt lat="45.912504689767957" lon="8.016353789716959">
        <ele>2061.6799999999998</ele>
        <time>2014-09-25T09:22:56Z</time>
      </trkpt>
      <trkpt lat="45.912429336458445" lon="8.016408942639828">
        <ele>2061.1999999999998</ele>
        <time>2014-09-25T09:22:42Z</time>
      </trkpt>
      <trkpt lat="45.912367897108197" lon="8.016325542703271">
        <ele>2059.2800000000002</ele>
        <time>2014-09-25T09:22:28Z</time>
      </trkpt>
      <trkpt lat="45.912335626780987" lon="8.01635286770761">
        <ele>2057.8400000000001</ele>
        <time>2014-09-25T09:22:17Z</time>
      </trkpt>
      <trkpt lat="45.912352977320552" lon="8.016443559899926">
        <ele>2055.4400000000001</ele>
        <time>2014-09-25T09:22:01Z</time>
      </trkpt>
      <trkpt lat="45.912328250706196" lon="8.016457222402096">
        <ele>2053.0300000000002</ele>
        <time>2014-09-25T09:21:45Z</time>
      </trkpt>
      <trkpt lat="45.912268320098519" lon="8.016394274309278">
        <ele>2050.6300000000001</ele>
        <time>2014-09-25T09:21:29Z</time>
      </trkpt>
      <trkpt lat="45.912236468866467" lon="8.016471974551678">
        <ele>2048.71</ele>
        <time>2014-09-25T09:21:13Z</time>
      </trkpt>
      <trkpt lat="45.912265554070473" lon="8.016580184921622">
        <ele>2047.26</ele>
        <time>2014-09-25T09:20:59Z</time>
      </trkpt>
      <trkpt lat="45.91226295568049" lon="8.016698369756341">
        <ele>2044.8599999999999</ele>
        <time>2014-09-25T09:20:46Z</time>
      </trkpt>
      <trkpt lat="45.912214759737253" lon="8.01670859567821">
        <ele>2043.9000000000001</ele>
        <time>2014-09-25T09:20:31Z</time>
      </trkpt>
      <trkpt lat="45.912183579057455" lon="8.016816303133965">
        <ele>2041.5</ele>
        <time>2014-09-25T09:20:18Z</time>
      </trkpt>
      <trkpt lat="45.912170000374317" lon="8.016930380836129">
        <ele>2040.05</ele>
        <time>2014-09-25T09:20:02Z</time>
      </trkpt>
      <trkpt lat="45.912164049223065" lon="8.016920490190387">
        <ele>2040.05</ele>
        <time>2014-09-25T09:19:45Z</time>
      </trkpt>
      <trkpt lat="45.912115685641766" lon="8.016972541809082">
        <ele>2039.0899999999999</ele>
        <time>2014-09-25T09:19:33Z</time>
      </trkpt>
      <trkpt lat="45.91210076585412" lon="8.017036998644471">
        <ele>2037.6500000000001</ele>
        <time>2014-09-25T09:19:19Z</time>
      </trkpt>
      <trkpt lat="45.912079811096191" lon="8.017120566219091">
        <ele>2034.77</ele>
        <time>2014-09-25T09:19:04Z</time>
      </trkpt>
      <trkpt lat="45.912082241848111" lon="8.017223663628101">
        <ele>2032.3599999999999</ele>
        <time>2014-09-25T09:18:47Z</time>
      </trkpt>
      <trkpt lat="45.912057096138597" lon="8.017297424376011">
        <ele>2030.4400000000001</ele>
        <time>2014-09-25T09:18:35Z</time>
      </trkpt>
      <trkpt lat="45.911997333168983" lon="8.01736825145781">
        <ele>2029</ele>
        <time>2014-09-25T09:18:21Z</time>
      </trkpt>
      <trkpt lat="45.911935307085514" lon="8.017336148768663">
        <ele>2028.52</ele>
        <time>2014-09-25T09:18:08Z</time>
      </trkpt>
      <trkpt lat="45.911890128627419" lon="8.017329527065158">
        <ele>2025.6400000000001</ele>
        <time>2014-09-25T09:17:56Z</time>
      </trkpt>
      <trkpt lat="45.911861043423414" lon="8.017374956980348">
        <ele>2024.1900000000001</ele>
        <time>2014-09-25T09:17:42Z</time>
      </trkpt>
      <trkpt lat="45.911823660135269" lon="8.01732424646616">
        <ele>2023.23</ele>
        <time>2014-09-25T09:17:32Z</time>
      </trkpt>
      <trkpt lat="45.911759119480848" lon="8.017198266461492">
        <ele>2023.23</ele>
        <time>2014-09-25T09:17:17Z</time>
      </trkpt>
      <trkpt lat="45.911696003749967" lon="8.0170838534832">
        <ele>2021.3099999999999</ele>
        <time>2014-09-25T09:17:03Z</time>
      </trkpt>
      <trkpt lat="45.911690723150969" lon="8.017179490998387">
        <ele>2020.3499999999999</ele>
        <time>2014-09-25T09:16:52Z</time>
      </trkpt>
      <trkpt lat="45.911706062033772" lon="8.017281666398048">
        <ele>2018.9100000000001</ele>
        <time>2014-09-25T09:16:38Z</time>
      </trkpt>
      <trkpt lat="45.911644035950303" lon="8.017213018611074">
        <ele>2016.98</ele>
        <time>2014-09-25T09:16:24Z</time>
      </trkpt>
      <trkpt lat="45.911599947139621" lon="8.017203798517585">
        <ele>2015.54</ele>
        <time>2014-09-25T09:16:14Z</time>
      </trkpt>
      <trkpt lat="45.911569017916918" lon="8.017301950603724">
        <ele>2013.6199999999999</ele>
        <time>2014-09-25T09:16:02Z</time>
      </trkpt>
      <trkpt lat="45.911528784781694" lon="8.017263226211071">
        <ele>2011.7</ele>
        <time>2014-09-25T09:15:48Z</time>
      </trkpt>
      <trkpt lat="45.911511182785034" lon="8.017298011109233">
        <ele>2010.25</ele>
        <time>2014-09-25T09:15:30Z</time>
      </trkpt>
      <trkpt lat="45.911508249118924" lon="8.017316535115242">
        <ele>2008.8099999999999</ele>
        <time>2014-09-25T09:15:26Z</time>
      </trkpt>
      <trkpt lat="45.911485953256488" lon="8.017399348318577">
        <ele>2007.3699999999999</ele>
        <time>2014-09-25T09:15:13Z</time>
      </trkpt>
      <trkpt lat="45.91147480532527" lon="8.017495907843113">
        <ele>2005.45</ele>
        <time>2014-09-25T09:14:57Z</time>
      </trkpt>
      <trkpt lat="45.911459634080529" lon="8.017576960846782">
        <ele>2004.01</ele>
        <time>2014-09-25T09:14:45Z</time>
      </trkpt>
      <trkpt lat="45.911453347653151" lon="8.017688021063805">
        <ele>2001.5999999999999</ele>
        <time>2014-09-25T09:14:30Z</time>
      </trkpt>
      <trkpt lat="45.911410516127944" lon="8.017722722142935">
        <ele>2000.1600000000001</ele>
        <time>2014-09-25T09:14:17Z</time>
      </trkpt>
      <trkpt lat="45.911387214437127" lon="8.017737977206707">
        <ele>1999.6800000000001</ele>
        <time>2014-09-25T09:14:06Z</time>
      </trkpt>
      <trkpt lat="45.911364750936627" lon="8.017779886722565">
        <ele>1997.76</ele>
        <time>2014-09-25T09:13:53Z</time>
      </trkpt>
      <trkpt lat="45.911344215273857" lon="8.017851132899523">
        <ele>1995.8299999999999</ele>
        <time>2014-09-25T09:13:39Z</time>
      </trkpt>
      <trkpt lat="45.911354776471853" lon="8.017891868948937">
        <ele>1993.9100000000001</ele>
        <time>2014-09-25T09:13:23Z</time>
      </trkpt>
      <trkpt lat="45.911361146718264" lon="8.017983483150601">
        <ele>1992.47</ele>
        <time>2014-09-25T09:13:10Z</time>
      </trkpt>
      <trkpt lat="45.911362236365676" lon="8.018065206706524">
        <ele>1989.5899999999999</ele>
        <time>2014-09-25T09:12:58Z</time>
      </trkpt>
      <trkpt lat="45.911370702087879" lon="8.018099404871464">
        <ele>1990.0699999999999</ele>
        <time>2014-09-25T09:12:44Z</time>
      </trkpt>
      <trkpt lat="45.911387884989381" lon="8.018104517832398">
        <ele>1989.5899999999999</ele>
        <time>2014-09-25T09:12:23Z</time>
      </trkpt>
      <trkpt lat="45.911386711522937" lon="8.018144583329558">
        <ele>1990.0699999999999</ele>
        <time>2014-09-25T09:12:03Z</time>
      </trkpt>
      <trkpt lat="45.91136340983212" lon="8.018141314387322">
        <ele>1988.6199999999999</ele>
        <time>2014-09-25T09:11:36Z</time>
      </trkpt>
      <trkpt lat="45.911350836977363" lon="8.018136536702514">
        <ele>1988.6199999999999</ele>
        <time>2014-09-25T09:11:04Z</time>
      </trkpt>
      <trkpt lat="45.911352010443807" lon="8.018147014081478">
        <ele>1988.1400000000001</ele>
        <time>2014-09-25T09:10:29Z</time>
      </trkpt>
      <trkpt lat="45.911333737894893" lon="8.018137626349926">
        <ele>1988.1400000000001</ele>
        <time>2014-09-25T09:09:44Z</time>
      </trkpt>
      <trkpt lat="45.911333067342639" lon="8.018140392377973">
        <ele>1988.1400000000001</ele>
        <time>2014-09-25T09:09:08Z</time>
      </trkpt>
      <trkpt lat="45.911354525014758" lon="8.018136704340577">
        <ele>1987.6600000000001</ele>
        <time>2014-09-25T09:08:38Z</time>
      </trkpt>
      <trkpt lat="45.911419317126274" lon="8.018148858100176">
        <ele>1987.6600000000001</ele>
        <time>2014-09-25T09:08:11Z</time>
      </trkpt>
      <trkpt lat="45.911400290206075" lon="8.018164113163948">
        <ele>1987.6600000000001</ele>
        <time>2014-09-25T09:07:41Z</time>
      </trkpt>
      <trkpt lat="45.911403056234121" lon="8.01816369406879">
        <ele>1987.6600000000001</ele>
        <time>2014-09-25T09:07:07Z</time>
      </trkpt>
      <trkpt lat="45.911400206387043" lon="8.018165538087487">
        <ele>1987.1800000000001</ele>
        <time>2014-09-25T09:06:31Z</time>
      </trkpt>
      <trkpt lat="45.911397943273187" lon="8.018164951354265">
        <ele>1987.1800000000001</ele>
        <time>2014-09-25T09:05:54Z</time>
      </trkpt>
      <trkpt lat="45.91138981282711" lon="8.018158245831728">
        <ele>1987.1800000000001</ele>
        <time>2014-09-25T09:05:20Z</time>
      </trkpt>
      <trkpt lat="45.911387884989381" lon="8.018140140920878">
        <ele>1986.7</ele>
        <time>2014-09-25T09:04:43Z</time>
      </trkpt>
      <trkpt lat="45.91139710508287" lon="8.018151791766286">
        <ele>1986.7</ele>
        <time>2014-09-25T09:04:05Z</time>
      </trkpt>
      <trkpt lat="45.911405235528946" lon="8.018122119829059">
        <ele>1986.22</ele>
        <time>2014-09-25T09:03:37Z</time>
      </trkpt>
      <trkpt lat="45.911393165588379" lon="8.018145505338907">
        <ele>1987.1800000000001</ele>
        <time>2014-09-25T09:02:58Z</time>
      </trkpt>
      <trkpt lat="45.911387130618095" lon="8.018149193376303">
        <ele>1986.7</ele>
        <time>2014-09-25T09:02:23Z</time>
      </trkpt>
      <trkpt lat="45.911411102861166" lon="8.018135111778975">
        <ele>1986.7</ele>
        <time>2014-09-25T09:01:50Z</time>
      </trkpt>
      <trkpt lat="45.911355279386044" lon="8.018134944140911">
        <ele>1986.7</ele>
        <time>2014-09-25T09:01:11Z</time>
      </trkpt>
      <trkpt lat="45.9114059060812" lon="8.01814517006278">
        <ele>1986.7</ele>
        <time>2014-09-25T09:00:32Z</time>
      </trkpt>
      <trkpt lat="45.911418311297894" lon="8.018144499510527">
        <ele>1986.7</ele>
        <time>2014-09-25T08:59:50Z</time>
      </trkpt>
      <trkpt lat="45.911420322954655" lon="8.018130334094167">
        <ele>1986.7</ele>
        <time>2014-09-25T08:59:15Z</time>
      </trkpt>
      <trkpt lat="45.911431722342968" lon="8.01811633631587">
        <ele>1986.7</ele>
        <time>2014-09-25T08:58:42Z</time>
      </trkpt>
      <trkpt lat="45.911400960758328" lon="8.018103092908859">
        <ele>1986.7</ele>
        <time>2014-09-25T08:58:04Z</time>
      </trkpt>
      <trkpt lat="45.911401882767677" lon="8.018108792603016">
        <ele>1987.1800000000001</ele>
        <time>2014-09-25T08:57:51Z</time>
      </trkpt>
      <trkpt lat="45.911406660452485" lon="8.018122371286154">
        <ele>1986.7</ele>
        <time>2014-09-25T08:57:21Z</time>
      </trkpt>
      <trkpt lat="45.911399116739631" lon="8.018123544752598">
        <ele>1986.7</ele>
        <time>2014-09-25T08:56:43Z</time>
      </trkpt>
      <trkpt lat="45.911402218043804" lon="8.018114157021046">
        <ele>1986.22</ele>
        <time>2014-09-25T08:56:17Z</time>
      </trkpt>
      <trkpt lat="45.911398865282536" lon="8.018128909170628">
        <ele>1986.7</ele>
        <time>2014-09-25T08:55:45Z</time>
      </trkpt>
      <trkpt lat="45.911382185295224" lon="8.01814659498632">
        <ele>1986.22</ele>
        <time>2014-09-25T08:55:31Z</time>
      </trkpt>
      <trkpt lat="45.911400793120265" lon="8.018138967454433">
        <ele>1986.22</ele>
        <time>2014-09-25T08:55:03Z</time>
      </trkpt>
      <trkpt lat="45.911404313519597" lon="8.018119689077139">
        <ele>1985.74</ele>
        <time>2014-09-25T08:54:29Z</time>
      </trkpt>
      <trkpt lat="45.911401296034455" lon="8.018125388771296">
        <ele>1986.22</ele>
        <time>2014-09-25T08:54:08Z</time>
      </trkpt>
      <trkpt lat="45.911400709301233" lon="8.018122036010027">
        <ele>1986.22</ele>
        <time>2014-09-25T08:53:48Z</time>
      </trkpt>
      <trkpt lat="45.911405989900231" lon="8.018140811473131">
        <ele>1986.22</ele>
        <time>2014-09-25T08:53:34Z</time>
      </trkpt>
      <trkpt lat="45.911404229700565" lon="8.018144331872463">
        <ele>1986.22</ele>
        <time>2014-09-25T08:53:33Z</time>
      </trkpt>
      <trkpt lat="45.911405570805073" lon="8.018141649663448">
        <ele>1987.1800000000001</ele>
        <time>2014-09-25T08:53:19Z</time>
      </trkpt>
      <trkpt lat="45.911360392346978" lon="8.018163777887821">
        <ele>1985.74</ele>
        <time>2014-09-25T08:53:07Z</time>
      </trkpt>
      <trkpt lat="45.911354860290885" lon="8.018259247764945">
        <ele>1982.8599999999999</ele>
        <time>2014-09-25T08:52:49Z</time>
      </trkpt>
      <trkpt lat="45.911373132839799" lon="8.018243489786983">
        <ele>1983.8199999999999</ele>
        <time>2014-09-25T08:52:28Z</time>
      </trkpt>
      <trkpt lat="45.911365756765008" lon="8.018261510878801">
        <ele>1983.8199999999999</ele>
        <time>2014-09-25T08:52:11Z</time>
      </trkpt>
      <trkpt lat="45.911384448409081" lon="8.018333679065108">
        <ele>1982.8599999999999</ele>
        <time>2014-09-25T08:51:58Z</time>
      </trkpt>
      <trkpt lat="45.911378329619765" lon="8.018384138122201">
        <ele>1980.9300000000001</ele>
        <time>2014-09-25T08:51:42Z</time>
      </trkpt>
      <trkpt lat="45.911403307691216" lon="8.018435770645738">
        <ele>1980.45</ele>
        <time>2014-09-25T08:51:29Z</time>
      </trkpt>
      <trkpt lat="45.91140448115766" lon="8.018449516966939">
        <ele>1979.49</ele>
        <time>2014-09-25T08:51:15Z</time>
      </trkpt>
      <trkpt lat="45.91144161298871" lon="8.018408361822367">
        <ele>1978.05</ele>
        <time>2014-09-25T08:51:03Z</time>
      </trkpt>
      <trkpt lat="45.911456365138292" lon="8.018447672948241">
        <ele>1976.1300000000001</ele>
        <time>2014-09-25T08:50:51Z</time>
      </trkpt>
      <trkpt lat="45.9114577062428" lon="8.018464017659426">
        <ele>1975.1700000000001</ele>
        <time>2014-09-25T08:50:48Z</time>
      </trkpt>
      <trkpt lat="45.911496765911579" lon="8.0185223557055">
        <ele>1973.24</ele>
        <time>2014-09-25T08:50:35Z</time>
      </trkpt>
      <trkpt lat="45.911494418978691" lon="8.018600810319185">
        <ele>1970.3599999999999</ele>
        <time>2014-09-25T08:50:23Z</time>
      </trkpt>
      <trkpt lat="45.911485366523266" lon="8.018641630187631">
        <ele>1968.9200000000001</ele>
        <time>2014-09-25T08:50:12Z</time>
      </trkpt>
      <trkpt lat="45.9115354064852" lon="8.018669793382287">
        <ele>1966.99</ele>
        <time>2014-09-25T08:50:01Z</time>
      </trkpt>
      <trkpt lat="45.911557283252478" lon="8.01872561685741">
        <ele>1965.55</ele>
        <time>2014-09-25T08:49:50Z</time>
      </trkpt>
      <trkpt lat="45.911561222746968" lon="8.018779093399644">
        <ele>1963.1500000000001</ele>
        <time>2014-09-25T08:49:36Z</time>
      </trkpt>
      <trkpt lat="45.911552421748638" lon="8.018853943794966">
        <ele>1961.23</ele>
        <time>2014-09-25T08:49:23Z</time>
      </trkpt>
      <trkpt lat="45.911629954352975" lon="8.018846064805985">
        <ele>1958.8199999999999</ele>
        <time>2014-09-25T08:49:10Z</time>
      </trkpt>
      <trkpt lat="45.9115837700665" lon="8.018930638208985">
        <ele>1956.9000000000001</ele>
        <time>2014-09-25T08:48:57Z</time>
      </trkpt>
      <trkpt lat="45.911612352356315" lon="8.019004482775927">
        <ele>1954.98</ele>
        <time>2014-09-25T08:48:44Z</time>
      </trkpt>
      <trkpt lat="45.91161947697401" lon="8.018998447805643">
        <ele>1954.98</ele>
        <time>2014-09-25T08:48:43Z</time>
      </trkpt>
      <trkpt lat="45.91170547530055" lon="8.019036753103137">
        <ele>1953.0599999999999</ele>
        <time>2014-09-25T08:48:29Z</time>
      </trkpt>
      <trkpt lat="45.911727268248796" lon="8.019086541607976">
        <ele>1951.6099999999999</ele>
        <time>2014-09-25T08:48:08Z</time>
      </trkpt>
      <trkpt lat="45.911717964336276" lon="8.019075142219663">
        <ele>1951.1300000000001</ele>
        <time>2014-09-25T08:47:57Z</time>
      </trkpt>
      <trkpt lat="45.911726262420416" lon="8.01916541531682">
        <ele>1948.73</ele>
        <time>2014-09-25T08:47:42Z</time>
      </trkpt>
      <trkpt lat="45.911761801689863" lon="8.019252503290772">
        <ele>1947.29</ele>
        <time>2014-09-25T08:47:29Z</time>
      </trkpt>
      <trkpt lat="45.91177873313427" lon="8.019301788881421">
        <ele>1944.8800000000001</ele>
        <time>2014-09-25T08:47:18Z</time>
      </trkpt>
      <trkpt lat="45.911757275462151" lon="8.019382255151868">
        <ele>1942.96</ele>
        <time>2014-09-25T08:47:07Z</time>
      </trkpt>
      <trkpt lat="45.911809410899878" lon="8.019367000088096">
        <ele>1942.48</ele>
        <time>2014-09-25T08:46:53Z</time>
      </trkpt>
      <trkpt lat="45.911834053695202" lon="8.019363563507795">
        <ele>1942.48</ele>
        <time>2014-09-25T08:46:36Z</time>
      </trkpt>
      <trkpt lat="45.911823743954301" lon="8.01937990821898">
        <ele>1942</ele>
        <time>2014-09-25T08:46:19Z</time>
      </trkpt>
      <trkpt lat="45.911823241040111" lon="8.019391810521483">
        <ele>1942</ele>
        <time>2014-09-25T08:46:05Z</time>
      </trkpt>
      <trkpt lat="45.91183053329587" lon="8.019405975937843">
        <ele>1941.52</ele>
        <time>2014-09-25T08:45:52Z</time>
      </trkpt>
      <trkpt lat="45.911832628771663" lon="8.019427098333836">
        <ele>1942</ele>
        <time>2014-09-25T08:45:38Z</time>
      </trkpt>
      <trkpt lat="45.911859031766653" lon="8.019430199638009">
        <ele>1941.04</ele>
        <time>2014-09-25T08:45:23Z</time>
      </trkpt>
      <trkpt lat="45.911875460296869" lon="8.019397342577577">
        <ele>1941.52</ele>
        <time>2014-09-25T08:45:09Z</time>
      </trkpt>
      <trkpt lat="45.911890463903546" lon="8.019393486902118">
        <ele>1941.04</ele>
        <time>2014-09-25T08:44:53Z</time>
      </trkpt>
      <trkpt lat="45.91189063154161" lon="8.019381165504456">
        <ele>1941.52</ele>
        <time>2014-09-25T08:44:38Z</time>
      </trkpt>
      <trkpt lat="45.911883842200041" lon="8.019380243495107">
        <ele>1941.04</ele>
        <time>2014-09-25T08:44:15Z</time>
      </trkpt>
      <trkpt lat="45.91187990270555" lon="8.019409161061049">
        <ele>1941.04</ele>
        <time>2014-09-25T08:43:59Z</time>
      </trkpt>
      <trkpt lat="45.911875125020742" lon="8.019411927089095">
        <ele>1941.04</ele>
        <time>2014-09-25T08:43:41Z</time>
      </trkpt>
      <trkpt lat="45.911898510530591" lon="8.019416369497776">
        <ele>1940.0799999999999</ele>
        <time>2014-09-25T08:43:23Z</time>
      </trkpt>
      <trkpt lat="45.911879651248455" lon="8.019419554620981">
        <ele>1940.5599999999999</ele>
        <time>2014-09-25T08:42:58Z</time>
      </trkpt>
      <trkpt lat="45.911887949332595" lon="8.019450567662716">
        <ele>1939.5999999999999</ele>
        <time>2014-09-25T08:42:40Z</time>
      </trkpt>
      <trkpt lat="45.91188040561974" lon="8.0194375757128">
        <ele>1939.5999999999999</ele>
        <time>2014-09-25T08:42:20Z</time>
      </trkpt>
      <trkpt lat="45.911860540509224" lon="8.019430115818977">
        <ele>1939.1199999999999</ele>
        <time>2014-09-25T08:41:59Z</time>
      </trkpt>
      <trkpt lat="45.911885937675834" lon="8.019442521035671">
        <ele>1939.1199999999999</ele>
        <time>2014-09-25T08:41:41Z</time>
      </trkpt>
      <trkpt lat="45.911908149719238" lon="8.019489292055368">
        <ele>1937.6700000000001</ele>
        <time>2014-09-25T08:41:25Z</time>
      </trkpt>
      <trkpt lat="45.911980820819736" lon="8.019492058083415">
        <ele>1935.75</ele>
        <time>2014-09-25T08:41:11Z</time>
      </trkpt>
      <trkpt lat="45.911961458623409" lon="8.019546372815967">
        <ele>1932.8699999999999</ele>
        <time>2014-09-25T08:40:58Z</time>
      </trkpt>
      <trkpt lat="45.911945281550288" lon="8.019591802731156">
        <ele>1930.95</ele>
        <time>2014-09-25T08:40:44Z</time>
      </trkpt>
      <trkpt lat="45.911895828321576" lon="8.01967553794384">
        <ele>1929.02</ele>
        <time>2014-09-25T08:40:28Z</time>
      </trkpt>
      <trkpt lat="45.91187353245914" lon="8.019673945382237">
        <ele>1928.54</ele>
        <time>2014-09-25T08:40:12Z</time>
      </trkpt>
      <trkpt lat="45.911829192191362" lon="8.019742174074054">
        <ele>1926.1400000000001</ele>
        <time>2014-09-25T08:39:55Z</time>
      </trkpt>
      <trkpt lat="45.911857187747955" lon="8.019777126610279">
        <ele>1924.7</ele>
        <time>2014-09-25T08:39:42Z</time>
      </trkpt>
      <trkpt lat="45.911935893818736" lon="8.019767990335822">
        <ele>1922.77</ele>
        <time>2014-09-25T08:39:26Z</time>
      </trkpt>
      <trkpt lat="45.91194486245513" lon="8.019814174622297">
        <ele>1920.8499999999999</ele>
        <time>2014-09-25T08:39:12Z</time>
      </trkpt>
      <trkpt lat="45.911881662905216" lon="8.019916266202927">
        <ele>1918.9300000000001</ele>
        <time>2014-09-25T08:38:56Z</time>
      </trkpt>
      <trkpt lat="45.911891805008054" lon="8.019945435225964">
        <ele>1917.49</ele>
        <time>2014-09-25T08:38:42Z</time>
      </trkpt>
      <trkpt lat="45.911947293207049" lon="8.01993403583765">
        <ele>1915.5599999999999</ele>
        <time>2014-09-25T08:38:27Z</time>
      </trkpt>
      <trkpt lat="45.911921728402376" lon="8.020009556785226">
        <ele>1913.1600000000001</ele>
        <time>2014-09-25T08:38:14Z</time>
      </trkpt>
      <trkpt lat="45.911865234375" lon="8.020090525969863">
        <ele>1911.24</ele>
        <time>2014-09-25T08:38:00Z</time>
      </trkpt>
      <trkpt lat="45.911864899098873" lon="8.020113492384553">
        <ele>1909.8</ele>
        <time>2014-09-25T08:37:43Z</time>
      </trkpt>
      <trkpt lat="45.911814775317907" lon="8.020187672227621">
        <ele>1907.8699999999999</ele>
        <time>2014-09-25T08:37:29Z</time>
      </trkpt>
      <trkpt lat="45.911771943792701" lon="8.020239807665348">
        <ele>1906.4300000000001</ele>
        <time>2014-09-25T08:37:16Z</time>
      </trkpt>
      <trkpt lat="45.911758532747626" lon="8.020326728001237">
        <ele>1904.51</ele>
        <time>2014-09-25T08:37:02Z</time>
      </trkpt>
      <trkpt lat="45.911820307374001" lon="8.020308623090386">
        <ele>1902.5899999999999</ele>
        <time>2014-09-25T08:36:49Z</time>
      </trkpt>
      <trkpt lat="45.911787701770663" lon="8.020383976399899">
        <ele>1900.6600000000001</ele>
        <time>2014-09-25T08:36:35Z</time>
      </trkpt>
      <trkpt lat="45.911791222169995" lon="8.020418593659997">
        <ele>1898.74</ele>
        <time>2014-09-25T08:36:20Z</time>
      </trkpt>
      <trkpt lat="45.911739422008395" lon="8.020505178719759">
        <ele>1897.3</ele>
        <time>2014-09-25T08:36:05Z</time>
      </trkpt>
      <trkpt lat="45.911755179986358" lon="8.020538538694382">
        <ele>1895.3800000000001</ele>
        <time>2014-09-25T08:35:53Z</time>
      </trkpt>
      <trkpt lat="45.911790635436773" lon="8.020560247823596">
        <ele>1894.9000000000001</ele>
        <time>2014-09-25T08:35:42Z</time>
      </trkpt>
      <trkpt lat="45.911742523312569" lon="8.020620932802558">
        <ele>1891.53</ele>
        <time>2014-09-25T08:35:29Z</time>
      </trkpt>
      <trkpt lat="45.911740008741617" lon="8.020629733800888">
        <ele>1889.6099999999999</ele>
        <time>2014-09-25T08:35:27Z</time>
      </trkpt>
      <trkpt lat="45.911692231893539" lon="8.020741464570165">
        <ele>1888.6500000000001</ele>
        <time>2014-09-25T08:35:10Z</time>
      </trkpt>
      <trkpt lat="45.911626182496548" lon="8.020825618878007">
        <ele>1886.72</ele>
        <time>2014-09-25T08:34:52Z</time>
      </trkpt>
      <trkpt lat="45.911600198596716" lon="8.02087071351707">
        <ele>1885.76</ele>
        <time>2014-09-25T08:34:39Z</time>
      </trkpt>
      <trkpt lat="45.911641605198383" lon="8.020900804549456">
        <ele>1883.8399999999999</ele>
        <time>2014-09-25T08:34:28Z</time>
      </trkpt>
      <trkpt lat="45.91169960796833" lon="8.020893009379506">
        <ele>1882.8800000000001</ele>
        <time>2014-09-25T08:34:18Z</time>
      </trkpt>
      <trkpt lat="45.911750989034772" lon="8.02089468576014">
        <ele>1880.96</ele>
        <time>2014-09-25T08:34:07Z</time>
      </trkpt>
      <trkpt lat="45.911803878843784" lon="8.020906001329422">
        <ele>1879.51</ele>
        <time>2014-09-25T08:33:52Z</time>
      </trkpt>
      <trkpt lat="45.911831874400377" lon="8.020944893360138">
        <ele>1877.5899999999999</ele>
        <time>2014-09-25T08:33:39Z</time>
      </trkpt>
      <trkpt lat="45.911819972097874" lon="8.021012870594859">
        <ele>1875.1900000000001</ele>
        <time>2014-09-25T08:33:25Z</time>
      </trkpt>
      <trkpt lat="45.911827180534601" lon="8.021043883636594">
        <ele>1873.27</ele>
        <time>2014-09-25T08:33:14Z</time>
      </trkpt>
      <trkpt lat="45.911771273240447" lon="8.021111777052283">
        <ele>1871.8199999999999</ele>
        <time>2014-09-25T08:33:02Z</time>
      </trkpt>
      <trkpt lat="45.911748977378011" lon="8.021165085956454">
        <ele>1869.9000000000001</ele>
        <time>2014-09-25T08:32:52Z</time>
      </trkpt>
      <trkpt lat="45.911805722862482" lon="8.021176066249609">
        <ele>1867.98</ele>
        <time>2014-09-25T08:32:41Z</time>
      </trkpt>
      <trkpt lat="45.911744870245457" lon="8.021257622167468">
        <ele>1865.5799999999999</ele>
        <time>2014-09-25T08:32:26Z</time>
      </trkpt>
      <trkpt lat="45.911743529140949" lon="8.021328030154109">
        <ele>1863.1700000000001</ele>
        <time>2014-09-25T08:32:13Z</time>
      </trkpt>
      <trkpt lat="45.911729363724589" lon="8.021409669891">
        <ele>1860.77</ele>
        <time>2014-09-25T08:32:01Z</time>
      </trkpt>
      <trkpt lat="45.911749983206391" lon="8.021459961310029">
        <ele>1858.3699999999999</ele>
        <time>2014-09-25T08:31:47Z</time>
      </trkpt>
      <trkpt lat="45.911770351231098" lon="8.021504133939743">
        <ele>1856.9200000000001</ele>
        <time>2014-09-25T08:31:33Z</time>
      </trkpt>
      <trkpt lat="45.91169960796833" lon="8.021611338481307">
        <ele>1854.04</ele>
        <time>2014-09-25T08:31:17Z</time>
      </trkpt>
      <trkpt lat="45.911686113104224" lon="8.021703036502004">
        <ele>1852.1199999999999</ele>
        <time>2014-09-25T08:31:04Z</time>
      </trkpt>
      <trkpt lat="45.911627439782023" lon="8.021824825555086">
        <ele>1850.1900000000001</ele>
        <time>2014-09-25T08:30:49Z</time>
      </trkpt>
      <trkpt lat="45.911645879969001" lon="8.021886348724365">
        <ele>1847.79</ele>
        <time>2014-09-25T08:30:37Z</time>
      </trkpt>
      <trkpt lat="45.911630792543292" lon="8.02198282442987">
        <ele>1845.8699999999999</ele>
        <time>2014-09-25T08:30:22Z</time>
      </trkpt>
      <trkpt lat="45.911626517772675" lon="8.022090028971434">
        <ele>1842.98</ele>
        <time>2014-09-25T08:30:07Z</time>
      </trkpt>
      <trkpt lat="45.911704385653138" lon="8.022137051448226">
        <ele>1841.54</ele>
        <time>2014-09-25T08:29:56Z</time>
      </trkpt>
      <trkpt lat="45.911721736192703" lon="8.022170243784785">
        <ele>1839.1400000000001</ele>
        <time>2014-09-25T08:29:43Z</time>
      </trkpt>
      <trkpt lat="45.911682676523924" lon="8.022217098623514">
        <ele>1837.7</ele>
        <time>2014-09-25T08:29:28Z</time>
      </trkpt>
      <trkpt lat="45.9116424433887" lon="8.02224769257009">
        <ele>1835.77</ele>
        <time>2014-09-25T08:29:21Z</time>
      </trkpt>
      <trkpt lat="45.911589050665498" lon="8.022288344800472">
        <ele>1834.3299999999999</ele>
        <time>2014-09-25T08:29:07Z</time>
      </trkpt>
      <trkpt lat="45.9116649068892" lon="8.022338887676597">
        <ele>1832.4100000000001</ele>
        <time>2014-09-25T08:28:53Z</time>
      </trkpt>
      <trkpt lat="45.911740008741617" lon="8.022406361997128">
        <ele>1831.45</ele>
        <time>2014-09-25T08:28:40Z</time>
      </trkpt>
      <trkpt lat="45.91180806979537" lon="8.022407284006476">
        <ele>1830.01</ele>
        <time>2014-09-25T08:28:29Z</time>
      </trkpt>
      <trkpt lat="45.911815026775002" lon="8.022401500493288">
        <ele>1830.49</ele>
        <time>2014-09-25T08:28:28Z</time>
      </trkpt>
      <trkpt lat="45.911854673177004" lon="8.022412899881601">
        <ele>1827.5999999999999</ele>
        <time>2014-09-25T08:28:19Z</time>
      </trkpt>
      <trkpt lat="45.911888033151627" lon="8.02240451797843">
        <ele>1827.1199999999999</ele>
        <time>2014-09-25T08:27:55Z</time>
      </trkpt>
      <trkpt lat="45.91189892962575" lon="8.022382892668247">
        <ele>1827.1199999999999</ele>
        <time>2014-09-25T08:27:39Z</time>
      </trkpt>
      <trkpt lat="45.911907898262143" lon="8.02232245914638">
        <ele>1826.6400000000001</ele>
        <time>2014-09-25T08:27:34Z</time>
      </trkpt>
      <trkpt lat="45.91196246445179" lon="8.02224132232368">
        <ele>1825.6800000000001</ele>
        <time>2014-09-25T08:27:24Z</time>
      </trkpt>
      <trkpt lat="45.911976546049118" lon="8.022179631516337">
        <ele>1825.2</ele>
        <time>2014-09-25T08:27:18Z</time>
      </trkpt>
      <trkpt lat="45.911975624039769" lon="8.022174267098308">
        <ele>1825.2</ele>
        <time>2014-09-25T08:27:16Z</time>
      </trkpt>
      <trkpt lat="45.911997752264142" lon="8.022142751142383">
        <ele>1823.76</ele>
        <time>2014-09-25T08:27:03Z</time>
      </trkpt>
      <trkpt lat="45.912047540768981" lon="8.022198993712664">
        <ele>1820.8699999999999</ele>
        <time>2014-09-25T08:26:49Z</time>
      </trkpt>
      <trkpt lat="45.912020718678832" lon="8.022275436669588">
        <ele>1818.47</ele>
        <time>2014-09-25T08:26:37Z</time>
      </trkpt>
      <trkpt lat="45.912097245454788" lon="8.022285830229521">
        <ele>1817.03</ele>
        <time>2014-09-25T08:26:24Z</time>
      </trkpt>
      <trkpt lat="45.912133874371648" lon="8.022305276244879">
        <ele>1814.1500000000001</ele>
        <time>2014-09-25T08:26:08Z</time>
      </trkpt>
      <trkpt lat="45.912100682035089" lon="8.022420108318329">
        <ele>1811.26</ele>
        <time>2014-09-25T08:25:52Z</time>
      </trkpt>
      <trkpt lat="45.912114009261131" lon="8.022450283169746">
        <ele>1809.3399999999999</ele>
        <time>2014-09-25T08:25:40Z</time>
      </trkpt>
      <trkpt lat="45.912132281810045" lon="8.022518260404468">
        <ele>1806.9400000000001</ele>
        <time>2014-09-25T08:25:26Z</time>
      </trkpt>
      <trkpt lat="45.912121301516891" lon="8.022615239024162">
        <ele>1804.05</ele>
        <time>2014-09-25T08:25:13Z</time>
      </trkpt>
      <trkpt lat="45.912162624299526" lon="8.022634852677584">
        <ele>1803.0899999999999</ele>
        <time>2014-09-25T08:25:01Z</time>
      </trkpt>
      <trkpt lat="45.912171509116888" lon="8.022586405277252">
        <ele>1801.6500000000001</ele>
        <time>2014-09-25T08:24:54Z</time>
      </trkpt>
      <trkpt lat="45.912233199924231" lon="8.022585231810808">
        <ele>1799.24</ele>
        <time>2014-09-25T08:24:43Z</time>
      </trkpt>
      <trkpt lat="45.912311486899853" lon="8.022580035030842">
        <ele>1796.8399999999999</ele>
        <time>2014-09-25T08:24:30Z</time>
      </trkpt>
      <trkpt lat="45.91232992708683" lon="8.022589841857553">
        <ele>1796.3599999999999</ele>
        <time>2014-09-25T08:24:27Z</time>
      </trkpt>
      <trkpt lat="45.912344176322222" lon="8.022602666169405">
        <ele>1795.4000000000001</ele>
        <time>2014-09-25T08:24:16Z</time>
      </trkpt>
      <trkpt lat="45.912339482456446" lon="8.022606773301959">
        <ele>1794.4400000000001</ele>
        <time>2014-09-25T08:24:00Z</time>
      </trkpt>
      <trkpt lat="45.912334285676479" lon="8.022597720846534">
        <ele>1794.9200000000001</ele>
        <time>2014-09-25T08:23:45Z</time>
      </trkpt>
      <trkpt lat="45.912341410294175" lon="8.022655388340354">
        <ele>1792.03</ele>
        <time>2014-09-25T08:23:30Z</time>
      </trkpt>
      <trkpt lat="45.912363454699516" lon="8.022722275927663">
        <ele>1789.1500000000001</ele>
        <time>2014-09-25T08:23:17Z</time>
      </trkpt>
      <trkpt lat="45.91240368783474" lon="8.022791594266892">
        <ele>1786.75</ele>
        <time>2014-09-25T08:23:02Z</time>
      </trkpt>
      <trkpt lat="45.912420451641083" lon="8.022903660312295">
        <ele>1784.8199999999999</ele>
        <time>2014-09-25T08:22:49Z</time>
      </trkpt>
      <trkpt lat="45.912458840757608" lon="8.022947497665882">
        <ele>1782.9000000000001</ele>
        <time>2014-09-25T08:22:39Z</time>
      </trkpt>
      <trkpt lat="45.912490608170629" lon="8.022984797134996">
        <ele>1780.02</ele>
        <time>2014-09-25T08:22:27Z</time>
      </trkpt>
      <trkpt lat="45.91245498508215" lon="8.023052858188748">
        <ele>1779.0599999999999</ele>
        <time>2014-09-25T08:22:06Z</time>
      </trkpt>
      <trkpt lat="45.912450207397342" lon="8.023069789633155">
        <ele>1777.6099999999999</ele>
        <time>2014-09-25T08:21:50Z</time>
      </trkpt>
      <trkpt lat="45.912518268451095" lon="8.023073310032487">
        <ele>1774.73</ele>
        <time>2014-09-25T08:21:38Z</time>
      </trkpt>
      <trkpt lat="45.912562692537904" lon="8.023049673065543">
        <ele>1773.77</ele>
        <time>2014-09-25T08:21:24Z</time>
      </trkpt>
      <trkpt lat="45.912580965086818" lon="8.023030310869217">
        <ele>1773.29</ele>
        <time>2014-09-25T08:21:08Z</time>
      </trkpt>
      <trkpt lat="45.912678949534893" lon="8.022953364998102">
        <ele>1773.29</ele>
        <time>2014-09-25T08:20:55Z</time>
      </trkpt>
      <trkpt lat="45.912643074989319" lon="8.023037938401103">
        <ele>1770.4100000000001</ele>
        <time>2014-09-25T08:20:41Z</time>
      </trkpt>
      <trkpt lat="45.912651373073459" lon="8.023129217326641">
        <ele>1767.52</ele>
        <time>2014-09-25T08:20:25Z</time>
      </trkpt>
      <trkpt lat="45.912641482427716" lon="8.023204486817122">
        <ele>1765.1199999999999</ele>
        <time>2014-09-25T08:20:15Z</time>
      </trkpt>
      <trkpt lat="45.912624215707183" lon="8.023247569799423">
        <ele>1762.71</ele>
        <time>2014-09-25T08:20:00Z</time>
      </trkpt>
      <trkpt lat="45.912572164088488" lon="8.02329576574266">
        <ele>1759.8299999999999</ele>
        <time>2014-09-25T08:19:46Z</time>
      </trkpt>
      <trkpt lat="45.912458337843418" lon="8.023389894515276">
        <ele>1759.3499999999999</ele>
        <time>2014-09-25T08:19:32Z</time>
      </trkpt>
      <trkpt lat="45.912474850192666" lon="8.023472707718611">
        <ele>1756.95</ele>
        <time>2014-09-25T08:19:18Z</time>
      </trkpt>
      <trkpt lat="45.91245498508215" lon="8.023560382425785">
        <ele>1754.0599999999999</ele>
        <time>2014-09-25T08:19:05Z</time>
      </trkpt>
      <trkpt lat="45.912476442754269" lon="8.023631628602743">
        <ele>1751.1800000000001</ele>
        <time>2014-09-25T08:18:53Z</time>
      </trkpt>
      <trkpt lat="45.91245305724442" lon="8.023678231984377">
        <ele>1748.29</ele>
        <time>2014-09-25T08:18:39Z</time>
      </trkpt>
      <trkpt lat="45.912396144121885" lon="8.023706981912255">
        <ele>1746.3699999999999</ele>
        <time>2014-09-25T08:18:22Z</time>
      </trkpt>
      <trkpt lat="45.912361275404692" lon="8.023769343271852">
        <ele>1743.49</ele>
        <time>2014-09-25T08:18:11Z</time>
      </trkpt>
      <trkpt lat="45.912317605689168" lon="8.023839835077524">
        <ele>1740.1199999999999</ele>
        <time>2014-09-25T08:17:57Z</time>
      </trkpt>
      <trkpt lat="45.912333698943257" lon="8.023874452337623">
        <ele>1738.6800000000001</ele>
        <time>2014-09-25T08:17:44Z</time>
      </trkpt>
      <trkpt lat="45.912265386432409" lon="8.023960283026099">
        <ele>1735.3199999999999</ele>
        <time>2014-09-25T08:17:29Z</time>
      </trkpt>
      <trkpt lat="45.91228885576129" lon="8.023999007418752">
        <ele>1732.9100000000001</ele>
        <time>2014-09-25T08:17:16Z</time>
      </trkpt>
      <trkpt lat="45.91225759126246" lon="8.024067236110568">
        <ele>1730.99</ele>
        <time>2014-09-25T08:17:04Z</time>
      </trkpt>
      <trkpt lat="45.912207299843431" lon="8.024125657975674">
        <ele>1729.0699999999999</ele>
        <time>2014-09-25T08:16:53Z</time>
      </trkpt>
      <trkpt lat="45.912259183824062" lon="8.024170501157641">
        <ele>1726.6700000000001</ele>
        <time>2014-09-25T08:16:40Z</time>
      </trkpt>
      <trkpt lat="45.912211071699858" lon="8.02424811758101">
        <ele>1724.26</ele>
        <time>2014-09-25T08:16:28Z</time>
      </trkpt>
      <trkpt lat="45.91224099509418" lon="8.02432338707149">
        <ele>1722.3399999999999</ele>
        <time>2014-09-25T08:16:16Z</time>
      </trkpt>
      <trkpt lat="45.912202522158623" lon="8.024327242746949">
        <ele>1720.9000000000001</ele>
        <time>2014-09-25T08:16:06Z</time>
      </trkpt>
      <trkpt lat="45.912171676754951" lon="8.024371583014727">
        <ele>1718.97</ele>
        <time>2014-09-25T08:15:52Z</time>
      </trkpt>
      <trkpt lat="45.91209246776998" lon="8.024384994059801">
        <ele>1717.05</ele>
        <time>2014-09-25T08:15:38Z</time>
      </trkpt>
      <trkpt lat="45.912059945985675" lon="8.02446017973125">
        <ele>1715.6099999999999</ele>
        <time>2014-09-25T08:15:26Z</time>
      </trkpt>
      <trkpt lat="45.911999847739935" lon="8.024526815861464">
        <ele>1713.6900000000001</ele>
        <time>2014-09-25T08:15:13Z</time>
      </trkpt>
      <trkpt lat="45.911911586299539" lon="8.02454374730587">
        <ele>1710.8</ele>
        <time>2014-09-25T08:14:58Z</time>
      </trkpt>
      <trkpt lat="45.911879986524582" lon="8.024620106443763">
        <ele>1708.4000000000001</ele>
        <time>2014-09-25T08:14:45Z</time>
      </trkpt>
      <trkpt lat="45.911792311817408" lon="8.024635529145598">
        <ele>1706.96</ele>
        <time>2014-09-25T08:14:32Z</time>
      </trkpt>
      <trkpt lat="45.911649819463491" lon="8.024671152234078">
        <ele>1705.04</ele>
        <time>2014-09-25T08:14:18Z</time>
      </trkpt>
      <trkpt lat="45.911558959633112" lon="8.024705853313208">
        <ele>1702.1500000000001</ele>
        <time>2014-09-25T08:14:02Z</time>
      </trkpt>
      <trkpt lat="45.910820513963699" lon="8.025954673066735">
        <ele>1657.9300000000001</ele>
        <time>2014-09-25T08:09:28Z</time>
      </trkpt>
      <trkpt lat="45.9108498506248" lon="8.026024661958218">
        <ele>1656.01</ele>
        <time>2014-09-25T08:09:12Z</time>
      </trkpt>
      <trkpt lat="45.91080442070961" lon="8.026083335280418">
        <ele>1653.5999999999999</ele>
        <time>2014-09-25T08:08:55Z</time>
      </trkpt>
      <trkpt lat="45.910851443186402" lon="8.026136979460716">
        <ele>1651.6800000000001</ele>
        <time>2014-09-25T08:08:43Z</time>
      </trkpt>
      <trkpt lat="45.910760331898928" lon="8.026189282536507">
        <ele>1648.8</ele>
        <time>2014-09-25T08:08:28Z</time>
      </trkpt>
      <trkpt lat="45.91063192114234" lon="8.026174865663052">
        <ele>1646.8800000000001</ele>
        <time>2014-09-25T08:08:13Z</time>
      </trkpt>
      <trkpt lat="45.910559920594096" lon="8.026209650561214">
        <ele>1646.4000000000001</ele>
        <time>2014-09-25T08:08:01Z</time>
      </trkpt>
      <trkpt lat="45.910642985254526" lon="8.026302270591259">
        <ele>1643.99</ele>
        <time>2014-09-25T08:07:44Z</time>
      </trkpt>
      <trkpt lat="45.910724122077227" lon="8.026447109878063">
        <ele>1641.5899999999999</ele>
        <time>2014-09-25T08:07:27Z</time>
      </trkpt>
      <trkpt lat="45.910713979974389" lon="8.026528498157859">
        <ele>1640.6300000000001</ele>
        <time>2014-09-25T08:07:17Z</time>
      </trkpt>
      <trkpt lat="45.9106529597193" lon="8.026637965813279">
        <ele>1638.7</ele>
        <time>2014-09-25T08:07:04Z</time>
      </trkpt>
      <trkpt lat="45.91079075820744" lon="8.026744751259685">
        <ele>1635.3399999999999</ele>
        <time>2014-09-25T08:06:47Z</time>
      </trkpt>
      <trkpt lat="45.910784639418125" lon="8.026870312169194">
        <ele>1632.9400000000001</ele>
        <time>2014-09-25T08:06:30Z</time>
      </trkpt>
      <trkpt lat="45.910883462056518" lon="8.026913981884718">
        <ele>1630.53</ele>
        <time>2014-09-25T08:06:13Z</time>
      </trkpt>
      <trkpt lat="45.910943811759353" lon="8.027122942730784">
        <ele>1627.6500000000001</ele>
        <time>2014-09-25T08:05:53Z</time>
      </trkpt>
      <trkpt lat="45.91098572127521" lon="8.027298292145133">
        <ele>1627.1700000000001</ele>
        <time>2014-09-25T08:05:37Z</time>
      </trkpt>
      <trkpt lat="45.911010531708598" lon="8.027462996542454">
        <ele>1625.73</ele>
        <time>2014-09-25T08:05:22Z</time>
      </trkpt>
      <trkpt lat="45.911017656326294" lon="8.027524184435606">
        <ele>1625.25</ele>
        <time>2014-09-25T08:05:18Z</time>
      </trkpt>
      <trkpt lat="45.91103358194232" lon="8.027677657082677">
        <ele>1623.8</ele>
        <time>2014-09-25T08:05:06Z</time>
      </trkpt>
      <trkpt lat="45.911015477031469" lon="8.027762062847614">
        <ele>1622.8399999999999</ele>
        <time>2014-09-25T08:04:59Z</time>
      </trkpt>
      <trkpt lat="45.911009777337313" lon="8.027780167758465">
        <ele>1622.8399999999999</ele>
        <time>2014-09-25T08:04:56Z</time>
      </trkpt>
      <trkpt lat="45.910939704626799" lon="8.027816377580166">
        <ele>1621.8800000000001</ele>
        <time>2014-09-25T08:04:43Z</time>
      </trkpt>
      <trkpt lat="45.91089871712029" lon="8.027917379513383">
        <ele>1619.48</ele>
        <time>2014-09-25T08:04:29Z</time>
      </trkpt>
      <trkpt lat="45.910867201164365" lon="8.027967503294349">
        <ele>1619</ele>
        <time>2014-09-25T08:04:14Z</time>
      </trkpt>
      <trkpt lat="45.910853622481227" lon="8.028014525771141">
        <ele>1615.6300000000001</ele>
        <time>2014-09-25T08:04:03Z</time>
      </trkpt>
      <trkpt lat="45.910742310807109" lon="8.028052747249603">
        <ele>1613.23</ele>
        <time>2014-09-25T08:03:46Z</time>
      </trkpt>
      <trkpt lat="45.910691181197762" lon="8.028112091124058">
        <ele>1610.8299999999999</ele>
        <time>2014-09-25T08:03:30Z</time>
      </trkpt>
      <trkpt lat="45.910673830658197" lon="8.028159029781818">
        <ele>1608.9000000000001</ele>
        <time>2014-09-25T08:03:18Z</time>
      </trkpt>
      <trkpt lat="45.910701407119632" lon="8.028214266523719">
        <ele>1606.5</ele>
        <time>2014-09-25T08:03:05Z</time>
      </trkpt>
      <trkpt lat="45.910612056031823" lon="8.028231197968125">
        <ele>1604.5799999999999</ele>
        <time>2014-09-25T08:02:55Z</time>
      </trkpt>
      <trkpt lat="45.910623036324978" lon="8.028281154111028">
        <ele>1602.6600000000001</ele>
        <time>2014-09-25T08:02:41Z</time>
      </trkpt>
      <trkpt lat="45.910613061860204" lon="8.028350891545415">
        <ele>1600.25</ele>
        <time>2014-09-25T08:02:27Z</time>
      </trkpt>
      <trkpt lat="45.91061725281179" lon="8.02836581133306">
        <ele>1599.29</ele>
        <time>2014-09-25T08:02:13Z</time>
      </trkpt>
      <trkpt lat="45.910584395751357" lon="8.028407553210855">
        <ele>1595.9300000000001</ele>
        <time>2014-09-25T08:02:00Z</time>
      </trkpt>
      <trkpt lat="45.910653043538332" lon="8.028524145483971">
        <ele>1593.52</ele>
        <time>2014-09-25T08:01:42Z</time>
      </trkpt>
      <trkpt lat="45.910678440704942" lon="8.028586087748408">
        <ele>1591.1199999999999</ele>
        <time>2014-09-25T08:01:28Z</time>
      </trkpt>
      <trkpt lat="45.910644326359034" lon="8.028649790212512">
        <ele>1589.2</ele>
        <time>2014-09-25T08:01:15Z</time>
      </trkpt>
      <trkpt lat="45.910633513703942" lon="8.028733609244227">
        <ele>1586.79</ele>
        <time>2014-09-25T08:01:02Z</time>
      </trkpt>
      <trkpt lat="45.910656061023474" lon="8.028800915926695">
        <ele>1584.3900000000001</ele>
        <time>2014-09-25T08:00:47Z</time>
      </trkpt>
      <trkpt lat="45.910682296380401" lon="8.028868893161416">
        <ele>1582.47</ele>
        <time>2014-09-25T08:00:35Z</time>
      </trkpt>
      <trkpt lat="45.910622198134661" lon="8.028897726908326">
        <ele>1580.54</ele>
        <time>2014-09-25T08:00:22Z</time>
      </trkpt>
      <trkpt lat="45.910553466528654" lon="8.028948185965419">
        <ele>1578.1400000000001</ele>
        <time>2014-09-25T08:00:09Z</time>
      </trkpt>
      <trkpt lat="45.910628568381071" lon="8.028989005833864">
        <ele>1576.22</ele>
        <time>2014-09-25T07:59:56Z</time>
      </trkpt>
      <trkpt lat="45.910610212013125" lon="8.029055390506983">
        <ele>1572.8499999999999</ele>
        <time>2014-09-25T07:59:42Z</time>
      </trkpt>
      <trkpt lat="45.910628819838166" lon="8.029076512902975">
        <ele>1571.8900000000001</ele>
        <time>2014-09-25T07:59:39Z</time>
      </trkpt>
      <trkpt lat="45.910663269460201" lon="8.029104759916663">
        <ele>1571.4100000000001</ele>
        <time>2014-09-25T07:59:14Z</time>
      </trkpt>
      <trkpt lat="45.910643571987748" lon="8.029133174568415">
        <ele>1569.97</ele>
        <time>2014-09-25T07:58:59Z</time>
      </trkpt>
      <trkpt lat="45.910595376044512" lon="8.029149770736694">
        <ele>1569.01</ele>
        <time>2014-09-25T07:58:42Z</time>
      </trkpt>
      <trkpt lat="45.910569978877902" lon="8.029165863990784">
        <ele>1568.05</ele>
        <time>2014-09-25T07:58:26Z</time>
      </trkpt>
      <trkpt lat="45.910465456545353" lon="8.029180364683271">
        <ele>1566.1199999999999</ele>
        <time>2014-09-25T07:58:13Z</time>
      </trkpt>
      <trkpt lat="45.910460175946355" lon="8.029250102117658">
        <ele>1564.6800000000001</ele>
        <time>2014-09-25T07:58:00Z</time>
      </trkpt>
      <trkpt lat="45.910381888970733" lon="8.029191428795457">
        <ele>1562.76</ele>
        <time>2014-09-25T07:57:46Z</time>
      </trkpt>
      <trkpt lat="45.910324389114976" lon="8.029208527877927">
        <ele>1560.3599999999999</ele>
        <time>2014-09-25T07:57:33Z</time>
      </trkpt>
      <trkpt lat="45.910285413265228" lon="8.029303997755051">
        <ele>1558.4300000000001</ele>
        <time>2014-09-25T07:57:19Z</time>
      </trkpt>
      <trkpt lat="45.91023763641715" lon="8.029213724657893">
        <ele>1556.51</ele>
        <time>2014-09-25T07:57:07Z</time>
      </trkpt>
      <trkpt lat="45.910190278664231" lon="8.029201151803136">
        <ele>1554.1099999999999</ele>
        <time>2014-09-25T07:56:53Z</time>
      </trkpt>
      <trkpt lat="45.910109477117658" lon="8.029255466535687">
        <ele>1552.6700000000001</ele>
        <time>2014-09-25T07:56:39Z</time>
      </trkpt>
      <trkpt lat="45.910018365830183" lon="8.029327969998121">
        <ele>1550.26</ele>
        <time>2014-09-25T07:56:27Z</time>
      </trkpt>
      <trkpt lat="45.90992926619947" lon="8.029377087950707">
        <ele>1548.8199999999999</ele>
        <time>2014-09-25T07:56:12Z</time>
      </trkpt>
      <trkpt lat="45.90989850461483" lon="8.029378177598119">
        <ele>1549.78</ele>
        <time>2014-09-25T07:56:09Z</time>
      </trkpt>
      <trkpt lat="45.909831030294299" lon="8.02939971908927">
        <ele>1547.3800000000001</ele>
        <time>2014-09-25T07:56:02Z</time>
      </trkpt>
      <trkpt lat="45.909809321165085" lon="8.029411202296615">
        <ele>1546.9000000000001</ele>
        <time>2014-09-25T07:55:57Z</time>
      </trkpt>
      <trkpt lat="45.90972650796175" lon="8.029475910589099">
        <ele>1544.98</ele>
        <time>2014-09-25T07:55:45Z</time>
      </trkpt>
      <trkpt lat="45.909643191844225" lon="8.029580600559712">
        <ele>1542.0899999999999</ele>
        <time>2014-09-25T07:55:30Z</time>
      </trkpt>
      <trkpt lat="45.909606730565429" lon="8.029688475653529">
        <ele>1539.21</ele>
        <time>2014-09-25T07:55:13Z</time>
      </trkpt>
      <trkpt lat="45.909621817991138" lon="8.029770450666547">
        <ele>1535.8399999999999</ele>
        <time>2014-09-25T07:55:00Z</time>
      </trkpt>
      <trkpt lat="45.90964981354773" lon="8.029779167845845">
        <ele>1533.4400000000001</ele>
        <time>2014-09-25T07:54:48Z</time>
      </trkpt>
      <trkpt lat="45.909676551818848" lon="8.029860723763704">
        <ele>1531.04</ele>
        <time>2014-09-25T07:54:34Z</time>
      </trkpt>
      <trkpt lat="45.909669594839215" lon="8.029980249702931">
        <ele>1528.6300000000001</ele>
        <time>2014-09-25T07:54:20Z</time>
      </trkpt>
      <trkpt lat="45.909694824367762" lon="8.030014028772712">
        <ele>1527.6700000000001</ele>
        <time>2014-09-25T07:54:08Z</time>
      </trkpt>
      <trkpt lat="45.909748133271933" lon="8.030031630769372">
        <ele>1524.3099999999999</ele>
        <time>2014-09-25T07:53:57Z</time>
      </trkpt>
      <trkpt lat="45.90976414270699" lon="8.030032049864531">
        <ele>1522.8699999999999</ele>
        <time>2014-09-25T07:53:50Z</time>
      </trkpt>
      <trkpt lat="45.909776380285621" lon="8.030103966593742">
        <ele>1520.9400000000001</ele>
        <time>2014-09-25T07:53:38Z</time>
      </trkpt>
      <trkpt lat="45.909790880978107" lon="8.030196167528629">
        <ele>1518.54</ele>
        <time>2014-09-25T07:53:24Z</time>
      </trkpt>
      <trkpt lat="45.909867826849222" lon="8.030224749818444">
        <ele>1516.6199999999999</ele>
        <time>2014-09-25T07:53:12Z</time>
      </trkpt>
      <trkpt lat="45.9099415037781" lon="8.030249224975705">
        <ele>1514.6900000000001</ele>
        <time>2014-09-25T07:52:58Z</time>
      </trkpt>
      <trkpt lat="45.910061113536358" lon="8.03028853610158">
        <ele>1512.29</ele>
        <time>2014-09-25T07:52:41Z</time>
      </trkpt>
      <trkpt lat="45.910077542066574" lon="8.030294654890895">
        <ele>1512.29</ele>
        <time>2014-09-25T07:52:39Z</time>
      </trkpt>
      <trkpt lat="45.91010277159512" lon="8.030302533879876">
        <ele>1511.8099999999999</ele>
        <time>2014-09-25T07:52:35Z</time>
      </trkpt>
      <trkpt lat="45.910183573141694" lon="8.030344862490892">
        <ele>1509.8900000000001</ele>
        <time>2014-09-25T07:52:21Z</time>
      </trkpt>
      <trkpt lat="45.910182315856218" lon="8.030464220792055">
        <ele>1509.4100000000001</ele>
        <time>2014-09-25T07:52:07Z</time>
      </trkpt>
      <trkpt lat="45.910237468779087" lon="8.030573856085539">
        <ele>1506.04</ele>
        <time>2014-09-25T07:51:54Z</time>
      </trkpt>
      <trkpt lat="45.910264290869236" lon="8.030646359547973">
        <ele>1504.5999999999999</ele>
        <time>2014-09-25T07:51:43Z</time>
      </trkpt>
      <trkpt lat="45.91024300083518" lon="8.030758174136281">
        <ele>1501.72</ele>
        <time>2014-09-25T07:51:28Z</time>
      </trkpt>
      <trkpt lat="45.910200420767069" lon="8.03090175613761">
        <ele>1499.79</ele>
        <time>2014-09-25T07:51:13Z</time>
      </trkpt>
      <trkpt lat="45.910160942003131" lon="8.03101072087884">
        <ele>1497.8699999999999</ele>
        <time>2014-09-25T07:50:59Z</time>
      </trkpt>
      <trkpt lat="45.910085756331682" lon="8.031109962612391">
        <ele>1495.95</ele>
        <time>2014-09-25T07:50:44Z</time>
      </trkpt>
      <trkpt lat="45.910067483782768" lon="8.031216328963637">
        <ele>1494.03</ele>
        <time>2014-09-25T07:50:31Z</time>
      </trkpt>
      <trkpt lat="45.910033704712987" lon="8.031324287876487">
        <ele>1491.1400000000001</ele>
        <time>2014-09-25T07:50:16Z</time>
      </trkpt>
      <trkpt lat="45.90999380685389" lon="8.031444484367967">
        <ele>1489.22</ele>
        <time>2014-09-25T07:50:02Z</time>
      </trkpt>
      <trkpt lat="45.909942425787449" lon="8.031561160460115">
        <ele>1486.8199999999999</ele>
        <time>2014-09-25T07:49:46Z</time>
      </trkpt>
      <trkpt lat="45.909888111054897" lon="8.031713124364615">
        <ele>1483.9300000000001</ele>
        <time>2014-09-25T07:49:29Z</time>
      </trkpt>
      <trkpt lat="45.909800520166755" lon="8.03167381323874">
        <ele>1481.53</ele>
        <time>2014-09-25T07:49:11Z</time>
      </trkpt>
      <trkpt lat="45.909677892923355" lon="8.03161857649684">
        <ele>1479.6099999999999</ele>
        <time>2014-09-25T07:48:56Z</time>
      </trkpt>
      <trkpt lat="45.909673785790801" lon="8.031749920919538">
        <ele>1477.6800000000001</ele>
        <time>2014-09-25T07:48:41Z</time>
      </trkpt>
      <trkpt lat="45.909643610939384" lon="8.031887384131551">
        <ele>1475.28</ele>
        <time>2014-09-25T07:48:25Z</time>
      </trkpt>
      <trkpt lat="45.909619051963091" lon="8.032039096578956">
        <ele>1472.8800000000001</ele>
        <time>2014-09-25T07:48:08Z</time>
      </trkpt>
      <trkpt lat="45.90962047688663" lon="8.032137081027031">
        <ele>1470.95</ele>
        <time>2014-09-25T07:47:56Z</time>
      </trkpt>
      <trkpt lat="45.90961410664022" lon="8.032279741019011">
        <ele>1468.55</ele>
        <time>2014-09-25T07:47:42Z</time>
      </trkpt>
      <trkpt lat="45.909617291763425" lon="8.032369595021009">
        <ele>1466.6300000000001</ele>
        <time>2014-09-25T07:47:30Z</time>
      </trkpt>
      <trkpt lat="45.909507321193814" lon="8.032347382977605">
        <ele>1464.71</ele>
        <time>2014-09-25T07:47:14Z</time>
      </trkpt>
      <trkpt lat="45.909385364502668" lon="8.032376216724515">
        <ele>1461.8199999999999</ele>
        <time>2014-09-25T07:46:58Z</time>
      </trkpt>
      <trkpt lat="45.909377569332719" lon="8.03249029442668">
        <ele>1459.4200000000001</ele>
        <time>2014-09-25T07:46:45Z</time>
      </trkpt>
      <trkpt lat="45.909407241269946" lon="8.032640414312482">
        <ele>1456.53</ele>
        <time>2014-09-25T07:46:30Z</time>
      </trkpt>
      <trkpt lat="45.909452000632882" lon="8.032755497843027">
        <ele>1455.0899999999999</ele>
        <time>2014-09-25T07:46:18Z</time>
      </trkpt>
      <trkpt lat="45.909485947340727" lon="8.032891200855374">
        <ele>1454.1300000000001</ele>
        <time>2014-09-25T07:46:03Z</time>
      </trkpt>
      <trkpt lat="45.909501621499658" lon="8.032997064292431">
        <ele>1450.77</ele>
        <time>2014-09-25T07:45:51Z</time>
      </trkpt>
      <trkpt lat="45.909395087510347" lon="8.033007960766554">
        <ele>1448.8399999999999</ele>
        <time>2014-09-25T07:45:36Z</time>
      </trkpt>
      <trkpt lat="45.909248990938067" lon="8.032974433153868">
        <ele>1446.9200000000001</ele>
        <time>2014-09-25T07:45:23Z</time>
      </trkpt>
      <trkpt lat="45.909248990938067" lon="8.033071747049689">
        <ele>1445</ele>
        <time>2014-09-25T07:45:11Z</time>
      </trkpt>
      <trkpt lat="45.909229880198836" lon="8.033173000440002">
        <ele>1442.5999999999999</ele>
        <time>2014-09-25T07:44:56Z</time>
      </trkpt>
      <trkpt lat="45.909227281808853" lon="8.033321779221296">
        <ele>1441.1500000000001</ele>
        <time>2014-09-25T07:44:44Z</time>
      </trkpt>
      <trkpt lat="45.909213619306684" lon="8.033431163057685">
        <ele>1438.27</ele>
        <time>2014-09-25T07:44:29Z</time>
      </trkpt>
      <trkpt lat="45.909196939319372" lon="8.033574912697077">
        <ele>1435.8699999999999</ele>
        <time>2014-09-25T07:44:16Z</time>
      </trkpt>
      <trkpt lat="45.909159723669291" lon="8.033726289868355">
        <ele>1433.46</ele>
        <time>2014-09-25T07:43:58Z</time>
      </trkpt>
      <trkpt lat="45.909131644293666" lon="8.033877499401569">
        <ele>1430.5799999999999</ele>
        <time>2014-09-25T07:43:43Z</time>
      </trkpt>
      <trkpt lat="45.909123681485653" lon="8.034035749733448">
        <ele>1427.7</ele>
        <time>2014-09-25T07:43:27Z</time>
      </trkpt>
      <trkpt lat="45.90910641476512" lon="8.034160053357482">
        <ele>1426.25</ele>
        <time>2014-09-25T07:43:15Z</time>
      </trkpt>
      <trkpt lat="45.909080682322383" lon="8.034279998391867">
        <ele>1423.3699999999999</ele>
        <time>2014-09-25T07:43:01Z</time>
      </trkpt>
      <trkpt lat="45.909053273499012" lon="8.034422574564815">
        <ele>1420.97</ele>
        <time>2014-09-25T07:42:47Z</time>
      </trkpt>
      <trkpt lat="45.909002143889666" lon="8.034504465758801">
        <ele>1418.5599999999999</ele>
        <time>2014-09-25T07:42:34Z</time>
      </trkpt>
      <trkpt lat="45.908947242423892" lon="8.034518212080002">
        <ele>1418.0799999999999</ele>
        <time>2014-09-25T07:42:29Z</time>
      </trkpt>
      <trkpt lat="45.908937603235245" lon="8.034625584259629">
        <ele>1416.1600000000001</ele>
        <time>2014-09-25T07:42:17Z</time>
      </trkpt>
      <trkpt lat="45.908960234373808" lon="8.034670846536756">
        <ele>1415.6800000000001</ele>
        <time>2014-09-25T07:42:12Z</time>
      </trkpt>
      <trkpt lat="45.909030726179481" lon="8.03471258841455">
        <ele>1414.24</ele>
        <time>2014-09-25T07:42:00Z</time>
      </trkpt>
      <trkpt lat="45.909008011221886" lon="8.034795066341758">
        <ele>1412.79</ele>
        <time>2014-09-25T07:41:47Z</time>
      </trkpt>
      <trkpt lat="45.908930394798517" lon="8.034840663895011">
        <ele>1411.3499999999999</ele>
        <time>2014-09-25T07:41:35Z</time>
      </trkpt>
      <trkpt lat="45.90893835760653" lon="8.034941079095006">
        <ele>1409.4300000000001</ele>
        <time>2014-09-25T07:41:23Z</time>
      </trkpt>
      <trkpt lat="45.909010274335742" lon="8.035028083249927">
        <ele>1407.99</ele>
        <time>2014-09-25T07:41:09Z</time>
      </trkpt>
      <trkpt lat="45.909064169973135" lon="8.035043170675635">
        <ele>1407.99</ele>
        <time>2014-09-25T07:40:57Z</time>
      </trkpt>
      <trkpt lat="45.909062996506691" lon="8.035061862319708">
        <ele>1407.99</ele>
        <time>2014-09-25T07:40:45Z</time>
      </trkpt>
      <trkpt lat="45.909068780019879" lon="8.03507661446929">
        <ele>1407.51</ele>
        <time>2014-09-25T07:40:32Z</time>
      </trkpt>
      <trkpt lat="45.909138517454267" lon="8.035052558407188">
        <ele>1405.5799999999999</ele>
        <time>2014-09-25T07:40:21Z</time>
      </trkpt>
      <trkpt lat="45.909163914620876" lon="8.035020874813199">
        <ele>1406.55</ele>
        <time>2014-09-25T07:39:59Z</time>
      </trkpt>
      <trkpt lat="45.909169195219874" lon="8.035038225352764">
        <ele>1405.0999999999999</ele>
        <time>2014-09-25T07:39:43Z</time>
      </trkpt>
      <trkpt lat="45.909165423363447" lon="8.035023892298341">
        <ele>1405.0999999999999</ele>
        <time>2014-09-25T07:39:24Z</time>
      </trkpt>
      <trkpt lat="45.909255193546414" lon="8.035023808479309">
        <ele>1405.0999999999999</ele>
        <time>2014-09-25T07:39:11Z</time>
      </trkpt>
      <trkpt lat="45.909389555454254" lon="8.035049708560109">
        <ele>1405.0999999999999</ele>
        <time>2014-09-25T07:38:55Z</time>
      </trkpt>
      <trkpt lat="45.909429620951414" lon="8.035043841227889">
        <ele>1406.0699999999999</ele>
        <time>2014-09-25T07:38:51Z</time>
      </trkpt>
      <trkpt lat="45.90946851298213" lon="8.035059180110693">
        <ele>1406.55</ele>
        <time>2014-09-25T07:38:37Z</time>
      </trkpt>
      <trkpt lat="45.909600276499987" lon="8.035080302506685">
        <ele>1404.6199999999999</ele>
        <time>2014-09-25T07:38:21Z</time>
      </trkpt>
      <trkpt lat="45.909538837149739" lon="8.03516210988164">
        <ele>1402.7</ele>
        <time>2014-09-25T07:38:07Z</time>
      </trkpt>
      <trkpt lat="45.909441523253918" lon="8.035287084057927">
        <ele>1401.26</ele>
        <time>2014-09-25T07:37:53Z</time>
      </trkpt>
      <trkpt lat="45.909428615123034" lon="8.03546167910099">
        <ele>1399.3399999999999</ele>
        <time>2014-09-25T07:37:39Z</time>
      </trkpt>
      <trkpt lat="45.909433141350746" lon="8.035639794543386">
        <ele>1397.4100000000001</ele>
        <time>2014-09-25T07:37:26Z</time>
      </trkpt>
      <trkpt lat="45.909425932914019" lon="8.035848001018167">
        <ele>1394.53</ele>
        <time>2014-09-25T07:37:09Z</time>
      </trkpt>
      <trkpt lat="45.909421574324369" lon="8.036006418988109">
        <ele>1393.0899999999999</ele>
        <time>2014-09-25T07:36:54Z</time>
      </trkpt>
      <trkpt lat="45.909413611516356" lon="8.036073474213481">
        <ele>1392.1300000000001</ele>
        <time>2014-09-25T07:36:48Z</time>
      </trkpt>
      <trkpt lat="45.909377485513687" lon="8.036220157518983">
        <ele>1390.2</ele>
        <time>2014-09-25T07:36:35Z</time>
      </trkpt>
      <trkpt lat="45.909343119710684" lon="8.036382179707289">
        <ele>1387.8</ele>
        <time>2014-09-25T07:36:20Z</time>
      </trkpt>
      <trkpt lat="45.90930238366127" lon="8.036538083106279">
        <ele>1385.4000000000001</ele>
        <time>2014-09-25T07:36:05Z</time>
      </trkpt>
      <trkpt lat="45.909255109727383" lon="8.036667667329311">
        <ele>1382.99</ele>
        <time>2014-09-25T07:35:52Z</time>
      </trkpt>
      <trkpt lat="45.909232143312693" lon="8.036845363676548">
        <ele>1380.5899999999999</ele>
        <time>2014-09-25T07:35:37Z</time>
      </trkpt>
      <trkpt lat="45.90922174975276" lon="8.036875538527966">
        <ele>1380.1099999999999</ele>
        <time>2014-09-25T07:35:34Z</time>
      </trkpt>
      <trkpt lat="45.909166345372796" lon="8.036999003961682">
        <ele>1377.71</ele>
        <time>2014-09-25T07:35:21Z</time>
      </trkpt>
      <trkpt lat="45.90911622159183" lon="8.037153566256166">
        <ele>1375.78</ele>
        <time>2014-09-25T07:35:07Z</time>
      </trkpt>
      <trkpt lat="45.909110605716705" lon="8.037321036681533">
        <ele>1373.3800000000001</ele>
        <time>2014-09-25T07:34:53Z</time>
      </trkpt>
      <trkpt lat="45.909148743376136" lon="8.037459086626768">
        <ele>1371.46</ele>
        <time>2014-09-25T07:34:41Z</time>
      </trkpt>
      <trkpt lat="45.90920171700418" lon="8.037624377757311">
        <ele>1369.05</ele>
        <time>2014-09-25T07:34:27Z</time>
      </trkpt>
      <trkpt lat="45.909201884642243" lon="8.037682548165321">
        <ele>1368.0899999999999</ele>
        <time>2014-09-25T07:34:21Z</time>
      </trkpt>
      <trkpt lat="45.909267766401172" lon="8.037800481542945">
        <ele>1365.6900000000001</ele>
        <time>2014-09-25T07:34:07Z</time>
      </trkpt>
      <trkpt lat="45.909386789426208" lon="8.037810120731592">
        <ele>1366.1700000000001</ele>
        <time>2014-09-25T07:33:57Z</time>
      </trkpt>
      <trkpt lat="45.909448228776455" lon="8.03789746016264">
        <ele>1365.21</ele>
        <time>2014-09-25T07:33:47Z</time>
      </trkpt>
      <trkpt lat="45.909478319808841" lon="8.037972562015057">
        <ele>1363.77</ele>
        <time>2014-09-25T07:33:41Z</time>
      </trkpt>
      <trkpt lat="45.909485025331378" lon="8.038012376055121">
        <ele>1363.29</ele>
        <time>2014-09-25T07:33:38Z</time>
      </trkpt>
      <trkpt lat="45.909461136907339" lon="8.038200214505196">
        <ele>1360.4000000000001</ele>
        <time>2014-09-25T07:33:24Z</time>
      </trkpt>
      <trkpt lat="45.909449402242899" lon="8.038237430155277">
        <ele>1359.9200000000001</ele>
        <time>2014-09-25T07:33:21Z</time>
      </trkpt>
      <trkpt lat="45.909421239048243" lon="8.038466004654765">
        <ele>1358</ele>
        <time>2014-09-25T07:33:05Z</time>
      </trkpt>
      <trkpt lat="45.909435907378793" lon="8.038678653538227">
        <ele>1355.5999999999999</ele>
        <time>2014-09-25T07:32:52Z</time>
      </trkpt>
      <trkpt lat="45.909482929855585" lon="8.038861965760589">
        <ele>1353.1900000000001</ele>
        <time>2014-09-25T07:32:38Z</time>
      </trkpt>
      <trkpt lat="45.909535400569439" lon="8.039103196933866">
        <ele>1351.27</ele>
        <time>2014-09-25T07:32:22Z</time>
      </trkpt>
      <trkpt lat="45.909548811614513" lon="8.039163965731859">
        <ele>1351.27</ele>
        <time>2014-09-25T07:32:18Z</time>
      </trkpt>
      <trkpt lat="45.909594241529703" lon="8.039367645978928">
        <ele>1348.8699999999999</ele>
        <time>2014-09-25T07:32:04Z</time>
      </trkpt>
      <trkpt lat="45.909563982859254" lon="8.039582055062056">
        <ele>1346.46</ele>
        <time>2014-09-25T07:31:49Z</time>
      </trkpt>
      <trkpt lat="45.909525845199823" lon="8.039762768894434">
        <ele>1345.02</ele>
        <time>2014-09-25T07:31:38Z</time>
      </trkpt>
      <trkpt lat="45.909497179090977" lon="8.040003580972552">
        <ele>1342.6199999999999</ele>
        <time>2014-09-25T07:31:24Z</time>
      </trkpt>
      <trkpt lat="45.909485025331378" lon="8.040222264826298">
        <ele>1340.22</ele>
        <time>2014-09-25T07:31:11Z</time>
      </trkpt>
      <trkpt lat="45.909574124962091" lon="8.040519738569856">
        <ele>1339.25</ele>
        <time>2014-09-25T07:30:53Z</time>
      </trkpt>
      <trkpt lat="45.909592732787132" lon="8.040589559823275">
        <ele>1338.29</ele>
        <time>2014-09-25T07:30:49Z</time>
      </trkpt>
      <trkpt lat="45.909643610939384" lon="8.040817379951477">
        <ele>1337.3299999999999</ele>
        <time>2014-09-25T07:30:35Z</time>
      </trkpt>
      <trkpt lat="45.909642605111003" lon="8.041057772934437">
        <ele>1334.9300000000001</ele>
        <time>2014-09-25T07:30:20Z</time>
      </trkpt>
      <trkpt lat="45.909609999507666" lon="8.041402688249946">
        <ele>1333.01</ele>
        <time>2014-09-25T07:30:01Z</time>
      </trkpt>
      <trkpt lat="45.909591307863593" lon="8.041644673794508">
        <ele>1330.5999999999999</ele>
        <time>2014-09-25T07:29:47Z</time>
      </trkpt>
      <trkpt lat="45.909597426652908" lon="8.041663533076644">
        <ele>1330.1199999999999</ele>
        <time>2014-09-25T07:29:46Z</time>
      </trkpt>
      <trkpt lat="45.909608826041222" lon="8.041914319619536">
        <ele>1329.6400000000001</ele>
        <time>2014-09-25T07:29:32Z</time>
      </trkpt>
      <trkpt lat="45.909586194902658" lon="8.042031666263938">
        <ele>1329.1600000000001</ele>
        <time>2014-09-25T07:29:25Z</time>
      </trkpt>
      <trkpt lat="45.909550068899989" lon="8.042036695405841">
        <ele>1329.1600000000001</ele>
        <time>2014-09-25T07:29:22Z</time>
      </trkpt>
      <trkpt lat="45.909495586529374" lon="8.042188324034214">
        <ele>1328.6800000000001</ele>
        <time>2014-09-25T07:29:15Z</time>
      </trkpt>
      <trkpt lat="45.909465244039893" lon="8.042264599353075">
        <ele>1328.6800000000001</ele>
        <time>2014-09-25T07:29:10Z</time>
      </trkpt>
      <trkpt lat="45.909526264294982" lon="8.042141972109675">
        <ele>1328.6800000000001</ele>
        <time>2014-09-25T07:28:35Z</time>
      </trkpt>
      <trkpt lat="45.909587787464261" lon="8.042095452547073">
        <ele>1328.6800000000001</ele>
        <time>2014-09-25T07:28:24Z</time>
      </trkpt>
      <trkpt lat="45.90962290763855" lon="8.042126297950745">
        <ele>1328.6800000000001</ele>
        <time>2014-09-25T07:28:21Z</time>
      </trkpt>
      <trkpt lat="45.909650903195143" lon="8.042291672900319">
        <ele>1327.72</ele>
        <time>2014-09-25T07:28:11Z</time>
      </trkpt>
      <trkpt lat="45.909652998670936" lon="8.042366104200482">
        <ele>1327.72</ele>
        <time>2014-09-25T07:28:07Z</time>
      </trkpt>
      <trkpt lat="45.909644616767764" lon="8.042606497183442">
        <ele>1327.72</ele>
        <time>2014-09-25T07:27:53Z</time>
      </trkpt>
      <trkpt lat="45.909653920680285" lon="8.042686376720667">
        <ele>1326.76</ele>
        <time>2014-09-25T07:27:48Z</time>
      </trkpt>
      <trkpt lat="45.909653417766094" lon="8.042733483016491">
        <ele>1326.76</ele>
        <time>2014-09-25T07:27:45Z</time>
      </trkpt>
      <trkpt lat="45.909648891538382" lon="8.042887123301625">
        <ele>1326.28</ele>
        <time>2014-09-25T07:27:36Z</time>
      </trkpt>
      <trkpt lat="45.9096375759691" lon="8.043015701696277">
        <ele>1325.3099999999999</ele>
        <time>2014-09-25T07:27:29Z</time>
      </trkpt>
      <trkpt lat="45.909638162702322" lon="8.043237486854196">
        <ele>1323.3900000000001</ele>
        <time>2014-09-25T07:27:15Z</time>
      </trkpt>
      <trkpt lat="45.909673869609833" lon="8.043305044993758">
        <ele>1323.3900000000001</ele>
        <time>2014-09-25T07:27:11Z</time>
      </trkpt>
      <trkpt lat="45.909723239019513" lon="8.043370759114623">
        <ele>1323.3900000000001</ele>
        <time>2014-09-25T07:27:06Z</time>
      </trkpt>
      <trkpt lat="45.909774284809828" lon="8.043493470177054">
        <ele>1322.9100000000001</ele>
        <time>2014-09-25T07:26:57Z</time>
      </trkpt>
      <trkpt lat="45.909772105515003" lon="8.04349472746253">
        <ele>1321.47</ele>
        <time>2014-09-25T07:26:56Z</time>
      </trkpt>
      <trkpt lat="45.909745115786791" lon="8.043531104922295">
        <ele>1321.95</ele>
        <time>2014-09-25T07:26:27Z</time>
      </trkpt>
      <trkpt lat="45.909713264554739" lon="8.043643590062857">
        <ele>1321.95</ele>
        <time>2014-09-25T07:26:15Z</time>
      </trkpt>
      <trkpt lat="45.909701026976109" lon="8.043888341635466">
        <ele>1320.99</ele>
        <time>2014-09-25T07:26:00Z</time>
      </trkpt>
      <trkpt lat="45.909700943157077" lon="8.043903596699238">
        <ele>1320.99</ele>
        <time>2014-09-25T07:25:59Z</time>
      </trkpt>
      <trkpt lat="45.909707732498646" lon="8.044107025489211">
        <ele>1320.03</ele>
        <time>2014-09-25T07:25:45Z</time>
      </trkpt>
      <trkpt lat="45.909697590395808" lon="8.044324032962322">
        <ele>1318.5899999999999</ele>
        <time>2014-09-25T07:25:31Z</time>
      </trkpt>
      <trkpt lat="45.909679150208831" lon="8.04445437155664">
        <ele>1317.6199999999999</ele>
        <time>2014-09-25T07:25:22Z</time>
      </trkpt>
      <trkpt lat="45.909670768305659" lon="8.044722843915224">
        <ele>1316.6600000000001</ele>
        <time>2014-09-25T07:25:05Z</time>
      </trkpt>
      <trkpt lat="45.909675965085626" lon="8.04476760327816">
        <ele>1316.6600000000001</ele>
        <time>2014-09-25T07:25:02Z</time>
      </trkpt>
      <trkpt lat="45.909668756648898" lon="8.044797945767641">
        <ele>1316.6600000000001</ele>
        <time>2014-09-25T07:25:00Z</time>
      </trkpt>
      <trkpt lat="45.909679485484958" lon="8.044881764799357">
        <ele>1315.7</ele>
        <time>2014-09-25T07:24:54Z</time>
      </trkpt>
      <trkpt lat="45.909698260948062" lon="8.04508913308382">
        <ele>1314.74</ele>
        <time>2014-09-25T07:24:41Z</time>
      </trkpt>
      <trkpt lat="45.90970991179347" lon="8.045300776138902">
        <ele>1313.3</ele>
        <time>2014-09-25T07:24:26Z</time>
      </trkpt>
      <trkpt lat="45.90973237529397" lon="8.045459864661098">
        <ele>1312.8199999999999</ele>
        <time>2014-09-25T07:24:10Z</time>
      </trkpt>
      <trkpt lat="45.909704715013504" lon="8.045649379491806">
        <ele>1312.8199999999999</ele>
        <time>2014-09-25T07:23:58Z</time>
      </trkpt>
      <trkpt lat="45.909682838246226" lon="8.045862698927522">
        <ele>1311.8599999999999</ele>
        <time>2014-09-25T07:23:41Z</time>
      </trkpt>
      <trkpt lat="45.909645706415176" lon="8.046067385002971">
        <ele>1309.9300000000001</ele>
        <time>2014-09-25T07:23:26Z</time>
      </trkpt>
      <trkpt lat="45.909583512693644" lon="8.046287996694446">
        <ele>1308.49</ele>
        <time>2014-09-25T07:23:09Z</time>
      </trkpt>
      <trkpt lat="45.909497011452913" lon="8.046520091593266">
        <ele>1308.01</ele>
        <time>2014-09-25T07:22:54Z</time>
      </trkpt>
      <trkpt lat="45.909423166885972" lon="8.046839023008943">
        <ele>1307.05</ele>
        <time>2014-09-25T07:22:36Z</time>
      </trkpt>
      <trkpt lat="45.909352339804173" lon="8.047141022980213">
        <ele>1305.6099999999999</ele>
        <time>2014-09-25T07:22:18Z</time>
      </trkpt>
      <trkpt lat="45.909309424459934" lon="8.047322910279036">
        <ele>1304.6500000000001</ele>
        <time>2014-09-25T07:22:07Z</time>
      </trkpt>
      <trkpt lat="45.909230131655931" lon="8.047552322968841">
        <ele>1303.2</ele>
        <time>2014-09-25T07:21:51Z</time>
      </trkpt>
      <trkpt lat="45.909151928499341" lon="8.047785256057978">
        <ele>1301.76</ele>
        <time>2014-09-25T07:21:35Z</time>
      </trkpt>
      <trkpt lat="45.909099709242582" lon="8.047924395650625">
        <ele>1301.76</ele>
        <time>2014-09-25T07:21:21Z</time>
      </trkpt>
      <trkpt lat="45.909069031476974" lon="8.048006370663643">
        <ele>1301.28</ele>
        <time>2014-09-25T07:21:14Z</time>
      </trkpt>
      <trkpt lat="45.909064337611198" lon="8.048040820285678">
        <ele>1301.28</ele>
        <time>2014-09-25T07:21:12Z</time>
      </trkpt>
      <trkpt lat="45.908976076170802" lon="8.048295881599188">
        <ele>1299.8399999999999</ele>
        <time>2014-09-25T07:20:56Z</time>
      </trkpt>
      <trkpt lat="45.908964173868299" lon="8.048390010371804">
        <ele>1299.3599999999999</ele>
        <time>2014-09-25T07:20:49Z</time>
      </trkpt>
      <trkpt lat="45.908965012058616" lon="8.048408702015877">
        <ele>1299.3599999999999</ele>
        <time>2014-09-25T07:20:43Z</time>
      </trkpt>
      <trkpt lat="45.908980770036578" lon="8.048428148031235">
        <ele>1299.3599999999999</ele>
        <time>2014-09-25T07:20:20Z</time>
      </trkpt>
      <trkpt lat="45.908938189968467" lon="8.048505764454603">
        <ele>1298.8800000000001</ele>
        <time>2014-09-25T07:20:07Z</time>
      </trkpt>
      <trkpt lat="45.908867279067636" lon="8.04874163120985">
        <ele>1298.4000000000001</ele>
        <time>2014-09-25T07:19:49Z</time>
      </trkpt>
      <trkpt lat="45.908838529139757" lon="8.048800220713019">
        <ele>1298.4000000000001</ele>
        <time>2014-09-25T07:19:45Z</time>
      </trkpt>
      <trkpt lat="45.908833080902696" lon="8.048803238198161">
        <ele>1298.4000000000001</ele>
        <time>2014-09-25T07:19:43Z</time>
      </trkpt>
      <trkpt lat="45.908796368166804" lon="8.048785971477628">
        <ele>1298.4000000000001</ele>
        <time>2014-09-25T07:19:31Z</time>
      </trkpt>
      <trkpt lat="45.908728642389178" lon="8.04895612411201">
        <ele>1297.9200000000001</ele>
        <time>2014-09-25T07:19:17Z</time>
      </trkpt>
      <trkpt lat="45.908719757571816" lon="8.048989148810506">
        <ele>1297.9200000000001</ele>
        <time>2014-09-25T07:19:14Z</time>
      </trkpt>
      <trkpt lat="45.908673573285341" lon="8.0490308906883">
        <ele>1297.9200000000001</ele>
        <time>2014-09-25T07:19:02Z</time>
      </trkpt>
      <trkpt lat="45.908664017915726" lon="8.049059892073274">
        <ele>1297.4400000000001</ele>
        <time>2014-09-25T07:18:59Z</time>
      </trkpt>
      <trkpt lat="45.908609200268984" lon="8.049152931198478">
        <ele>1297.9200000000001</ele>
        <time>2014-09-25T07:18:43Z</time>
      </trkpt>
      <trkpt lat="45.908530578017235" lon="8.049288634210825">
        <ele>1297.9200000000001</ele>
        <time>2014-09-25T07:18:30Z</time>
      </trkpt>
      <trkpt lat="45.908479616045952" lon="8.049421487376094">
        <ele>1297.4400000000001</ele>
        <time>2014-09-25T07:18:16Z</time>
      </trkpt>
      <trkpt lat="45.908395880833268" lon="8.049594070762396">
        <ele>1296.96</ele>
        <time>2014-09-25T07:18:00Z</time>
      </trkpt>
      <trkpt lat="45.908358497545123" lon="8.049714770168066">
        <ele>1296.96</ele>
        <time>2014-09-25T07:17:49Z</time>
      </trkpt>
      <trkpt lat="45.908316252753139" lon="8.049800265580416">
        <ele>1295.99</ele>
        <time>2014-09-25T07:17:37Z</time>
      </trkpt>
      <trkpt lat="45.908255819231272" lon="8.050024565309286">
        <ele>1294.55</ele>
        <time>2014-09-25T07:17:21Z</time>
      </trkpt>
      <trkpt lat="45.90824643149972" lon="8.050079299136996">
        <ele>1294.0699999999999</ele>
        <time>2014-09-25T07:17:11Z</time>
      </trkpt>
      <trkpt lat="45.908242156729102" lon="8.05004183202982">
        <ele>1293.1099999999999</ele>
        <time>2014-09-25T07:16:58Z</time>
      </trkpt>
      <trkpt lat="45.908221956342459" lon="8.050062116235495">
        <ele>1294.55</ele>
        <time>2014-09-25T07:16:54Z</time>
      </trkpt>
      <trkpt lat="45.908217430114746" lon="8.05006337352097">
        <ele>1294.55</ele>
        <time>2014-09-25T07:16:53Z</time>
      </trkpt>
    </trkseg>
  </trk>

</gpx>